<?xml version="1.0" encoding="UTF-8" standalone="no" ?>
<gpx xmlns="http://www.topografix.com/GPX/1/1" xmlns:xsi="http://www.w3.org/2001/XMLSchema-instance" xsi:schemaLocation="http://www.topografix.com/GPX/1/1 http://www.topografix.com/GPX/1/1/gpx.xsd" version="1.1" creator="VisuGPX - https://www.visugpx.com">
  <metadata>
    <name>Crozon, de Trégarvan au Menez Hom</name>
    <desc><![CDATA[Crozon, de Trégarvan au Menez Hom.]]></desc>
  </metadata>
  <trk>
    <name><![CDATA[AVR-17-13 14:24:32]]></name>
    <trkseg>
      <trkpt lat="48.25069" lon="-4.23048">
        <ele>9.27</ele>
        <time>2013-04-17T07:33:00Z</time>
      </trkpt>
      <trkpt lat="48.25068" lon="-4.23059">
        <ele>6.39</ele>
        <time>2013-04-17T07:33:09Z</time>
      </trkpt>
      <trkpt lat="48.25068" lon="-4.23063">
        <ele>9.75</ele>
        <time>2013-04-17T07:33:12Z</time>
      </trkpt>
      <trkpt lat="48.25067" lon="-4.23068">
        <ele>8.79</ele>
        <time>2013-04-17T07:33:25Z</time>
      </trkpt>
      <trkpt lat="48.25066" lon="-4.23069">
        <ele>9.27</ele>
        <time>2013-04-17T07:33:26Z</time>
      </trkpt>
      <trkpt lat="48.25059" lon="-4.23101">
        <ele>8.79</ele>
        <time>2013-04-17T07:33:46Z</time>
      </trkpt>
      <trkpt lat="48.25058" lon="-4.23106">
        <ele>8.31</ele>
        <time>2013-04-17T07:33:50Z</time>
      </trkpt>
      <trkpt lat="48.25056" lon="-4.23114">
        <ele>8.79</ele>
        <time>2013-04-17T07:33:55Z</time>
      </trkpt>
      <trkpt lat="48.25053" lon="-4.23124">
        <ele>8.79</ele>
        <time>2013-04-17T07:34:01Z</time>
      </trkpt>
      <trkpt lat="48.25051" lon="-4.23127">
        <ele>8.79</ele>
        <time>2013-04-17T07:34:03Z</time>
      </trkpt>
      <trkpt lat="48.25047" lon="-4.2314">
        <ele>8.79</ele>
        <time>2013-04-17T07:34:12Z</time>
      </trkpt>
      <trkpt lat="48.25045" lon="-4.23146">
        <ele>9.75</ele>
        <time>2013-04-17T07:34:16Z</time>
      </trkpt>
      <trkpt lat="48.25043" lon="-4.2315">
        <ele>9.75</ele>
        <time>2013-04-17T07:34:18Z</time>
      </trkpt>
      <trkpt lat="48.25039" lon="-4.23164">
        <ele>9.75</ele>
        <time>2013-04-17T07:34:27Z</time>
      </trkpt>
      <trkpt lat="48.25032" lon="-4.23192">
        <ele>9.75</ele>
        <time>2013-04-17T07:34:44Z</time>
      </trkpt>
      <trkpt lat="48.25027" lon="-4.23209">
        <ele>9.27</ele>
        <time>2013-04-17T07:34:54Z</time>
      </trkpt>
      <trkpt lat="48.25022" lon="-4.23229">
        <ele>9.75</ele>
        <time>2013-04-17T07:35:06Z</time>
      </trkpt>
      <trkpt lat="48.2502" lon="-4.23234">
        <ele>9.75</ele>
        <time>2013-04-17T07:35:11Z</time>
      </trkpt>
      <trkpt lat="48.25021" lon="-4.23239">
        <ele>10.23</ele>
        <time>2013-04-17T07:35:15Z</time>
      </trkpt>
      <trkpt lat="48.25016" lon="-4.23249">
        <ele>10.23</ele>
        <time>2013-04-17T07:35:24Z</time>
      </trkpt>
      <trkpt lat="48.25015" lon="-4.2327">
        <ele>12.15</ele>
        <time>2013-04-17T07:35:40Z</time>
      </trkpt>
      <trkpt lat="48.25009" lon="-4.2329">
        <ele>13.6</ele>
        <time>2013-04-17T07:35:54Z</time>
      </trkpt>
      <trkpt lat="48.25005" lon="-4.23309">
        <ele>15.04</ele>
        <time>2013-04-17T07:36:07Z</time>
      </trkpt>
      <trkpt lat="48.25002" lon="-4.23313">
        <ele>15.52</ele>
        <time>2013-04-17T07:36:11Z</time>
      </trkpt>
      <trkpt lat="48.24998" lon="-4.2333">
        <ele>16.48</ele>
        <time>2013-04-17T07:36:25Z</time>
      </trkpt>
      <trkpt lat="48.24998" lon="-4.2336">
        <ele>18.88</ele>
        <time>2013-04-17T07:36:41Z</time>
      </trkpt>
      <trkpt lat="48.24999" lon="-4.23391">
        <ele>17.92</ele>
        <time>2013-04-17T07:36:59Z</time>
      </trkpt>
      <trkpt lat="48.24997" lon="-4.23397">
        <ele>18.4</ele>
        <time>2013-04-17T07:37:03Z</time>
      </trkpt>
      <trkpt lat="48.25" lon="-4.2342">
        <ele>18.88</ele>
        <time>2013-04-17T07:37:17Z</time>
      </trkpt>
      <trkpt lat="48.25002" lon="-4.23432">
        <ele>18.88</ele>
        <time>2013-04-17T07:37:24Z</time>
      </trkpt>
      <trkpt lat="48.25003" lon="-4.23443">
        <ele>18.4</ele>
        <time>2013-04-17T07:37:32Z</time>
      </trkpt>
      <trkpt lat="48.25003" lon="-4.23471">
        <ele>17.92</ele>
        <time>2013-04-17T07:37:50Z</time>
      </trkpt>
      <trkpt lat="48.25004" lon="-4.23483">
        <ele>17.92</ele>
        <time>2013-04-17T07:37:57Z</time>
      </trkpt>
      <trkpt lat="48.25003" lon="-4.23513">
        <ele>17.92</ele>
        <time>2013-04-17T07:38:14Z</time>
      </trkpt>
      <trkpt lat="48.25002" lon="-4.23526">
        <ele>18.4</ele>
        <time>2013-04-17T07:38:22Z</time>
      </trkpt>
      <trkpt lat="48.25005" lon="-4.23557">
        <ele>18.88</ele>
        <time>2013-04-17T07:38:40Z</time>
      </trkpt>
      <trkpt lat="48.25004" lon="-4.2356">
        <ele>18.88</ele>
        <time>2013-04-17T07:38:42Z</time>
      </trkpt>
      <trkpt lat="48.25006" lon="-4.23567">
        <ele>19.36</ele>
        <time>2013-04-17T07:38:46Z</time>
      </trkpt>
      <trkpt lat="48.25008" lon="-4.23577">
        <ele>18.88</ele>
        <time>2013-04-17T07:38:52Z</time>
      </trkpt>
      <trkpt lat="48.25012" lon="-4.23596">
        <ele>19.84</ele>
        <time>2013-04-17T07:39:04Z</time>
      </trkpt>
      <trkpt lat="48.25014" lon="-4.23608">
        <ele>20.32</ele>
        <time>2013-04-17T07:39:12Z</time>
      </trkpt>
      <trkpt lat="48.25013" lon="-4.23623">
        <ele>20.81</ele>
        <time>2013-04-17T07:39:27Z</time>
      </trkpt>
      <trkpt lat="48.25013" lon="-4.23636">
        <ele>20.81</ele>
        <time>2013-04-17T07:39:35Z</time>
      </trkpt>
      <trkpt lat="48.25016" lon="-4.23649">
        <ele>20.81</ele>
        <time>2013-04-17T07:39:43Z</time>
      </trkpt>
      <trkpt lat="48.25023" lon="-4.23666">
        <ele>20.32</ele>
        <time>2013-04-17T07:39:56Z</time>
      </trkpt>
      <trkpt lat="48.25023" lon="-4.2367">
        <ele>19.84</ele>
        <time>2013-04-17T07:39:58Z</time>
      </trkpt>
      <trkpt lat="48.25027" lon="-4.23696">
        <ele>18.4</ele>
        <time>2013-04-17T07:40:14Z</time>
      </trkpt>
      <trkpt lat="48.25025" lon="-4.23702">
        <ele>18.4</ele>
        <time>2013-04-17T07:40:18Z</time>
      </trkpt>
      <trkpt lat="48.25033" lon="-4.23716">
        <ele>17.92</ele>
        <time>2013-04-17T07:40:30Z</time>
      </trkpt>
      <trkpt lat="48.25039" lon="-4.23729">
        <ele>18.4</ele>
        <time>2013-04-17T07:40:41Z</time>
      </trkpt>
      <trkpt lat="48.25056" lon="-4.23737">
        <ele>17.92</ele>
        <time>2013-04-17T07:40:56Z</time>
      </trkpt>
      <trkpt lat="48.25061" lon="-4.23743">
        <ele>17.92</ele>
        <time>2013-04-17T07:41:02Z</time>
      </trkpt>
      <trkpt lat="48.25068" lon="-4.23758">
        <ele>16.96</ele>
        <time>2013-04-17T07:41:13Z</time>
      </trkpt>
      <trkpt lat="48.25068" lon="-4.23766">
        <ele>16.96</ele>
        <time>2013-04-17T07:41:17Z</time>
      </trkpt>
      <trkpt lat="48.25072" lon="-4.23774">
        <ele>17.44</ele>
        <time>2013-04-17T07:41:21Z</time>
      </trkpt>
      <trkpt lat="48.25074" lon="-4.2378">
        <ele>17.44</ele>
        <time>2013-04-17T07:41:24Z</time>
      </trkpt>
      <trkpt lat="48.25076" lon="-4.23785">
        <ele>17.44</ele>
        <time>2013-04-17T07:41:28Z</time>
      </trkpt>
      <trkpt lat="48.25078" lon="-4.2379">
        <ele>17.44</ele>
        <time>2013-04-17T07:41:31Z</time>
      </trkpt>
      <trkpt lat="48.25078" lon="-4.238">
        <ele>16.96</ele>
        <time>2013-04-17T07:41:37Z</time>
      </trkpt>
      <trkpt lat="48.25078" lon="-4.23808">
        <ele>16.96</ele>
        <time>2013-04-17T07:41:41Z</time>
      </trkpt>
      <trkpt lat="48.25079" lon="-4.23812">
        <ele>16.96</ele>
        <time>2013-04-17T07:41:44Z</time>
      </trkpt>
      <trkpt lat="48.25078" lon="-4.23823">
        <ele>16.96</ele>
        <time>2013-04-17T07:41:50Z</time>
      </trkpt>
      <trkpt lat="48.25076" lon="-4.23843">
        <ele>17.44</ele>
        <time>2013-04-17T07:42:03Z</time>
      </trkpt>
      <trkpt lat="48.25076" lon="-4.23849">
        <ele>16.96</ele>
        <time>2013-04-17T07:42:07Z</time>
      </trkpt>
      <trkpt lat="48.25074" lon="-4.23864">
        <ele>16.48</ele>
        <time>2013-04-17T07:42:20Z</time>
      </trkpt>
      <trkpt lat="48.25073" lon="-4.23878">
        <ele>16.96</ele>
        <time>2013-04-17T07:42:28Z</time>
      </trkpt>
      <trkpt lat="48.25071" lon="-4.23885">
        <ele>16.96</ele>
        <time>2013-04-17T07:42:32Z</time>
      </trkpt>
      <trkpt lat="48.25073" lon="-4.23916">
        <ele>16.96</ele>
        <time>2013-04-17T07:42:49Z</time>
      </trkpt>
      <trkpt lat="48.25073" lon="-4.2392">
        <ele>16.48</ele>
        <time>2013-04-17T07:42:52Z</time>
      </trkpt>
      <trkpt lat="48.25073" lon="-4.23926">
        <ele>16.48</ele>
        <time>2013-04-17T07:42:55Z</time>
      </trkpt>
      <trkpt lat="48.25073" lon="-4.23938">
        <ele>16.96</ele>
        <time>2013-04-17T07:43:00Z</time>
      </trkpt>
      <trkpt lat="48.25074" lon="-4.23952">
        <ele>16.48</ele>
        <time>2013-04-17T07:43:07Z</time>
      </trkpt>
      <trkpt lat="48.25077" lon="-4.23979">
        <ele>16</ele>
        <time>2013-04-17T07:43:22Z</time>
      </trkpt>
      <trkpt lat="48.25075" lon="-4.23992">
        <ele>15.52</ele>
        <time>2013-04-17T07:43:29Z</time>
      </trkpt>
      <trkpt lat="48.25071" lon="-4.24004">
        <ele>14.56</ele>
        <time>2013-04-17T07:43:35Z</time>
      </trkpt>
      <trkpt lat="48.2507" lon="-4.24028">
        <ele>13.6</ele>
        <time>2013-04-17T07:43:50Z</time>
      </trkpt>
      <trkpt lat="48.25071" lon="-4.24038">
        <ele>14.08</ele>
        <time>2013-04-17T07:43:57Z</time>
      </trkpt>
      <trkpt lat="48.25073" lon="-4.24051">
        <ele>13.6</ele>
        <time>2013-04-17T07:44:04Z</time>
      </trkpt>
      <trkpt lat="48.25068" lon="-4.24072">
        <ele>15.04</ele>
        <time>2013-04-17T07:44:19Z</time>
      </trkpt>
      <trkpt lat="48.25063" lon="-4.24095">
        <ele>16.48</ele>
        <time>2013-04-17T07:44:33Z</time>
      </trkpt>
      <trkpt lat="48.25065" lon="-4.24116">
        <ele>16.48</ele>
        <time>2013-04-17T07:44:46Z</time>
      </trkpt>
      <trkpt lat="48.25063" lon="-4.24138">
        <ele>16.48</ele>
        <time>2013-04-17T07:44:58Z</time>
      </trkpt>
      <trkpt lat="48.25056" lon="-4.24163">
        <ele>16</ele>
        <time>2013-04-17T07:45:14Z</time>
      </trkpt>
      <trkpt lat="48.25053" lon="-4.2417">
        <ele>16</ele>
        <time>2013-04-17T07:45:19Z</time>
      </trkpt>
      <trkpt lat="48.25049" lon="-4.24192">
        <ele>14.56</ele>
        <time>2013-04-17T07:45:34Z</time>
      </trkpt>
      <trkpt lat="48.25044" lon="-4.24201">
        <ele>13.12</ele>
        <time>2013-04-17T07:45:39Z</time>
      </trkpt>
      <trkpt lat="48.25042" lon="-4.24222">
        <ele>11.67</ele>
        <time>2013-04-17T07:45:52Z</time>
      </trkpt>
      <trkpt lat="48.25035" lon="-4.24249">
        <ele>10.23</ele>
        <time>2013-04-17T07:46:10Z</time>
      </trkpt>
      <trkpt lat="48.2503" lon="-4.24273">
        <ele>9.27</ele>
        <time>2013-04-17T07:46:25Z</time>
      </trkpt>
      <trkpt lat="48.25009" lon="-4.24289">
        <ele>8.79</ele>
        <time>2013-04-17T07:46:38Z</time>
      </trkpt>
      <trkpt lat="48.25004" lon="-4.24295">
        <ele>8.79</ele>
        <time>2013-04-17T07:46:43Z</time>
      </trkpt>
      <trkpt lat="48.25001" lon="-4.24298">
        <ele>8.79</ele>
        <time>2013-04-17T07:46:46Z</time>
      </trkpt>
      <trkpt lat="48.24989" lon="-4.2431">
        <ele>9.27</ele>
        <time>2013-04-17T07:47:01Z</time>
      </trkpt>
      <trkpt lat="48.24979" lon="-4.24313">
        <ele>9.27</ele>
        <time>2013-04-17T07:47:15Z</time>
      </trkpt>
      <trkpt lat="48.24976" lon="-4.24314">
        <ele>9.27</ele>
        <time>2013-04-17T07:47:32Z</time>
      </trkpt>
      <trkpt lat="48.24966" lon="-4.24314">
        <ele>9.75</ele>
        <time>2013-04-17T07:47:46Z</time>
      </trkpt>
      <trkpt lat="48.24943" lon="-4.2431">
        <ele>9.75</ele>
        <time>2013-04-17T07:48:00Z</time>
      </trkpt>
      <trkpt lat="48.2492" lon="-4.24298">
        <ele>11.67</ele>
        <time>2013-04-17T07:48:17Z</time>
      </trkpt>
      <trkpt lat="48.24912" lon="-4.24292">
        <ele>12.63</ele>
        <time>2013-04-17T07:48:34Z</time>
      </trkpt>
      <trkpt lat="48.24899" lon="-4.24283">
        <ele>12.15</ele>
        <time>2013-04-17T07:48:41Z</time>
      </trkpt>
      <trkpt lat="48.24884" lon="-4.24278">
        <ele>9.75</ele>
        <time>2013-04-17T07:48:57Z</time>
      </trkpt>
      <trkpt lat="48.24869" lon="-4.24267">
        <ele>9.75</ele>
        <time>2013-04-17T07:49:13Z</time>
      </trkpt>
      <trkpt lat="48.24855" lon="-4.24255">
        <ele>11.67</ele>
        <time>2013-04-17T07:49:31Z</time>
      </trkpt>
      <trkpt lat="48.24848" lon="-4.2425">
        <ele>13.12</ele>
        <time>2013-04-17T07:49:51Z</time>
      </trkpt>
      <trkpt lat="48.24843" lon="-4.24243">
        <ele>14.56</ele>
        <time>2013-04-17T07:50:14Z</time>
      </trkpt>
      <trkpt lat="48.24824" lon="-4.2424">
        <ele>16.48</ele>
        <time>2013-04-17T07:50:39Z</time>
      </trkpt>
      <trkpt lat="48.24814" lon="-4.24232">
        <ele>16</ele>
        <time>2013-04-17T07:50:59Z</time>
      </trkpt>
      <trkpt lat="48.24786" lon="-4.24222">
        <ele>16.96</ele>
        <time>2013-04-17T07:51:19Z</time>
      </trkpt>
      <trkpt lat="48.24761" lon="-4.24209">
        <ele>17.92</ele>
        <time>2013-04-17T07:51:35Z</time>
      </trkpt>
      <trkpt lat="48.24741" lon="-4.24199">
        <ele>18.4</ele>
        <time>2013-04-17T07:51:47Z</time>
      </trkpt>
      <trkpt lat="48.24724" lon="-4.24197">
        <ele>17.92</ele>
        <time>2013-04-17T07:52:01Z</time>
      </trkpt>
      <trkpt lat="48.24709" lon="-4.24191">
        <ele>19.36</ele>
        <time>2013-04-17T07:52:17Z</time>
      </trkpt>
      <trkpt lat="48.24695" lon="-4.2419">
        <ele>19.36</ele>
        <time>2013-04-17T07:52:24Z</time>
      </trkpt>
      <trkpt lat="48.2469" lon="-4.24191">
        <ele>19.36</ele>
        <time>2013-04-17T07:52:26Z</time>
      </trkpt>
      <trkpt lat="48.24677" lon="-4.24208">
        <ele>19.36</ele>
        <time>2013-04-17T07:52:41Z</time>
      </trkpt>
      <trkpt lat="48.24676" lon="-4.24237">
        <ele>19.36</ele>
        <time>2013-04-17T07:52:56Z</time>
      </trkpt>
      <trkpt lat="48.24671" lon="-4.24247">
        <ele>16.96</ele>
        <time>2013-04-17T07:53:01Z</time>
      </trkpt>
      <trkpt lat="48.24664" lon="-4.24263">
        <ele>19.36</ele>
        <time>2013-04-17T07:53:12Z</time>
      </trkpt>
      <trkpt lat="48.24655" lon="-4.24282">
        <ele>21.77</ele>
        <time>2013-04-17T07:53:29Z</time>
      </trkpt>
      <trkpt lat="48.24646" lon="-4.24288">
        <ele>22.73</ele>
        <time>2013-04-17T07:53:43Z</time>
      </trkpt>
      <trkpt lat="48.24639" lon="-4.24288">
        <ele>23.21</ele>
        <time>2013-04-17T07:53:56Z</time>
      </trkpt>
      <trkpt lat="48.24637" lon="-4.24288">
        <ele>24.17</ele>
        <time>2013-04-17T07:54:03Z</time>
      </trkpt>
      <trkpt lat="48.24624" lon="-4.24291">
        <ele>25.61</ele>
        <time>2013-04-17T07:54:15Z</time>
      </trkpt>
      <trkpt lat="48.2461" lon="-4.24291">
        <ele>27.05</ele>
        <time>2013-04-17T07:54:28Z</time>
      </trkpt>
      <trkpt lat="48.24602" lon="-4.24292">
        <ele>27.05</ele>
        <time>2013-04-17T07:54:44Z</time>
      </trkpt>
      <trkpt lat="48.24602" lon="-4.24293">
        <ele>28.5</ele>
        <time>2013-04-17T07:55:33Z</time>
      </trkpt>
      <trkpt lat="48.24602" lon="-4.24293">
        <ele>28.02</ele>
        <time>2013-04-17T07:56:21Z</time>
      </trkpt>
      <trkpt lat="48.24602" lon="-4.24294">
        <ele>28.02</ele>
        <time>2013-04-17T07:56:56Z</time>
      </trkpt>
      <trkpt lat="48.24602" lon="-4.24295">
        <ele>28.02</ele>
        <time>2013-04-17T07:57:34Z</time>
      </trkpt>
      <trkpt lat="48.24601" lon="-4.24296">
        <ele>28.02</ele>
        <time>2013-04-17T07:58:08Z</time>
      </trkpt>
      <trkpt lat="48.246" lon="-4.24296">
        <ele>28.5</ele>
        <time>2013-04-17T07:59:20Z</time>
      </trkpt>
      <trkpt lat="48.246" lon="-4.24297">
        <ele>28.98</ele>
        <time>2013-04-17T08:00:14Z</time>
      </trkpt>
      <trkpt lat="48.246" lon="-4.24298">
        <ele>28.5</ele>
        <time>2013-04-17T08:01:40Z</time>
      </trkpt>
      <trkpt lat="48.24599" lon="-4.24298">
        <ele>28.98</ele>
        <time>2013-04-17T08:02:05Z</time>
      </trkpt>
      <trkpt lat="48.24592" lon="-4.24289">
        <ele>29.94</ele>
        <time>2013-04-17T08:02:29Z</time>
      </trkpt>
      <trkpt lat="48.24588" lon="-4.24284">
        <ele>31.38</ele>
        <time>2013-04-17T08:02:37Z</time>
      </trkpt>
      <trkpt lat="48.24583" lon="-4.24273">
        <ele>31.86</ele>
        <time>2013-04-17T08:02:46Z</time>
      </trkpt>
      <trkpt lat="48.24579" lon="-4.2426">
        <ele>32.34</ele>
        <time>2013-04-17T08:02:55Z</time>
      </trkpt>
      <trkpt lat="48.24578" lon="-4.24257">
        <ele>31.86</ele>
        <time>2013-04-17T08:02:57Z</time>
      </trkpt>
      <trkpt lat="48.24573" lon="-4.24251">
        <ele>32.82</ele>
        <time>2013-04-17T08:03:03Z</time>
      </trkpt>
      <trkpt lat="48.24571" lon="-4.24249">
        <ele>32.82</ele>
        <time>2013-04-17T08:03:05Z</time>
      </trkpt>
      <trkpt lat="48.24568" lon="-4.24243">
        <ele>32.82</ele>
        <time>2013-04-17T08:03:09Z</time>
      </trkpt>
      <trkpt lat="48.24563" lon="-4.24237">
        <ele>33.3</ele>
        <time>2013-04-17T08:03:14Z</time>
      </trkpt>
      <trkpt lat="48.24557" lon="-4.24222">
        <ele>33.78</ele>
        <time>2013-04-17T08:03:24Z</time>
      </trkpt>
      <trkpt lat="48.24551" lon="-4.24209">
        <ele>34.74</ele>
        <time>2013-04-17T08:03:35Z</time>
      </trkpt>
      <trkpt lat="48.24548" lon="-4.24205">
        <ele>34.26</ele>
        <time>2013-04-17T08:03:38Z</time>
      </trkpt>
      <trkpt lat="48.24546" lon="-4.242">
        <ele>34.74</ele>
        <time>2013-04-17T08:03:42Z</time>
      </trkpt>
      <trkpt lat="48.24544" lon="-4.24195">
        <ele>34.74</ele>
        <time>2013-04-17T08:03:45Z</time>
      </trkpt>
      <trkpt lat="48.24539" lon="-4.24184">
        <ele>35.71</ele>
        <time>2013-04-17T08:03:54Z</time>
      </trkpt>
      <trkpt lat="48.24532" lon="-4.24165">
        <ele>36.19</ele>
        <time>2013-04-17T08:04:07Z</time>
      </trkpt>
      <trkpt lat="48.24532" lon="-4.24161">
        <ele>36.19</ele>
        <time>2013-04-17T08:04:09Z</time>
      </trkpt>
      <trkpt lat="48.24531" lon="-4.24156">
        <ele>36.19</ele>
        <time>2013-04-17T08:04:13Z</time>
      </trkpt>
      <trkpt lat="48.24529" lon="-4.24152">
        <ele>36.19</ele>
        <time>2013-04-17T08:04:16Z</time>
      </trkpt>
      <trkpt lat="48.24527" lon="-4.24146">
        <ele>36.67</ele>
        <time>2013-04-17T08:04:20Z</time>
      </trkpt>
      <trkpt lat="48.24524" lon="-4.24144">
        <ele>36.67</ele>
        <time>2013-04-17T08:04:23Z</time>
      </trkpt>
      <trkpt lat="48.24523" lon="-4.24141">
        <ele>36.67</ele>
        <time>2013-04-17T08:04:25Z</time>
      </trkpt>
      <trkpt lat="48.24522" lon="-4.24138">
        <ele>37.15</ele>
        <time>2013-04-17T08:04:27Z</time>
      </trkpt>
      <trkpt lat="48.24521" lon="-4.24135">
        <ele>36.67</ele>
        <time>2013-04-17T08:04:29Z</time>
      </trkpt>
      <trkpt lat="48.24514" lon="-4.24114">
        <ele>38.11</ele>
        <time>2013-04-17T08:04:43Z</time>
      </trkpt>
      <trkpt lat="48.24511" lon="-4.24107">
        <ele>38.11</ele>
        <time>2013-04-17T08:04:48Z</time>
      </trkpt>
      <trkpt lat="48.24507" lon="-4.24098">
        <ele>38.59</ele>
        <time>2013-04-17T08:04:54Z</time>
      </trkpt>
      <trkpt lat="48.24503" lon="-4.24087">
        <ele>38.59</ele>
        <time>2013-04-17T08:05:02Z</time>
      </trkpt>
      <trkpt lat="48.24503" lon="-4.24082">
        <ele>38.59</ele>
        <time>2013-04-17T08:05:05Z</time>
      </trkpt>
      <trkpt lat="48.24501" lon="-4.24079">
        <ele>38.59</ele>
        <time>2013-04-17T08:05:07Z</time>
      </trkpt>
      <trkpt lat="48.24498" lon="-4.24057">
        <ele>39.55</ele>
        <time>2013-04-17T08:05:21Z</time>
      </trkpt>
      <trkpt lat="48.24497" lon="-4.24056">
        <ele>39.55</ele>
        <time>2013-04-17T08:05:22Z</time>
      </trkpt>
      <trkpt lat="48.24496" lon="-4.24044">
        <ele>39.55</ele>
        <time>2013-04-17T08:05:29Z</time>
      </trkpt>
      <trkpt lat="48.24495" lon="-4.24041">
        <ele>39.55</ele>
        <time>2013-04-17T08:05:31Z</time>
      </trkpt>
      <trkpt lat="48.24493" lon="-4.24027">
        <ele>40.03</ele>
        <time>2013-04-17T08:05:42Z</time>
      </trkpt>
      <trkpt lat="48.24492" lon="-4.24004">
        <ele>43.88</ele>
        <time>2013-04-17T08:05:55Z</time>
      </trkpt>
      <trkpt lat="48.24492" lon="-4.24001">
        <ele>40.51</ele>
        <time>2013-04-17T08:05:58Z</time>
      </trkpt>
      <trkpt lat="48.24489" lon="-4.23992">
        <ele>40.99</ele>
        <time>2013-04-17T08:06:03Z</time>
      </trkpt>
      <trkpt lat="48.24487" lon="-4.23968">
        <ele>40.99</ele>
        <time>2013-04-17T08:06:18Z</time>
      </trkpt>
      <trkpt lat="48.24489" lon="-4.2396">
        <ele>41.95</ele>
        <time>2013-04-17T08:06:22Z</time>
      </trkpt>
      <trkpt lat="48.24488" lon="-4.23957">
        <ele>41.95</ele>
        <time>2013-04-17T08:06:24Z</time>
      </trkpt>
      <trkpt lat="48.24484" lon="-4.23944">
        <ele>41.95</ele>
        <time>2013-04-17T08:06:32Z</time>
      </trkpt>
      <trkpt lat="48.24483" lon="-4.23941">
        <ele>42.44</ele>
        <time>2013-04-17T08:06:34Z</time>
      </trkpt>
      <trkpt lat="48.24476" lon="-4.23927">
        <ele>44.36</ele>
        <time>2013-04-17T08:06:48Z</time>
      </trkpt>
      <trkpt lat="48.24464" lon="-4.23908">
        <ele>44.84</ele>
        <time>2013-04-17T08:07:04Z</time>
      </trkpt>
      <trkpt lat="48.24454" lon="-4.23895">
        <ele>47.24</ele>
        <time>2013-04-17T08:07:19Z</time>
      </trkpt>
      <trkpt lat="48.24451" lon="-4.23889">
        <ele>47.72</ele>
        <time>2013-04-17T08:07:27Z</time>
      </trkpt>
      <trkpt lat="48.24449" lon="-4.23885">
        <ele>47.72</ele>
        <time>2013-04-17T08:07:29Z</time>
      </trkpt>
      <trkpt lat="48.24436" lon="-4.23867">
        <ele>49.16</ele>
        <time>2013-04-17T08:07:45Z</time>
      </trkpt>
      <trkpt lat="48.24424" lon="-4.23855">
        <ele>51.09</ele>
        <time>2013-04-17T08:07:59Z</time>
      </trkpt>
      <trkpt lat="48.24419" lon="-4.23845">
        <ele>51.57</ele>
        <time>2013-04-17T08:08:09Z</time>
      </trkpt>
      <trkpt lat="48.24409" lon="-4.23836">
        <ele>53.01</ele>
        <time>2013-04-17T08:08:21Z</time>
      </trkpt>
      <trkpt lat="48.24403" lon="-4.23821">
        <ele>52.53</ele>
        <time>2013-04-17T08:08:32Z</time>
      </trkpt>
      <trkpt lat="48.2439" lon="-4.23801">
        <ele>53.97</ele>
        <time>2013-04-17T08:08:47Z</time>
      </trkpt>
      <trkpt lat="48.24379" lon="-4.2379">
        <ele>53.01</ele>
        <time>2013-04-17T08:09:03Z</time>
      </trkpt>
      <trkpt lat="48.24376" lon="-4.23788">
        <ele>52.53</ele>
        <time>2013-04-17T08:09:11Z</time>
      </trkpt>
      <trkpt lat="48.24372" lon="-4.23785">
        <ele>52.53</ele>
        <time>2013-04-17T08:09:15Z</time>
      </trkpt>
      <trkpt lat="48.24369" lon="-4.23781">
        <ele>53.49</ele>
        <time>2013-04-17T08:09:19Z</time>
      </trkpt>
      <trkpt lat="48.2436" lon="-4.23765">
        <ele>53.01</ele>
        <time>2013-04-17T08:09:32Z</time>
      </trkpt>
      <trkpt lat="48.24358" lon="-4.23764">
        <ele>53.49</ele>
        <time>2013-04-17T08:09:34Z</time>
      </trkpt>
      <trkpt lat="48.24353" lon="-4.23759">
        <ele>53.01</ele>
        <time>2013-04-17T08:09:41Z</time>
      </trkpt>
      <trkpt lat="48.2435" lon="-4.23753">
        <ele>54.45</ele>
        <time>2013-04-17T08:09:45Z</time>
      </trkpt>
      <trkpt lat="48.24341" lon="-4.23731">
        <ele>54.93</ele>
        <time>2013-04-17T08:09:59Z</time>
      </trkpt>
      <trkpt lat="48.24339" lon="-4.23717">
        <ele>53.01</ele>
        <time>2013-04-17T08:10:05Z</time>
      </trkpt>
      <trkpt lat="48.2434" lon="-4.2371">
        <ele>54.45</ele>
        <time>2013-04-17T08:10:09Z</time>
      </trkpt>
      <trkpt lat="48.24345" lon="-4.2369">
        <ele>55.41</ele>
        <time>2013-04-17T08:10:21Z</time>
      </trkpt>
      <trkpt lat="48.24357" lon="-4.23675">
        <ele>56.37</ele>
        <time>2013-04-17T08:10:36Z</time>
      </trkpt>
      <trkpt lat="48.24353" lon="-4.23666">
        <ele>55.89</ele>
        <time>2013-04-17T08:10:48Z</time>
      </trkpt>
      <trkpt lat="48.24343" lon="-4.23663">
        <ele>56.37</ele>
        <time>2013-04-17T08:11:02Z</time>
      </trkpt>
      <trkpt lat="48.24338" lon="-4.2366">
        <ele>57.34</ele>
        <time>2013-04-17T08:11:08Z</time>
      </trkpt>
      <trkpt lat="48.24336" lon="-4.2366">
        <ele>55.89</ele>
        <time>2013-04-17T08:11:10Z</time>
      </trkpt>
      <trkpt lat="48.2432" lon="-4.23652">
        <ele>56.37</ele>
        <time>2013-04-17T08:11:25Z</time>
      </trkpt>
      <trkpt lat="48.24301" lon="-4.23638">
        <ele>58.3</ele>
        <time>2013-04-17T08:11:43Z</time>
      </trkpt>
      <trkpt lat="48.2429" lon="-4.2363">
        <ele>59.74</ele>
        <time>2013-04-17T08:11:58Z</time>
      </trkpt>
      <trkpt lat="48.24277" lon="-4.23621">
        <ele>61.66</ele>
        <time>2013-04-17T08:12:14Z</time>
      </trkpt>
      <trkpt lat="48.24266" lon="-4.23626">
        <ele>60.7</ele>
        <time>2013-04-17T08:12:34Z</time>
      </trkpt>
      <trkpt lat="48.24262" lon="-4.23629">
        <ele>60.7</ele>
        <time>2013-04-17T08:12:39Z</time>
      </trkpt>
      <trkpt lat="48.24258" lon="-4.2363">
        <ele>60.22</ele>
        <time>2013-04-17T08:12:42Z</time>
      </trkpt>
      <trkpt lat="48.24242" lon="-4.23637">
        <ele>58.3</ele>
        <time>2013-04-17T08:12:55Z</time>
      </trkpt>
      <trkpt lat="48.24231" lon="-4.2365">
        <ele>57.34</ele>
        <time>2013-04-17T08:13:08Z</time>
      </trkpt>
      <trkpt lat="48.24224" lon="-4.23672">
        <ele>58.3</ele>
        <time>2013-04-17T08:13:22Z</time>
      </trkpt>
      <trkpt lat="48.24216" lon="-4.23697">
        <ele>59.74</ele>
        <time>2013-04-17T08:13:40Z</time>
      </trkpt>
      <trkpt lat="48.24214" lon="-4.23706">
        <ele>60.7</ele>
        <time>2013-04-17T08:13:49Z</time>
      </trkpt>
      <trkpt lat="48.24204" lon="-4.23712">
        <ele>62.14</ele>
        <time>2013-04-17T08:14:03Z</time>
      </trkpt>
      <trkpt lat="48.24188" lon="-4.23713">
        <ele>62.14</ele>
        <time>2013-04-17T08:14:18Z</time>
      </trkpt>
      <trkpt lat="48.2418" lon="-4.23711">
        <ele>61.66</ele>
        <time>2013-04-17T08:14:34Z</time>
      </trkpt>
      <trkpt lat="48.24159" lon="-4.23712">
        <ele>63.1</ele>
        <time>2013-04-17T08:14:50Z</time>
      </trkpt>
      <trkpt lat="48.24146" lon="-4.23708">
        <ele>63.1</ele>
        <time>2013-04-17T08:15:06Z</time>
      </trkpt>
      <trkpt lat="48.24135" lon="-4.23694">
        <ele>63.1</ele>
        <time>2013-04-17T08:15:21Z</time>
      </trkpt>
      <trkpt lat="48.24126" lon="-4.23697">
        <ele>63.58</ele>
        <time>2013-04-17T08:15:31Z</time>
      </trkpt>
      <trkpt lat="48.24111" lon="-4.23705">
        <ele>63.58</ele>
        <time>2013-04-17T08:15:46Z</time>
      </trkpt>
      <trkpt lat="48.2411" lon="-4.23705">
        <ele>63.58</ele>
        <time>2013-04-17T08:15:47Z</time>
      </trkpt>
      <trkpt lat="48.24104" lon="-4.23711">
        <ele>63.58</ele>
        <time>2013-04-17T08:15:53Z</time>
      </trkpt>
      <trkpt lat="48.24091" lon="-4.23717">
        <ele>64.07</ele>
        <time>2013-04-17T08:16:07Z</time>
      </trkpt>
      <trkpt lat="48.24077" lon="-4.23726">
        <ele>65.03</ele>
        <time>2013-04-17T08:16:24Z</time>
      </trkpt>
      <trkpt lat="48.24076" lon="-4.23727">
        <ele>65.99</ele>
        <time>2013-04-17T08:16:25Z</time>
      </trkpt>
      <trkpt lat="48.24069" lon="-4.23731">
        <ele>65.99</ele>
        <time>2013-04-17T08:16:32Z</time>
      </trkpt>
      <trkpt lat="48.24054" lon="-4.23742">
        <ele>66.95</ele>
        <time>2013-04-17T08:16:47Z</time>
      </trkpt>
      <trkpt lat="48.24051" lon="-4.23745">
        <ele>67.43</ele>
        <time>2013-04-17T08:16:51Z</time>
      </trkpt>
      <trkpt lat="48.24044" lon="-4.23747">
        <ele>67.91</ele>
        <time>2013-04-17T08:16:57Z</time>
      </trkpt>
      <trkpt lat="48.24043" lon="-4.23748">
        <ele>68.39</ele>
        <time>2013-04-17T08:16:59Z</time>
      </trkpt>
      <trkpt lat="48.24039" lon="-4.23751">
        <ele>68.39</ele>
        <time>2013-04-17T08:17:03Z</time>
      </trkpt>
      <trkpt lat="48.24036" lon="-4.23755">
        <ele>68.87</ele>
        <time>2013-04-17T08:17:07Z</time>
      </trkpt>
      <trkpt lat="48.24028" lon="-4.23763">
        <ele>69.35</ele>
        <time>2013-04-17T08:17:16Z</time>
      </trkpt>
      <trkpt lat="48.24021" lon="-4.23769">
        <ele>70.31</ele>
        <time>2013-04-17T08:17:25Z</time>
      </trkpt>
      <trkpt lat="48.24019" lon="-4.23771">
        <ele>70.31</ele>
        <time>2013-04-17T08:17:27Z</time>
      </trkpt>
      <trkpt lat="48.24016" lon="-4.23774">
        <ele>70.79</ele>
        <time>2013-04-17T08:17:30Z</time>
      </trkpt>
      <trkpt lat="48.24009" lon="-4.23781">
        <ele>70.31</ele>
        <time>2013-04-17T08:17:38Z</time>
      </trkpt>
      <trkpt lat="48.23997" lon="-4.23802">
        <ele>71.76</ele>
        <time>2013-04-17T08:17:54Z</time>
      </trkpt>
      <trkpt lat="48.23993" lon="-4.23807">
        <ele>72.24</ele>
        <time>2013-04-17T08:17:59Z</time>
      </trkpt>
      <trkpt lat="48.23991" lon="-4.23811">
        <ele>72.24</ele>
        <time>2013-04-17T08:18:02Z</time>
      </trkpt>
      <trkpt lat="48.23983" lon="-4.23827">
        <ele>72.72</ele>
        <time>2013-04-17T08:18:16Z</time>
      </trkpt>
      <trkpt lat="48.23976" lon="-4.23843">
        <ele>73.2</ele>
        <time>2013-04-17T08:18:31Z</time>
      </trkpt>
      <trkpt lat="48.23975" lon="-4.23844">
        <ele>73.2</ele>
        <time>2013-04-17T08:18:32Z</time>
      </trkpt>
      <trkpt lat="48.23966" lon="-4.23859">
        <ele>74.16</ele>
        <time>2013-04-17T08:18:46Z</time>
      </trkpt>
      <trkpt lat="48.23955" lon="-4.23879">
        <ele>75.6</ele>
        <time>2013-04-17T08:19:02Z</time>
      </trkpt>
      <trkpt lat="48.23945" lon="-4.23894">
        <ele>76.08</ele>
        <time>2013-04-17T08:19:16Z</time>
      </trkpt>
      <trkpt lat="48.23935" lon="-4.23912">
        <ele>77.52</ele>
        <time>2013-04-17T08:19:31Z</time>
      </trkpt>
      <trkpt lat="48.23924" lon="-4.23931">
        <ele>78.97</ele>
        <time>2013-04-17T08:19:48Z</time>
      </trkpt>
      <trkpt lat="48.23917" lon="-4.23945">
        <ele>79.93</ele>
        <time>2013-04-17T08:20:01Z</time>
      </trkpt>
      <trkpt lat="48.23908" lon="-4.23962">
        <ele>81.85</ele>
        <time>2013-04-17T08:20:15Z</time>
      </trkpt>
      <trkpt lat="48.23906" lon="-4.23964">
        <ele>82.33</ele>
        <time>2013-04-17T08:20:17Z</time>
      </trkpt>
      <trkpt lat="48.23896" lon="-4.23974">
        <ele>83.29</ele>
        <time>2013-04-17T08:20:28Z</time>
      </trkpt>
      <trkpt lat="48.23895" lon="-4.23974">
        <ele>82.81</ele>
        <time>2013-04-17T08:20:29Z</time>
      </trkpt>
      <trkpt lat="48.23879" lon="-4.23983">
        <ele>83.77</ele>
        <time>2013-04-17T08:20:47Z</time>
      </trkpt>
      <trkpt lat="48.2387" lon="-4.23988">
        <ele>84.25</ele>
        <time>2013-04-17T08:20:55Z</time>
      </trkpt>
      <trkpt lat="48.23861" lon="-4.23995">
        <ele>85.21</ele>
        <time>2013-04-17T08:21:06Z</time>
      </trkpt>
      <trkpt lat="48.23846" lon="-4.23997">
        <ele>86.66</ele>
        <time>2013-04-17T08:21:22Z</time>
      </trkpt>
      <trkpt lat="48.23832" lon="-4.23994">
        <ele>88.1</ele>
        <time>2013-04-17T08:21:38Z</time>
      </trkpt>
      <trkpt lat="48.23827" lon="-4.23993">
        <ele>88.58</ele>
        <time>2013-04-17T08:21:53Z</time>
      </trkpt>
      <trkpt lat="48.23827" lon="-4.23992">
        <ele>88.58</ele>
        <time>2013-04-17T08:22:27Z</time>
      </trkpt>
      <trkpt lat="48.23827" lon="-4.23994">
        <ele>88.58</ele>
        <time>2013-04-17T08:22:49Z</time>
      </trkpt>
      <trkpt lat="48.23827" lon="-4.23996">
        <ele>88.58</ele>
        <time>2013-04-17T08:23:15Z</time>
      </trkpt>
      <trkpt lat="48.23826" lon="-4.23998">
        <ele>88.58</ele>
        <time>2013-04-17T08:23:41Z</time>
      </trkpt>
      <trkpt lat="48.23826" lon="-4.23998">
        <ele>89.06</ele>
        <time>2013-04-17T08:24:08Z</time>
      </trkpt>
      <trkpt lat="48.23826" lon="-4.23999">
        <ele>89.06</ele>
        <time>2013-04-17T08:24:27Z</time>
      </trkpt>
      <trkpt lat="48.23824" lon="-4.24022">
        <ele>88.58</ele>
        <time>2013-04-17T08:24:38Z</time>
      </trkpt>
      <trkpt lat="48.2382" lon="-4.24055">
        <ele>89.06</ele>
        <time>2013-04-17T08:24:55Z</time>
      </trkpt>
      <trkpt lat="48.2382" lon="-4.24059">
        <ele>89.06</ele>
        <time>2013-04-17T08:24:57Z</time>
      </trkpt>
      <trkpt lat="48.23817" lon="-4.24086">
        <ele>89.54</ele>
        <time>2013-04-17T08:25:11Z</time>
      </trkpt>
      <trkpt lat="48.23815" lon="-4.24091">
        <ele>89.54</ele>
        <time>2013-04-17T08:25:19Z</time>
      </trkpt>
      <trkpt lat="48.23814" lon="-4.24108">
        <ele>89.54</ele>
        <time>2013-04-17T08:25:30Z</time>
      </trkpt>
      <trkpt lat="48.23812" lon="-4.24121">
        <ele>90.02</ele>
        <time>2013-04-17T08:25:38Z</time>
      </trkpt>
      <trkpt lat="48.23808" lon="-4.24153">
        <ele>90.5</ele>
        <time>2013-04-17T08:25:57Z</time>
      </trkpt>
      <trkpt lat="48.23804" lon="-4.24175">
        <ele>91.46</ele>
        <time>2013-04-17T08:26:12Z</time>
      </trkpt>
      <trkpt lat="48.23803" lon="-4.24177">
        <ele>94.35</ele>
        <time>2013-04-17T08:26:13Z</time>
      </trkpt>
      <trkpt lat="48.23801" lon="-4.24187">
        <ele>91.46</ele>
        <time>2013-04-17T08:26:19Z</time>
      </trkpt>
      <trkpt lat="48.23794" lon="-4.24218">
        <ele>90.98</ele>
        <time>2013-04-17T08:26:37Z</time>
      </trkpt>
      <trkpt lat="48.23792" lon="-4.24229">
        <ele>91.46</ele>
        <time>2013-04-17T08:26:43Z</time>
      </trkpt>
      <trkpt lat="48.23786" lon="-4.24258">
        <ele>92.42</ele>
        <time>2013-04-17T08:26:59Z</time>
      </trkpt>
      <trkpt lat="48.23786" lon="-4.2426">
        <ele>91.94</ele>
        <time>2013-04-17T08:27:00Z</time>
      </trkpt>
      <trkpt lat="48.23783" lon="-4.24279">
        <ele>91.46</ele>
        <time>2013-04-17T08:27:12Z</time>
      </trkpt>
      <trkpt lat="48.23769" lon="-4.24291">
        <ele>92.9</ele>
        <time>2013-04-17T08:27:28Z</time>
      </trkpt>
      <trkpt lat="48.23752" lon="-4.24297">
        <ele>95.79</ele>
        <time>2013-04-17T08:27:45Z</time>
      </trkpt>
      <trkpt lat="48.23744" lon="-4.24297">
        <ele>94.83</ele>
        <time>2013-04-17T08:27:53Z</time>
      </trkpt>
      <trkpt lat="48.23743" lon="-4.24299">
        <ele>93.87</ele>
        <time>2013-04-17T08:27:55Z</time>
      </trkpt>
      <trkpt lat="48.2374" lon="-4.243">
        <ele>94.83</ele>
        <time>2013-04-17T08:27:58Z</time>
      </trkpt>
      <trkpt lat="48.23735" lon="-4.24301">
        <ele>95.31</ele>
        <time>2013-04-17T08:28:03Z</time>
      </trkpt>
      <trkpt lat="48.23725" lon="-4.24303">
        <ele>96.75</ele>
        <time>2013-04-17T08:28:13Z</time>
      </trkpt>
      <trkpt lat="48.23705" lon="-4.243">
        <ele>97.71</ele>
        <time>2013-04-17T08:28:31Z</time>
      </trkpt>
      <trkpt lat="48.23698" lon="-4.24299">
        <ele>97.71</ele>
        <time>2013-04-17T08:28:38Z</time>
      </trkpt>
      <trkpt lat="48.23694" lon="-4.24299">
        <ele>98.67</ele>
        <time>2013-04-17T08:28:41Z</time>
      </trkpt>
      <trkpt lat="48.23677" lon="-4.24292">
        <ele>99.63</ele>
        <time>2013-04-17T08:28:58Z</time>
      </trkpt>
      <trkpt lat="48.23662" lon="-4.24285">
        <ele>100.6</ele>
        <time>2013-04-17T08:29:13Z</time>
      </trkpt>
      <trkpt lat="48.23649" lon="-4.24275">
        <ele>102.04</ele>
        <time>2013-04-17T08:29:29Z</time>
      </trkpt>
      <trkpt lat="48.23635" lon="-4.24265">
        <ele>103.48</ele>
        <time>2013-04-17T08:29:46Z</time>
      </trkpt>
      <trkpt lat="48.23621" lon="-4.24256">
        <ele>103.96</ele>
        <time>2013-04-17T08:29:59Z</time>
      </trkpt>
      <trkpt lat="48.23605" lon="-4.24247">
        <ele>105.88</ele>
        <time>2013-04-17T08:30:15Z</time>
      </trkpt>
      <trkpt lat="48.23592" lon="-4.24239">
        <ele>106.36</ele>
        <time>2013-04-17T08:30:30Z</time>
      </trkpt>
      <trkpt lat="48.23577" lon="-4.24233">
        <ele>107.81</ele>
        <time>2013-04-17T08:30:46Z</time>
      </trkpt>
      <trkpt lat="48.2356" lon="-4.24225">
        <ele>108.29</ele>
        <time>2013-04-17T08:31:03Z</time>
      </trkpt>
      <trkpt lat="48.23546" lon="-4.24221">
        <ele>109.73</ele>
        <time>2013-04-17T08:31:17Z</time>
      </trkpt>
      <trkpt lat="48.23533" lon="-4.24217">
        <ele>111.65</ele>
        <time>2013-04-17T08:31:32Z</time>
      </trkpt>
      <trkpt lat="48.23519" lon="-4.2421">
        <ele>111.65</ele>
        <time>2013-04-17T08:31:48Z</time>
      </trkpt>
      <trkpt lat="48.23517" lon="-4.2421">
        <ele>111.65</ele>
        <time>2013-04-17T08:31:50Z</time>
      </trkpt>
      <trkpt lat="48.23499" lon="-4.24202">
        <ele>113.57</ele>
        <time>2013-04-17T08:32:07Z</time>
      </trkpt>
      <trkpt lat="48.23486" lon="-4.24195">
        <ele>115.01</ele>
        <time>2013-04-17T08:32:22Z</time>
      </trkpt>
      <trkpt lat="48.23473" lon="-4.2419">
        <ele>116.94</ele>
        <time>2013-04-17T08:32:38Z</time>
      </trkpt>
      <trkpt lat="48.23464" lon="-4.24183">
        <ele>117.42</ele>
        <time>2013-04-17T08:32:50Z</time>
      </trkpt>
      <trkpt lat="48.23451" lon="-4.24176">
        <ele>119.34</ele>
        <time>2013-04-17T08:33:04Z</time>
      </trkpt>
      <trkpt lat="48.23437" lon="-4.2417">
        <ele>120.78</ele>
        <time>2013-04-17T08:33:20Z</time>
      </trkpt>
      <trkpt lat="48.23425" lon="-4.24161">
        <ele>122.22</ele>
        <time>2013-04-17T08:33:36Z</time>
      </trkpt>
      <trkpt lat="48.2341" lon="-4.24151">
        <ele>124.15</ele>
        <time>2013-04-17T08:33:52Z</time>
      </trkpt>
      <trkpt lat="48.23398" lon="-4.24142">
        <ele>125.59</ele>
        <time>2013-04-17T08:34:06Z</time>
      </trkpt>
      <trkpt lat="48.23384" lon="-4.24133">
        <ele>127.51</ele>
        <time>2013-04-17T08:34:23Z</time>
      </trkpt>
      <trkpt lat="48.23372" lon="-4.24123">
        <ele>128.47</ele>
        <time>2013-04-17T08:34:38Z</time>
      </trkpt>
      <trkpt lat="48.23362" lon="-4.24114">
        <ele>130.4</ele>
        <time>2013-04-17T08:34:51Z</time>
      </trkpt>
      <trkpt lat="48.23352" lon="-4.24106">
        <ele>130.88</ele>
        <time>2013-04-17T08:35:05Z</time>
      </trkpt>
      <trkpt lat="48.23345" lon="-4.24101">
        <ele>132.32</ele>
        <time>2013-04-17T08:35:19Z</time>
      </trkpt>
      <trkpt lat="48.23331" lon="-4.24094">
        <ele>133.28</ele>
        <time>2013-04-17T08:35:37Z</time>
      </trkpt>
      <trkpt lat="48.23307" lon="-4.2408">
        <ele>134.72</ele>
        <time>2013-04-17T08:35:54Z</time>
      </trkpt>
      <trkpt lat="48.23295" lon="-4.24069">
        <ele>135.2</ele>
        <time>2013-04-17T08:36:08Z</time>
      </trkpt>
      <trkpt lat="48.23293" lon="-4.24067">
        <ele>135.68</ele>
        <time>2013-04-17T08:36:10Z</time>
      </trkpt>
      <trkpt lat="48.23282" lon="-4.24057">
        <ele>136.16</ele>
        <time>2013-04-17T08:36:24Z</time>
      </trkpt>
      <trkpt lat="48.23269" lon="-4.24049">
        <ele>136.64</ele>
        <time>2013-04-17T08:36:37Z</time>
      </trkpt>
      <trkpt lat="48.23261" lon="-4.24045">
        <ele>137.13</ele>
        <time>2013-04-17T08:36:44Z</time>
      </trkpt>
      <trkpt lat="48.23248" lon="-4.24036">
        <ele>139.05</ele>
        <time>2013-04-17T08:37:02Z</time>
      </trkpt>
      <trkpt lat="48.23236" lon="-4.24027">
        <ele>139.05</ele>
        <time>2013-04-17T08:37:13Z</time>
      </trkpt>
      <trkpt lat="48.23218" lon="-4.24013">
        <ele>140.01</ele>
        <time>2013-04-17T08:37:30Z</time>
      </trkpt>
      <trkpt lat="48.23212" lon="-4.24011">
        <ele>140.01</ele>
        <time>2013-04-17T08:37:35Z</time>
      </trkpt>
      <trkpt lat="48.23204" lon="-4.24006">
        <ele>140.97</ele>
        <time>2013-04-17T08:37:42Z</time>
      </trkpt>
      <trkpt lat="48.23187" lon="-4.23992">
        <ele>141.93</ele>
        <time>2013-04-17T08:38:00Z</time>
      </trkpt>
      <trkpt lat="48.23178" lon="-4.23985">
        <ele>143.37</ele>
        <time>2013-04-17T08:38:10Z</time>
      </trkpt>
      <trkpt lat="48.23177" lon="-4.23984">
        <ele>142.89</ele>
        <time>2013-04-17T08:38:11Z</time>
      </trkpt>
      <trkpt lat="48.23181" lon="-4.23965">
        <ele>142.41</ele>
        <time>2013-04-17T08:38:27Z</time>
      </trkpt>
      <trkpt lat="48.23185" lon="-4.23947">
        <ele>141.45</ele>
        <time>2013-04-17T08:38:42Z</time>
      </trkpt>
      <trkpt lat="48.23171" lon="-4.23936">
        <ele>143.37</ele>
        <time>2013-04-17T08:38:56Z</time>
      </trkpt>
      <trkpt lat="48.23167" lon="-4.23934">
        <ele>142.89</ele>
        <time>2013-04-17T08:39:02Z</time>
      </trkpt>
      <trkpt lat="48.23159" lon="-4.2393">
        <ele>144.34</ele>
        <time>2013-04-17T08:39:10Z</time>
      </trkpt>
      <trkpt lat="48.23144" lon="-4.23922">
        <ele>145.78</ele>
        <time>2013-04-17T08:39:26Z</time>
      </trkpt>
      <trkpt lat="48.23131" lon="-4.23917">
        <ele>147.22</ele>
        <time>2013-04-17T08:39:42Z</time>
      </trkpt>
      <trkpt lat="48.2313" lon="-4.23916">
        <ele>146.74</ele>
        <time>2013-04-17T08:39:44Z</time>
      </trkpt>
      <trkpt lat="48.23128" lon="-4.23914">
        <ele>148.18</ele>
        <time>2013-04-17T08:39:51Z</time>
      </trkpt>
      <trkpt lat="48.23126" lon="-4.2391">
        <ele>148.18</ele>
        <time>2013-04-17T08:39:54Z</time>
      </trkpt>
      <trkpt lat="48.23119" lon="-4.23899">
        <ele>148.18</ele>
        <time>2013-04-17T08:40:08Z</time>
      </trkpt>
      <trkpt lat="48.23119" lon="-4.23899">
        <ele>147.22</ele>
        <time>2013-04-17T08:40:19Z</time>
      </trkpt>
      <trkpt lat="48.23119" lon="-4.23898">
        <ele>147.7</ele>
        <time>2013-04-17T08:41:22Z</time>
      </trkpt>
      <trkpt lat="48.23119" lon="-4.23899">
        <ele>146.26</ele>
        <time>2013-04-17T08:41:59Z</time>
      </trkpt>
      <trkpt lat="48.23119" lon="-4.23899">
        <ele>148.18</ele>
        <time>2013-04-17T08:42:58Z</time>
      </trkpt>
      <trkpt lat="48.23119" lon="-4.23899">
        <ele>148.18</ele>
        <time>2013-04-17T08:43:22Z</time>
      </trkpt>
      <trkpt lat="48.23119" lon="-4.23899">
        <ele>146.74</ele>
        <time>2013-04-17T08:43:39Z</time>
      </trkpt>
      <trkpt lat="48.23119" lon="-4.23899">
        <ele>150.58</ele>
        <time>2013-04-17T08:43:52Z</time>
      </trkpt>
      <trkpt lat="48.23119" lon="-4.23899">
        <ele>147.22</ele>
        <time>2013-04-17T08:43:53Z</time>
      </trkpt>
      <trkpt lat="48.23119" lon="-4.239">
        <ele>146.74</ele>
        <time>2013-04-17T08:43:55Z</time>
      </trkpt>
      <trkpt lat="48.23121" lon="-4.23903">
        <ele>146.26</ele>
        <time>2013-04-17T08:44:05Z</time>
      </trkpt>
      <trkpt lat="48.23133" lon="-4.23917">
        <ele>144.82</ele>
        <time>2013-04-17T08:44:21Z</time>
      </trkpt>
      <trkpt lat="48.23153" lon="-4.2393">
        <ele>142.41</ele>
        <time>2013-04-17T08:44:37Z</time>
      </trkpt>
      <trkpt lat="48.23168" lon="-4.23944">
        <ele>142.41</ele>
        <time>2013-04-17T08:44:53Z</time>
      </trkpt>
      <trkpt lat="48.23165" lon="-4.23948">
        <ele>142.41</ele>
        <time>2013-04-17T08:44:59Z</time>
      </trkpt>
      <trkpt lat="48.23155" lon="-4.23952">
        <ele>138.57</ele>
        <time>2013-04-17T08:45:10Z</time>
      </trkpt>
      <trkpt lat="48.23154" lon="-4.23952">
        <ele>142.89</ele>
        <time>2013-04-17T08:45:11Z</time>
      </trkpt>
      <trkpt lat="48.23141" lon="-4.23951">
        <ele>144.34</ele>
        <time>2013-04-17T08:45:28Z</time>
      </trkpt>
      <trkpt lat="48.2313" lon="-4.2395">
        <ele>146.74</ele>
        <time>2013-04-17T08:45:43Z</time>
      </trkpt>
      <trkpt lat="48.23128" lon="-4.23951">
        <ele>148.66</ele>
        <time>2013-04-17T08:46:08Z</time>
      </trkpt>
      <trkpt lat="48.23126" lon="-4.23952">
        <ele>149.62</ele>
        <time>2013-04-17T08:46:12Z</time>
      </trkpt>
      <trkpt lat="48.23125" lon="-4.23951">
        <ele>150.1</ele>
        <time>2013-04-17T08:46:56Z</time>
      </trkpt>
      <trkpt lat="48.23122" lon="-4.23952">
        <ele>150.58</ele>
        <time>2013-04-17T08:47:47Z</time>
      </trkpt>
      <trkpt lat="48.23111" lon="-4.23951">
        <ele>152.99</ele>
        <time>2013-04-17T08:48:02Z</time>
      </trkpt>
      <trkpt lat="48.23098" lon="-4.23951">
        <ele>154.91</ele>
        <time>2013-04-17T08:48:20Z</time>
      </trkpt>
      <trkpt lat="48.23087" lon="-4.23951">
        <ele>155.87</ele>
        <time>2013-04-17T08:48:42Z</time>
      </trkpt>
      <trkpt lat="48.23079" lon="-4.23951">
        <ele>156.83</ele>
        <time>2013-04-17T08:49:00Z</time>
      </trkpt>
      <trkpt lat="48.23066" lon="-4.23952">
        <ele>158.27</ele>
        <time>2013-04-17T08:49:13Z</time>
      </trkpt>
      <trkpt lat="48.23054" lon="-4.23957">
        <ele>159.72</ele>
        <time>2013-04-17T08:49:27Z</time>
      </trkpt>
      <trkpt lat="48.2305" lon="-4.23957">
        <ele>160.68</ele>
        <time>2013-04-17T08:49:31Z</time>
      </trkpt>
      <trkpt lat="48.23048" lon="-4.23956">
        <ele>161.16</ele>
        <time>2013-04-17T08:49:33Z</time>
      </trkpt>
      <trkpt lat="48.2303" lon="-4.23955">
        <ele>163.08</ele>
        <time>2013-04-17T08:49:52Z</time>
      </trkpt>
      <trkpt lat="48.23014" lon="-4.23954">
        <ele>163.56</ele>
        <time>2013-04-17T08:50:10Z</time>
      </trkpt>
      <trkpt lat="48.23007" lon="-4.23954">
        <ele>164.52</ele>
        <time>2013-04-17T08:50:19Z</time>
      </trkpt>
      <trkpt lat="48.23005" lon="-4.23953">
        <ele>164.52</ele>
        <time>2013-04-17T08:50:21Z</time>
      </trkpt>
      <trkpt lat="48.22991" lon="-4.2395">
        <ele>165.96</ele>
        <time>2013-04-17T08:50:36Z</time>
      </trkpt>
      <trkpt lat="48.22977" lon="-4.23948">
        <ele>166.93</ele>
        <time>2013-04-17T08:50:53Z</time>
      </trkpt>
      <trkpt lat="48.2297" lon="-4.23944">
        <ele>167.41</ele>
        <time>2013-04-17T08:51:01Z</time>
      </trkpt>
      <trkpt lat="48.22964" lon="-4.23944">
        <ele>167.89</ele>
        <time>2013-04-17T08:51:08Z</time>
      </trkpt>
      <trkpt lat="48.2295" lon="-4.23939">
        <ele>168.85</ele>
        <time>2013-04-17T08:51:23Z</time>
      </trkpt>
      <trkpt lat="48.22942" lon="-4.23938">
        <ele>168.85</ele>
        <time>2013-04-17T08:51:33Z</time>
      </trkpt>
      <trkpt lat="48.22929" lon="-4.23939">
        <ele>169.81</ele>
        <time>2013-04-17T08:51:47Z</time>
      </trkpt>
      <trkpt lat="48.22919" lon="-4.23937">
        <ele>172.21</ele>
        <time>2013-04-17T08:52:00Z</time>
      </trkpt>
      <trkpt lat="48.22907" lon="-4.23934">
        <ele>172.69</ele>
        <time>2013-04-17T08:52:13Z</time>
      </trkpt>
      <trkpt lat="48.22895" lon="-4.23939">
        <ele>173.66</ele>
        <time>2013-04-17T08:52:28Z</time>
      </trkpt>
      <trkpt lat="48.2288" lon="-4.23944">
        <ele>174.14</ele>
        <time>2013-04-17T08:52:46Z</time>
      </trkpt>
      <trkpt lat="48.22866" lon="-4.23947">
        <ele>175.58</ele>
        <time>2013-04-17T08:53:02Z</time>
      </trkpt>
      <trkpt lat="48.22851" lon="-4.2395">
        <ele>177.02</ele>
        <time>2013-04-17T08:53:19Z</time>
      </trkpt>
      <trkpt lat="48.22838" lon="-4.23955">
        <ele>177.98</ele>
        <time>2013-04-17T08:53:34Z</time>
      </trkpt>
      <trkpt lat="48.22832" lon="-4.23958">
        <ele>181.35</ele>
        <time>2013-04-17T08:53:40Z</time>
      </trkpt>
      <trkpt lat="48.2283" lon="-4.23959">
        <ele>177.98</ele>
        <time>2013-04-17T08:53:42Z</time>
      </trkpt>
      <trkpt lat="48.2283" lon="-4.23959">
        <ele>177.98</ele>
        <time>2013-04-17T08:53:43Z</time>
      </trkpt>
      <trkpt lat="48.22814" lon="-4.23966">
        <ele>178.94</ele>
        <time>2013-04-17T08:54:01Z</time>
      </trkpt>
      <trkpt lat="48.22797" lon="-4.23971">
        <ele>179.42</ele>
        <time>2013-04-17T08:54:20Z</time>
      </trkpt>
      <trkpt lat="48.22785" lon="-4.23976">
        <ele>181.35</ele>
        <time>2013-04-17T08:54:33Z</time>
      </trkpt>
      <trkpt lat="48.22777" lon="-4.23979">
        <ele>181.35</ele>
        <time>2013-04-17T08:54:41Z</time>
      </trkpt>
      <trkpt lat="48.22773" lon="-4.23979">
        <ele>182.31</ele>
        <time>2013-04-17T08:54:46Z</time>
      </trkpt>
      <trkpt lat="48.22771" lon="-4.23979">
        <ele>181.35</ele>
        <time>2013-04-17T08:54:48Z</time>
      </trkpt>
      <trkpt lat="48.22757" lon="-4.23984">
        <ele>183.27</ele>
        <time>2013-04-17T08:55:03Z</time>
      </trkpt>
      <trkpt lat="48.2275" lon="-4.23986">
        <ele>182.79</ele>
        <time>2013-04-17T08:55:11Z</time>
      </trkpt>
      <trkpt lat="48.22743" lon="-4.23991">
        <ele>183.27</ele>
        <time>2013-04-17T08:55:19Z</time>
      </trkpt>
      <trkpt lat="48.22736" lon="-4.23992">
        <ele>184.71</ele>
        <time>2013-04-17T08:55:27Z</time>
      </trkpt>
      <trkpt lat="48.22734" lon="-4.23994">
        <ele>183.75</ele>
        <time>2013-04-17T08:55:29Z</time>
      </trkpt>
      <trkpt lat="48.22723" lon="-4.23998">
        <ele>184.71</ele>
        <time>2013-04-17T08:55:41Z</time>
      </trkpt>
      <trkpt lat="48.2271" lon="-4.24002">
        <ele>185.19</ele>
        <time>2013-04-17T08:55:57Z</time>
      </trkpt>
      <trkpt lat="48.22698" lon="-4.24007">
        <ele>186.15</ele>
        <time>2013-04-17T08:56:12Z</time>
      </trkpt>
      <trkpt lat="48.22686" lon="-4.2401">
        <ele>187.59</ele>
        <time>2013-04-17T08:56:27Z</time>
      </trkpt>
      <trkpt lat="48.22683" lon="-4.24012">
        <ele>187.59</ele>
        <time>2013-04-17T08:56:31Z</time>
      </trkpt>
      <trkpt lat="48.2267" lon="-4.24018">
        <ele>189.52</ele>
        <time>2013-04-17T08:56:47Z</time>
      </trkpt>
      <trkpt lat="48.22663" lon="-4.24022">
        <ele>190.48</ele>
        <time>2013-04-17T08:56:58Z</time>
      </trkpt>
      <trkpt lat="48.22651" lon="-4.24025">
        <ele>192.88</ele>
        <time>2013-04-17T08:57:13Z</time>
      </trkpt>
      <trkpt lat="48.22638" lon="-4.2403">
        <ele>194.32</ele>
        <time>2013-04-17T08:57:28Z</time>
      </trkpt>
      <trkpt lat="48.22638" lon="-4.24031">
        <ele>193.36</ele>
        <time>2013-04-17T08:57:29Z</time>
      </trkpt>
      <trkpt lat="48.22623" lon="-4.24035">
        <ele>196.25</ele>
        <time>2013-04-17T08:57:46Z</time>
      </trkpt>
      <trkpt lat="48.22613" lon="-4.24038">
        <ele>196.73</ele>
        <time>2013-04-17T08:57:58Z</time>
      </trkpt>
      <trkpt lat="48.226" lon="-4.24041">
        <ele>197.69</ele>
        <time>2013-04-17T08:58:13Z</time>
      </trkpt>
      <trkpt lat="48.22589" lon="-4.24047">
        <ele>200.09</ele>
        <time>2013-04-17T08:58:29Z</time>
      </trkpt>
      <trkpt lat="48.22576" lon="-4.24051">
        <ele>200.57</ele>
        <time>2013-04-17T08:58:45Z</time>
      </trkpt>
      <trkpt lat="48.22566" lon="-4.24056">
        <ele>202.49</ele>
        <time>2013-04-17T08:59:00Z</time>
      </trkpt>
      <trkpt lat="48.22554" lon="-4.24062">
        <ele>203.94</ele>
        <time>2013-04-17T08:59:16Z</time>
      </trkpt>
      <trkpt lat="48.22553" lon="-4.24062">
        <ele>203.94</ele>
        <time>2013-04-17T08:59:17Z</time>
      </trkpt>
      <trkpt lat="48.22542" lon="-4.24065">
        <ele>205.86</ele>
        <time>2013-04-17T08:59:32Z</time>
      </trkpt>
      <trkpt lat="48.22531" lon="-4.2407">
        <ele>206.82</ele>
        <time>2013-04-17T08:59:48Z</time>
      </trkpt>
      <trkpt lat="48.22519" lon="-4.24073">
        <ele>208.26</ele>
        <time>2013-04-17T09:00:03Z</time>
      </trkpt>
      <trkpt lat="48.22509" lon="-4.24077">
        <ele>209.22</ele>
        <time>2013-04-17T09:00:18Z</time>
      </trkpt>
      <trkpt lat="48.22502" lon="-4.24079">
        <ele>209.22</ele>
        <time>2013-04-17T09:00:26Z</time>
      </trkpt>
      <trkpt lat="48.2249" lon="-4.24085">
        <ele>210.67</ele>
        <time>2013-04-17T09:00:41Z</time>
      </trkpt>
      <trkpt lat="48.22481" lon="-4.24088">
        <ele>212.59</ele>
        <time>2013-04-17T09:00:55Z</time>
      </trkpt>
      <trkpt lat="48.22471" lon="-4.24095">
        <ele>213.07</ele>
        <time>2013-04-17T09:01:10Z</time>
      </trkpt>
      <trkpt lat="48.22471" lon="-4.24095">
        <ele>214.03</ele>
        <time>2013-04-17T09:01:40Z</time>
      </trkpt>
      <trkpt lat="48.22471" lon="-4.24096">
        <ele>214.03</ele>
        <time>2013-04-17T09:02:22Z</time>
      </trkpt>
      <trkpt lat="48.22471" lon="-4.24096">
        <ele>214.03</ele>
        <time>2013-04-17T09:03:01Z</time>
      </trkpt>
      <trkpt lat="48.2247" lon="-4.24095">
        <ele>214.99</ele>
        <time>2013-04-17T09:03:50Z</time>
      </trkpt>
      <trkpt lat="48.2247" lon="-4.24093">
        <ele>214.51</ele>
        <time>2013-04-17T09:04:11Z</time>
      </trkpt>
      <trkpt lat="48.22467" lon="-4.24094">
        <ele>214.99</ele>
        <time>2013-04-17T09:04:47Z</time>
      </trkpt>
      <trkpt lat="48.22461" lon="-4.24095">
        <ele>214.99</ele>
        <time>2013-04-17T09:04:58Z</time>
      </trkpt>
      <trkpt lat="48.2245" lon="-4.24091">
        <ele>215.95</ele>
        <time>2013-04-17T09:05:11Z</time>
      </trkpt>
      <trkpt lat="48.22439" lon="-4.24079">
        <ele>216.91</ele>
        <time>2013-04-17T09:05:26Z</time>
      </trkpt>
      <trkpt lat="48.22429" lon="-4.24073">
        <ele>216.91</ele>
        <time>2013-04-17T09:05:36Z</time>
      </trkpt>
      <trkpt lat="48.22428" lon="-4.24071">
        <ele>216.91</ele>
        <time>2013-04-17T09:05:38Z</time>
      </trkpt>
      <trkpt lat="48.22423" lon="-4.2407">
        <ele>216.91</ele>
        <time>2013-04-17T09:05:43Z</time>
      </trkpt>
      <trkpt lat="48.2241" lon="-4.24061">
        <ele>218.36</ele>
        <time>2013-04-17T09:05:59Z</time>
      </trkpt>
      <trkpt lat="48.22402" lon="-4.24058">
        <ele>218.84</ele>
        <time>2013-04-17T09:06:09Z</time>
      </trkpt>
      <trkpt lat="48.2239" lon="-4.24056">
        <ele>219.8</ele>
        <time>2013-04-17T09:06:23Z</time>
      </trkpt>
      <trkpt lat="48.22378" lon="-4.24055">
        <ele>221.72</ele>
        <time>2013-04-17T09:06:36Z</time>
      </trkpt>
      <trkpt lat="48.22378" lon="-4.24055">
        <ele>221.72</ele>
        <time>2013-04-17T09:06:37Z</time>
      </trkpt>
      <trkpt lat="48.2237" lon="-4.24054">
        <ele>221.72</ele>
        <time>2013-04-17T09:06:46Z</time>
      </trkpt>
      <trkpt lat="48.22366" lon="-4.24053">
        <ele>221.72</ele>
        <time>2013-04-17T09:06:51Z</time>
      </trkpt>
      <trkpt lat="48.22363" lon="-4.24052">
        <ele>223.16</ele>
        <time>2013-04-17T09:06:54Z</time>
      </trkpt>
      <trkpt lat="48.22362" lon="-4.24053">
        <ele>223.16</ele>
        <time>2013-04-17T09:06:55Z</time>
      </trkpt>
      <trkpt lat="48.2236" lon="-4.24052">
        <ele>221.72</ele>
        <time>2013-04-17T09:06:57Z</time>
      </trkpt>
      <trkpt lat="48.22347" lon="-4.24051">
        <ele>224.12</ele>
        <time>2013-04-17T09:07:12Z</time>
      </trkpt>
      <trkpt lat="48.22345" lon="-4.2405">
        <ele>223.64</ele>
        <time>2013-04-17T09:07:14Z</time>
      </trkpt>
      <trkpt lat="48.22334" lon="-4.24047">
        <ele>224.12</ele>
        <time>2013-04-17T09:07:27Z</time>
      </trkpt>
      <trkpt lat="48.22331" lon="-4.24046">
        <ele>224.12</ele>
        <time>2013-04-17T09:07:31Z</time>
      </trkpt>
      <trkpt lat="48.22329" lon="-4.24047">
        <ele>224.61</ele>
        <time>2013-04-17T09:07:33Z</time>
      </trkpt>
      <trkpt lat="48.22322" lon="-4.24046">
        <ele>226.05</ele>
        <time>2013-04-17T09:07:41Z</time>
      </trkpt>
      <trkpt lat="48.2231" lon="-4.24045">
        <ele>227.01</ele>
        <time>2013-04-17T09:07:54Z</time>
      </trkpt>
      <trkpt lat="48.22309" lon="-4.24045">
        <ele>227.49</ele>
        <time>2013-04-17T09:07:55Z</time>
      </trkpt>
      <trkpt lat="48.22299" lon="-4.24046">
        <ele>227.97</ele>
        <time>2013-04-17T09:08:06Z</time>
      </trkpt>
      <trkpt lat="48.22287" lon="-4.24042">
        <ele>227.97</ele>
        <time>2013-04-17T09:08:21Z</time>
      </trkpt>
      <trkpt lat="48.22276" lon="-4.24041">
        <ele>227.97</ele>
        <time>2013-04-17T09:08:33Z</time>
      </trkpt>
      <trkpt lat="48.22265" lon="-4.2404">
        <ele>227.49</ele>
        <time>2013-04-17T09:08:46Z</time>
      </trkpt>
      <trkpt lat="48.22261" lon="-4.24041">
        <ele>228.45</ele>
        <time>2013-04-17T09:08:50Z</time>
      </trkpt>
      <trkpt lat="48.22257" lon="-4.24039">
        <ele>228.45</ele>
        <time>2013-04-17T09:08:54Z</time>
      </trkpt>
      <trkpt lat="48.22253" lon="-4.24041">
        <ele>230.37</ele>
        <time>2013-04-17T09:09:00Z</time>
      </trkpt>
      <trkpt lat="48.22248" lon="-4.24038">
        <ele>228.93</ele>
        <time>2013-04-17T09:09:05Z</time>
      </trkpt>
      <trkpt lat="48.22235" lon="-4.24037">
        <ele>230.37</ele>
        <time>2013-04-17T09:09:20Z</time>
      </trkpt>
      <trkpt lat="48.22233" lon="-4.24037">
        <ele>230.85</ele>
        <time>2013-04-17T09:09:22Z</time>
      </trkpt>
      <trkpt lat="48.22227" lon="-4.24034">
        <ele>231.33</ele>
        <time>2013-04-17T09:09:29Z</time>
      </trkpt>
      <trkpt lat="48.22225" lon="-4.24034">
        <ele>231.33</ele>
        <time>2013-04-17T09:09:32Z</time>
      </trkpt>
      <trkpt lat="48.22213" lon="-4.24025">
        <ele>232.3</ele>
        <time>2013-04-17T09:09:48Z</time>
      </trkpt>
      <trkpt lat="48.22211" lon="-4.24023">
        <ele>233.26</ele>
        <time>2013-04-17T09:09:50Z</time>
      </trkpt>
      <trkpt lat="48.222" lon="-4.24019">
        <ele>232.3</ele>
        <time>2013-04-17T09:10:02Z</time>
      </trkpt>
      <trkpt lat="48.22188" lon="-4.24018">
        <ele>235.66</ele>
        <time>2013-04-17T09:10:16Z</time>
      </trkpt>
      <trkpt lat="48.22181" lon="-4.24016">
        <ele>236.14</ele>
        <time>2013-04-17T09:10:25Z</time>
      </trkpt>
      <trkpt lat="48.22177" lon="-4.24017">
        <ele>235.66</ele>
        <time>2013-04-17T09:10:29Z</time>
      </trkpt>
      <trkpt lat="48.22168" lon="-4.24016">
        <ele>237.58</ele>
        <time>2013-04-17T09:10:39Z</time>
      </trkpt>
      <trkpt lat="48.2216" lon="-4.24014">
        <ele>239.02</ele>
        <time>2013-04-17T09:10:48Z</time>
      </trkpt>
      <trkpt lat="48.22158" lon="-4.24014">
        <ele>237.1</ele>
        <time>2013-04-17T09:10:50Z</time>
      </trkpt>
      <trkpt lat="48.22156" lon="-4.24016">
        <ele>237.1</ele>
        <time>2013-04-17T09:10:53Z</time>
      </trkpt>
      <trkpt lat="48.22154" lon="-4.24016">
        <ele>238.06</ele>
        <time>2013-04-17T09:10:55Z</time>
      </trkpt>
      <trkpt lat="48.22146" lon="-4.24017">
        <ele>236.62</ele>
        <time>2013-04-17T09:11:03Z</time>
      </trkpt>
      <trkpt lat="48.22144" lon="-4.24017">
        <ele>239.02</ele>
        <time>2013-04-17T09:11:05Z</time>
      </trkpt>
      <trkpt lat="48.22136" lon="-4.24018">
        <ele>239.02</ele>
        <time>2013-04-17T09:11:13Z</time>
      </trkpt>
      <trkpt lat="48.2213" lon="-4.2402">
        <ele>239.51</ele>
        <time>2013-04-17T09:11:20Z</time>
      </trkpt>
      <trkpt lat="48.22118" lon="-4.24024">
        <ele>241.91</ele>
        <time>2013-04-17T09:11:34Z</time>
      </trkpt>
      <trkpt lat="48.22106" lon="-4.24028">
        <ele>243.83</ele>
        <time>2013-04-17T09:11:50Z</time>
      </trkpt>
      <trkpt lat="48.22103" lon="-4.24029">
        <ele>244.31</ele>
        <time>2013-04-17T09:11:54Z</time>
      </trkpt>
      <trkpt lat="48.22091" lon="-4.24037">
        <ele>243.83</ele>
        <time>2013-04-17T09:12:11Z</time>
      </trkpt>
      <trkpt lat="48.22088" lon="-4.2404">
        <ele>245.27</ele>
        <time>2013-04-17T09:12:15Z</time>
      </trkpt>
      <trkpt lat="48.22078" lon="-4.2405">
        <ele>246.23</ele>
        <time>2013-04-17T09:12:30Z</time>
      </trkpt>
      <trkpt lat="48.22068" lon="-4.24058">
        <ele>248.16</ele>
        <time>2013-04-17T09:12:44Z</time>
      </trkpt>
      <trkpt lat="48.22062" lon="-4.24061">
        <ele>249.6</ele>
        <time>2013-04-17T09:12:51Z</time>
      </trkpt>
      <trkpt lat="48.22061" lon="-4.24062">
        <ele>247.68</ele>
        <time>2013-04-17T09:12:53Z</time>
      </trkpt>
      <trkpt lat="48.2206" lon="-4.24064">
        <ele>249.6</ele>
        <time>2013-04-17T09:12:56Z</time>
      </trkpt>
      <trkpt lat="48.22051" lon="-4.24072">
        <ele>246.72</ele>
        <time>2013-04-17T09:13:08Z</time>
      </trkpt>
      <trkpt lat="48.22049" lon="-4.24074">
        <ele>248.64</ele>
        <time>2013-04-17T09:13:11Z</time>
      </trkpt>
      <trkpt lat="48.22039" lon="-4.24081">
        <ele>250.08</ele>
        <time>2013-04-17T09:13:23Z</time>
      </trkpt>
      <trkpt lat="48.22037" lon="-4.24081">
        <ele>250.08</ele>
        <time>2013-04-17T09:13:26Z</time>
      </trkpt>
      <trkpt lat="48.22033" lon="-4.24085">
        <ele>248.16</ele>
        <time>2013-04-17T09:13:31Z</time>
      </trkpt>
      <trkpt lat="48.22031" lon="-4.24086">
        <ele>249.6</ele>
        <time>2013-04-17T09:13:33Z</time>
      </trkpt>
      <trkpt lat="48.2202" lon="-4.24092">
        <ele>250.56</ele>
        <time>2013-04-17T09:13:45Z</time>
      </trkpt>
      <trkpt lat="48.2201" lon="-4.24099">
        <ele>251.52</ele>
        <time>2013-04-17T09:13:56Z</time>
      </trkpt>
      <trkpt lat="48.22002" lon="-4.24104">
        <ele>251.04</ele>
        <time>2013-04-17T09:14:06Z</time>
      </trkpt>
      <trkpt lat="48.21996" lon="-4.24109">
        <ele>252</ele>
        <time>2013-04-17T09:14:14Z</time>
      </trkpt>
      <trkpt lat="48.21983" lon="-4.24112">
        <ele>252.96</ele>
        <time>2013-04-17T09:14:29Z</time>
      </trkpt>
      <trkpt lat="48.21982" lon="-4.24108">
        <ele>253.93</ele>
        <time>2013-04-17T09:14:33Z</time>
      </trkpt>
      <trkpt lat="48.21981" lon="-4.24095">
        <ele>254.89</ele>
        <time>2013-04-17T09:14:44Z</time>
      </trkpt>
      <trkpt lat="48.2198" lon="-4.24081">
        <ele>257.29</ele>
        <time>2013-04-17T09:14:54Z</time>
      </trkpt>
      <trkpt lat="48.21978" lon="-4.24065">
        <ele>258.73</ele>
        <time>2013-04-17T09:15:09Z</time>
      </trkpt>
      <trkpt lat="48.21977" lon="-4.2405">
        <ele>260.17</ele>
        <time>2013-04-17T09:15:23Z</time>
      </trkpt>
      <trkpt lat="48.21977" lon="-4.24035">
        <ele>261.62</ele>
        <time>2013-04-17T09:15:36Z</time>
      </trkpt>
      <trkpt lat="48.21977" lon="-4.2402">
        <ele>262.58</ele>
        <time>2013-04-17T09:15:50Z</time>
      </trkpt>
      <trkpt lat="48.21976" lon="-4.24009">
        <ele>265.94</ele>
        <time>2013-04-17T09:16:04Z</time>
      </trkpt>
      <trkpt lat="48.21975" lon="-4.23997">
        <ele>267.38</ele>
        <time>2013-04-17T09:16:18Z</time>
      </trkpt>
      <trkpt lat="48.21974" lon="-4.23987">
        <ele>270.27</ele>
        <time>2013-04-17T09:16:33Z</time>
      </trkpt>
      <trkpt lat="48.21974" lon="-4.23978">
        <ele>273.15</ele>
        <time>2013-04-17T09:16:48Z</time>
      </trkpt>
      <trkpt lat="48.21974" lon="-4.23967">
        <ele>276.52</ele>
        <time>2013-04-17T09:17:01Z</time>
      </trkpt>
      <trkpt lat="48.21974" lon="-4.23966">
        <ele>276.52</ele>
        <time>2013-04-17T09:17:02Z</time>
      </trkpt>
      <trkpt lat="48.21975" lon="-4.23956">
        <ele>278.92</ele>
        <time>2013-04-17T09:17:18Z</time>
      </trkpt>
      <trkpt lat="48.21975" lon="-4.23944">
        <ele>281.8</ele>
        <time>2013-04-17T09:17:34Z</time>
      </trkpt>
      <trkpt lat="48.21977" lon="-4.23932">
        <ele>284.21</ele>
        <time>2013-04-17T09:17:49Z</time>
      </trkpt>
      <trkpt lat="48.21974" lon="-4.2392">
        <ele>286.13</ele>
        <time>2013-04-17T09:18:06Z</time>
      </trkpt>
      <trkpt lat="48.21971" lon="-4.2391">
        <ele>289.01</ele>
        <time>2013-04-17T09:18:23Z</time>
      </trkpt>
      <trkpt lat="48.21971" lon="-4.23909">
        <ele>289.49</ele>
        <time>2013-04-17T09:18:24Z</time>
      </trkpt>
      <trkpt lat="48.21969" lon="-4.23898">
        <ele>292.86</ele>
        <time>2013-04-17T09:18:32Z</time>
      </trkpt>
      <trkpt lat="48.21968" lon="-4.23892">
        <ele>294.78</ele>
        <time>2013-04-17T09:18:36Z</time>
      </trkpt>
      <trkpt lat="48.21968" lon="-4.23883">
        <ele>298.15</ele>
        <time>2013-04-17T09:18:44Z</time>
      </trkpt>
      <trkpt lat="48.21969" lon="-4.23874">
        <ele>301.51</ele>
        <time>2013-04-17T09:18:56Z</time>
      </trkpt>
      <trkpt lat="48.21968" lon="-4.23873">
        <ele>301.51</ele>
        <time>2013-04-17T09:18:57Z</time>
      </trkpt>
      <trkpt lat="48.21968" lon="-4.23872">
        <ele>301.99</ele>
        <time>2013-04-17T09:18:59Z</time>
      </trkpt>
      <trkpt lat="48.21967" lon="-4.23858">
        <ele>304.39</ele>
        <time>2013-04-17T09:19:13Z</time>
      </trkpt>
      <trkpt lat="48.21966" lon="-4.23846">
        <ele>305.36</ele>
        <time>2013-04-17T09:19:27Z</time>
      </trkpt>
      <trkpt lat="48.21966" lon="-4.23846">
        <ele>307.28</ele>
        <time>2013-04-17T09:19:32Z</time>
      </trkpt>
      <trkpt lat="48.21966" lon="-4.23846">
        <ele>303.43</ele>
        <time>2013-04-17T09:19:50Z</time>
      </trkpt>
      <trkpt lat="48.21966" lon="-4.23846">
        <ele>302.47</ele>
        <time>2013-04-17T09:19:52Z</time>
      </trkpt>
      <trkpt lat="48.21966" lon="-4.23846">
        <ele>305.36</ele>
        <time>2013-04-17T09:19:54Z</time>
      </trkpt>
      <trkpt lat="48.21966" lon="-4.23845">
        <ele>305.84</ele>
        <time>2013-04-17T09:19:57Z</time>
      </trkpt>
      <trkpt lat="48.21967" lon="-4.23841">
        <ele>305.84</ele>
        <time>2013-04-17T09:20:00Z</time>
      </trkpt>
      <trkpt lat="48.21966" lon="-4.23838">
        <ele>302.47</ele>
        <time>2013-04-17T09:20:04Z</time>
      </trkpt>
      <trkpt lat="48.21966" lon="-4.23838">
        <ele>300.55</ele>
        <time>2013-04-17T09:20:06Z</time>
      </trkpt>
      <trkpt lat="48.21966" lon="-4.23838">
        <ele>301.99</ele>
        <time>2013-04-17T09:20:27Z</time>
      </trkpt>
      <trkpt lat="48.21967" lon="-4.23836">
        <ele>305.84</ele>
        <time>2013-04-17T09:20:29Z</time>
      </trkpt>
      <trkpt lat="48.21967" lon="-4.23815">
        <ele>306.32</ele>
        <time>2013-04-17T09:20:44Z</time>
      </trkpt>
      <trkpt lat="48.21968" lon="-4.238">
        <ele>308.72</ele>
        <time>2013-04-17T09:20:58Z</time>
      </trkpt>
      <trkpt lat="48.21967" lon="-4.23798">
        <ele>306.32</ele>
        <time>2013-04-17T09:21:03Z</time>
      </trkpt>
      <trkpt lat="48.21968" lon="-4.23797">
        <ele>310.16</ele>
        <time>2013-04-17T09:21:11Z</time>
      </trkpt>
      <trkpt lat="48.21968" lon="-4.23795">
        <ele>310.16</ele>
        <time>2013-04-17T09:21:12Z</time>
      </trkpt>
      <trkpt lat="48.21968" lon="-4.23791">
        <ele>310.16</ele>
        <time>2013-04-17T09:21:20Z</time>
      </trkpt>
      <trkpt lat="48.21968" lon="-4.23787">
        <ele>310.16</ele>
        <time>2013-04-17T09:21:37Z</time>
      </trkpt>
      <trkpt lat="48.21967" lon="-4.23779">
        <ele>310.16</ele>
        <time>2013-04-17T09:21:42Z</time>
      </trkpt>
      <trkpt lat="48.21968" lon="-4.23762">
        <ele>313.05</ele>
        <time>2013-04-17T09:21:55Z</time>
      </trkpt>
      <trkpt lat="48.21968" lon="-4.23761">
        <ele>312.57</ele>
        <time>2013-04-17T09:21:56Z</time>
      </trkpt>
      <trkpt lat="48.21971" lon="-4.23746">
        <ele>313.53</ele>
        <time>2013-04-17T09:22:10Z</time>
      </trkpt>
      <trkpt lat="48.21969" lon="-4.23726">
        <ele>314.01</ele>
        <time>2013-04-17T09:22:24Z</time>
      </trkpt>
      <trkpt lat="48.21969" lon="-4.23716">
        <ele>314.97</ele>
        <time>2013-04-17T09:22:31Z</time>
      </trkpt>
      <trkpt lat="48.21969" lon="-4.23697">
        <ele>316.89</ele>
        <time>2013-04-17T09:22:46Z</time>
      </trkpt>
      <trkpt lat="48.21969" lon="-4.23676">
        <ele>317.37</ele>
        <time>2013-04-17T09:23:02Z</time>
      </trkpt>
      <trkpt lat="48.21968" lon="-4.23661">
        <ele>317.37</ele>
        <time>2013-04-17T09:23:13Z</time>
      </trkpt>
      <trkpt lat="48.21968" lon="-4.23654">
        <ele>318.33</ele>
        <time>2013-04-17T09:23:18Z</time>
      </trkpt>
      <trkpt lat="48.21968" lon="-4.23647">
        <ele>318.81</ele>
        <time>2013-04-17T09:23:24Z</time>
      </trkpt>
      <trkpt lat="48.21969" lon="-4.23628">
        <ele>320.74</ele>
        <time>2013-04-17T09:23:40Z</time>
      </trkpt>
      <trkpt lat="48.21971" lon="-4.23614">
        <ele>323.62</ele>
        <time>2013-04-17T09:23:55Z</time>
      </trkpt>
      <trkpt lat="48.21972" lon="-4.23604">
        <ele>324.58</ele>
        <time>2013-04-17T09:24:03Z</time>
      </trkpt>
      <trkpt lat="48.21972" lon="-4.23597">
        <ele>325.54</ele>
        <time>2013-04-17T09:24:09Z</time>
      </trkpt>
      <trkpt lat="48.21974" lon="-4.23581">
        <ele>326.5</ele>
        <time>2013-04-17T09:24:21Z</time>
      </trkpt>
      <trkpt lat="48.21976" lon="-4.23576">
        <ele>326.02</ele>
        <time>2013-04-17T09:24:25Z</time>
      </trkpt>
      <trkpt lat="48.21977" lon="-4.23568">
        <ele>326.99</ele>
        <time>2013-04-17T09:24:31Z</time>
      </trkpt>
      <trkpt lat="48.21977" lon="-4.23557">
        <ele>328.43</ele>
        <time>2013-04-17T09:24:40Z</time>
      </trkpt>
      <trkpt lat="48.21974" lon="-4.23542">
        <ele>329.87</ele>
        <time>2013-04-17T09:24:54Z</time>
      </trkpt>
      <trkpt lat="48.21974" lon="-4.23536">
        <ele>329.87</ele>
        <time>2013-04-17T09:24:59Z</time>
      </trkpt>
      <trkpt lat="48.21975" lon="-4.23533">
        <ele>330.35</ele>
        <time>2013-04-17T09:25:01Z</time>
      </trkpt>
      <trkpt lat="48.21976" lon="-4.23517">
        <ele>332.27</ele>
        <time>2013-04-17T09:25:15Z</time>
      </trkpt>
      <trkpt lat="48.21976" lon="-4.23513">
        <ele>334.68</ele>
        <time>2013-04-17T09:25:25Z</time>
      </trkpt>
      <trkpt lat="48.21978" lon="-4.23512">
        <ele>330.83</ele>
        <time>2013-04-17T09:25:34Z</time>
      </trkpt>
      <trkpt lat="48.21978" lon="-4.23512">
        <ele>334.2</ele>
        <time>2013-04-17T09:25:36Z</time>
      </trkpt>
      <trkpt lat="48.21978" lon="-4.23512">
        <ele>330.83</ele>
        <time>2013-04-17T09:25:37Z</time>
      </trkpt>
      <trkpt lat="48.21978" lon="-4.23512">
        <ele>334.2</ele>
        <time>2013-04-17T09:25:38Z</time>
      </trkpt>
      <trkpt lat="48.21977" lon="-4.23511">
        <ele>333.71</ele>
        <time>2013-04-17T09:25:42Z</time>
      </trkpt>
      <trkpt lat="48.21977" lon="-4.23511">
        <ele>327.47</ele>
        <time>2013-04-17T09:25:43Z</time>
      </trkpt>
      <trkpt lat="48.21975" lon="-4.23512">
        <ele>331.79</ele>
        <time>2013-04-17T09:25:47Z</time>
      </trkpt>
      <trkpt lat="48.21975" lon="-4.23512">
        <ele>331.31</ele>
        <time>2013-04-17T09:25:48Z</time>
      </trkpt>
      <trkpt lat="48.21975" lon="-4.23512">
        <ele>332.27</ele>
        <time>2013-04-17T09:25:54Z</time>
      </trkpt>
      <trkpt lat="48.21975" lon="-4.23512">
        <ele>328.91</ele>
        <time>2013-04-17T09:25:55Z</time>
      </trkpt>
      <trkpt lat="48.21976" lon="-4.23513">
        <ele>330.83</ele>
        <time>2013-04-17T09:25:57Z</time>
      </trkpt>
      <trkpt lat="48.21975" lon="-4.23511">
        <ele>332.27</ele>
        <time>2013-04-17T09:26:01Z</time>
      </trkpt>
      <trkpt lat="48.21975" lon="-4.23511">
        <ele>332.75</ele>
        <time>2013-04-17T09:27:03Z</time>
      </trkpt>
      <trkpt lat="48.21975" lon="-4.23511">
        <ele>331.79</ele>
        <time>2013-04-17T09:27:05Z</time>
      </trkpt>
      <trkpt lat="48.21975" lon="-4.23512">
        <ele>331.79</ele>
        <time>2013-04-17T09:29:14Z</time>
      </trkpt>
      <trkpt lat="48.21975" lon="-4.23512">
        <ele>331.79</ele>
        <time>2013-04-17T09:30:14Z</time>
      </trkpt>
      <trkpt lat="48.21975" lon="-4.23513">
        <ele>332.27</ele>
        <time>2013-04-17T09:31:30Z</time>
      </trkpt>
      <trkpt lat="48.21975" lon="-4.23513">
        <ele>336.12</ele>
        <time>2013-04-17T09:32:20Z</time>
      </trkpt>
      <trkpt lat="48.21975" lon="-4.23513">
        <ele>336.12</ele>
        <time>2013-04-17T09:32:21Z</time>
      </trkpt>
      <trkpt lat="48.21975" lon="-4.23513">
        <ele>333.71</ele>
        <time>2013-04-17T09:32:49Z</time>
      </trkpt>
      <trkpt lat="48.21975" lon="-4.23512">
        <ele>334.68</ele>
        <time>2013-04-17T09:33:30Z</time>
      </trkpt>
      <trkpt lat="48.21976" lon="-4.23513">
        <ele>338.04</ele>
        <time>2013-04-17T09:33:52Z</time>
      </trkpt>
      <trkpt lat="48.21976" lon="-4.23513">
        <ele>334.68</ele>
        <time>2013-04-17T09:33:54Z</time>
      </trkpt>
      <trkpt lat="48.21976" lon="-4.23513">
        <ele>338.52</ele>
        <time>2013-04-17T09:33:59Z</time>
      </trkpt>
      <trkpt lat="48.21976" lon="-4.23513">
        <ele>338.04</ele>
        <time>2013-04-17T09:34:00Z</time>
      </trkpt>
      <trkpt lat="48.21976" lon="-4.23513">
        <ele>335.64</ele>
        <time>2013-04-17T09:34:05Z</time>
      </trkpt>
      <trkpt lat="48.21976" lon="-4.23512">
        <ele>336.6</ele>
        <time>2013-04-17T09:34:26Z</time>
      </trkpt>
      <trkpt lat="48.21976" lon="-4.23512">
        <ele>336.6</ele>
        <time>2013-04-17T09:34:43Z</time>
      </trkpt>
      <trkpt lat="48.21976" lon="-4.23512">
        <ele>337.56</ele>
        <time>2013-04-17T09:34:51Z</time>
      </trkpt>
      <trkpt lat="48.21976" lon="-4.23512">
        <ele>338.04</ele>
        <time>2013-04-17T09:35:17Z</time>
      </trkpt>
      <trkpt lat="48.21976" lon="-4.23512">
        <ele>338.04</ele>
        <time>2013-04-17T09:35:30Z</time>
      </trkpt>
      <trkpt lat="48.21976" lon="-4.23512">
        <ele>334.2</ele>
        <time>2013-04-17T09:35:31Z</time>
      </trkpt>
      <trkpt lat="48.21976" lon="-4.23512">
        <ele>336.12</ele>
        <time>2013-04-17T09:35:32Z</time>
      </trkpt>
      <trkpt lat="48.21976" lon="-4.23512">
        <ele>329.39</ele>
        <time>2013-04-17T09:35:37Z</time>
      </trkpt>
      <trkpt lat="48.21976" lon="-4.23512">
        <ele>337.56</ele>
        <time>2013-04-17T09:35:38Z</time>
      </trkpt>
      <trkpt lat="48.21976" lon="-4.23513">
        <ele>337.56</ele>
        <time>2013-04-17T09:35:49Z</time>
      </trkpt>
      <trkpt lat="48.21975" lon="-4.23513">
        <ele>336.12</ele>
        <time>2013-04-17T09:35:52Z</time>
      </trkpt>
      <trkpt lat="48.21975" lon="-4.23512">
        <ele>335.64</ele>
        <time>2013-04-17T09:35:57Z</time>
      </trkpt>
      <trkpt lat="48.21975" lon="-4.23512">
        <ele>335.16</ele>
        <time>2013-04-17T09:36:06Z</time>
      </trkpt>
      <trkpt lat="48.21975" lon="-4.23512">
        <ele>333.23</ele>
        <time>2013-04-17T09:36:47Z</time>
      </trkpt>
      <trkpt lat="48.21975" lon="-4.23512">
        <ele>334.68</ele>
        <time>2013-04-17T09:37:07Z</time>
      </trkpt>
      <trkpt lat="48.21975" lon="-4.23512">
        <ele>332.27</ele>
        <time>2013-04-17T09:37:13Z</time>
      </trkpt>
      <trkpt lat="48.21975" lon="-4.23512">
        <ele>329.39</ele>
        <time>2013-04-17T09:37:29Z</time>
      </trkpt>
      <trkpt lat="48.21975" lon="-4.23512">
        <ele>334.2</ele>
        <time>2013-04-17T09:37:33Z</time>
      </trkpt>
      <trkpt lat="48.21975" lon="-4.23512">
        <ele>336.6</ele>
        <time>2013-04-17T09:37:57Z</time>
      </trkpt>
      <trkpt lat="48.21975" lon="-4.23513">
        <ele>335.64</ele>
        <time>2013-04-17T09:38:08Z</time>
      </trkpt>
      <trkpt lat="48.21975" lon="-4.23514">
        <ele>337.08</ele>
        <time>2013-04-17T09:38:10Z</time>
      </trkpt>
      <trkpt lat="48.21975" lon="-4.23514">
        <ele>337.56</ele>
        <time>2013-04-17T09:38:16Z</time>
      </trkpt>
      <trkpt lat="48.21974" lon="-4.23513">
        <ele>334.2</ele>
        <time>2013-04-17T09:38:31Z</time>
      </trkpt>
      <trkpt lat="48.21974" lon="-4.23513">
        <ele>331.79</ele>
        <time>2013-04-17T09:38:33Z</time>
      </trkpt>
      <trkpt lat="48.21974" lon="-4.23513">
        <ele>331.31</ele>
        <time>2013-04-17T09:38:43Z</time>
      </trkpt>
      <trkpt lat="48.21974" lon="-4.23513">
        <ele>337.08</ele>
        <time>2013-04-17T09:38:47Z</time>
      </trkpt>
      <trkpt lat="48.21974" lon="-4.23513">
        <ele>335.64</ele>
        <time>2013-04-17T09:38:48Z</time>
      </trkpt>
      <trkpt lat="48.21974" lon="-4.23513">
        <ele>337.56</ele>
        <time>2013-04-17T09:38:52Z</time>
      </trkpt>
      <trkpt lat="48.21974" lon="-4.23513">
        <ele>336.12</ele>
        <time>2013-04-17T09:38:54Z</time>
      </trkpt>
      <trkpt lat="48.21974" lon="-4.23513">
        <ele>330.83</ele>
        <time>2013-04-17T09:39:07Z</time>
      </trkpt>
      <trkpt lat="48.21974" lon="-4.23513">
        <ele>329.39</ele>
        <time>2013-04-17T09:39:09Z</time>
      </trkpt>
      <trkpt lat="48.21974" lon="-4.23513">
        <ele>332.75</ele>
        <time>2013-04-17T09:39:14Z</time>
      </trkpt>
      <trkpt lat="48.21974" lon="-4.23513">
        <ele>335.64</ele>
        <time>2013-04-17T09:39:16Z</time>
      </trkpt>
      <trkpt lat="48.21974" lon="-4.23513">
        <ele>328.43</ele>
        <time>2013-04-17T09:39:20Z</time>
      </trkpt>
      <trkpt lat="48.21974" lon="-4.23513">
        <ele>336.12</ele>
        <time>2013-04-17T09:39:25Z</time>
      </trkpt>
      <trkpt lat="48.21974" lon="-4.23513">
        <ele>339</ele>
        <time>2013-04-17T09:39:27Z</time>
      </trkpt>
      <trkpt lat="48.21974" lon="-4.23513">
        <ele>335.64</ele>
        <time>2013-04-17T09:39:31Z</time>
      </trkpt>
      <trkpt lat="48.21974" lon="-4.23513">
        <ele>336.12</ele>
        <time>2013-04-17T09:39:32Z</time>
      </trkpt>
      <trkpt lat="48.21974" lon="-4.23513">
        <ele>334.68</ele>
        <time>2013-04-17T09:39:35Z</time>
      </trkpt>
      <trkpt lat="48.21974" lon="-4.23514">
        <ele>333.23</ele>
        <time>2013-04-17T09:39:42Z</time>
      </trkpt>
      <trkpt lat="48.21974" lon="-4.23514">
        <ele>329.39</ele>
        <time>2013-04-17T09:39:48Z</time>
      </trkpt>
      <trkpt lat="48.21974" lon="-4.23514">
        <ele>334.68</ele>
        <time>2013-04-17T09:39:51Z</time>
      </trkpt>
      <trkpt lat="48.21974" lon="-4.23514">
        <ele>334.68</ele>
        <time>2013-04-17T09:40:23Z</time>
      </trkpt>
      <trkpt lat="48.21974" lon="-4.23514">
        <ele>335.64</ele>
        <time>2013-04-17T09:40:59Z</time>
      </trkpt>
      <trkpt lat="48.21974" lon="-4.23513">
        <ele>337.56</ele>
        <time>2013-04-17T09:41:20Z</time>
      </trkpt>
      <trkpt lat="48.2198" lon="-4.2351">
        <ele>333.71</ele>
        <time>2013-04-17T09:41:31Z</time>
      </trkpt>
      <trkpt lat="48.21981" lon="-4.2351">
        <ele>333.23</ele>
        <time>2013-04-17T09:41:32Z</time>
      </trkpt>
      <trkpt lat="48.21982" lon="-4.23512">
        <ele>331.79</ele>
        <time>2013-04-17T09:41:34Z</time>
      </trkpt>
      <trkpt lat="48.21984" lon="-4.23514">
        <ele>330.83</ele>
        <time>2013-04-17T09:41:36Z</time>
      </trkpt>
      <trkpt lat="48.21994" lon="-4.23519">
        <ele>330.83</ele>
        <time>2013-04-17T09:41:53Z</time>
      </trkpt>
      <trkpt lat="48.21995" lon="-4.23521">
        <ele>329.87</ele>
        <time>2013-04-17T09:42:35Z</time>
      </trkpt>
      <trkpt lat="48.21995" lon="-4.23521">
        <ele>329.87</ele>
        <time>2013-04-17T09:43:05Z</time>
      </trkpt>
      <trkpt lat="48.21995" lon="-4.23521">
        <ele>329.87</ele>
        <time>2013-04-17T09:44:05Z</time>
      </trkpt>
      <trkpt lat="48.21995" lon="-4.23521">
        <ele>329.39</ele>
        <time>2013-04-17T09:44:38Z</time>
      </trkpt>
      <trkpt lat="48.22001" lon="-4.23526">
        <ele>327.95</ele>
        <time>2013-04-17T09:44:51Z</time>
      </trkpt>
      <trkpt lat="48.22001" lon="-4.23526">
        <ele>328.91</ele>
        <time>2013-04-17T09:45:27Z</time>
      </trkpt>
      <trkpt lat="48.22001" lon="-4.23526">
        <ele>327.95</ele>
        <time>2013-04-17T09:46:10Z</time>
      </trkpt>
      <trkpt lat="48.22001" lon="-4.23526">
        <ele>328.91</ele>
        <time>2013-04-17T09:46:22Z</time>
      </trkpt>
      <trkpt lat="48.22003" lon="-4.23527">
        <ele>328.43</ele>
        <time>2013-04-17T09:46:45Z</time>
      </trkpt>
      <trkpt lat="48.22" lon="-4.23525">
        <ele>323.14</ele>
        <time>2013-04-17T09:46:57Z</time>
      </trkpt>
      <trkpt lat="48.21997" lon="-4.23523">
        <ele>329.39</ele>
        <time>2013-04-17T09:47:00Z</time>
      </trkpt>
      <trkpt lat="48.21997" lon="-4.23521">
        <ele>333.23</ele>
        <time>2013-04-17T09:47:01Z</time>
      </trkpt>
      <trkpt lat="48.21997" lon="-4.23521">
        <ele>331.31</ele>
        <time>2013-04-17T09:47:02Z</time>
      </trkpt>
      <trkpt lat="48.21995" lon="-4.23519">
        <ele>329.87</ele>
        <time>2013-04-17T09:47:04Z</time>
      </trkpt>
      <trkpt lat="48.21992" lon="-4.23514">
        <ele>330.35</ele>
        <time>2013-04-17T09:47:08Z</time>
      </trkpt>
      <trkpt lat="48.21991" lon="-4.23512">
        <ele>329.39</ele>
        <time>2013-04-17T09:47:10Z</time>
      </trkpt>
      <trkpt lat="48.21989" lon="-4.23508">
        <ele>331.79</ele>
        <time>2013-04-17T09:47:14Z</time>
      </trkpt>
      <trkpt lat="48.21983" lon="-4.23499">
        <ele>327.47</ele>
        <time>2013-04-17T09:47:24Z</time>
      </trkpt>
      <trkpt lat="48.21983" lon="-4.23498">
        <ele>330.83</ele>
        <time>2013-04-17T09:47:27Z</time>
      </trkpt>
      <trkpt lat="48.21983" lon="-4.23495">
        <ele>331.31</ele>
        <time>2013-04-17T09:47:40Z</time>
      </trkpt>
      <trkpt lat="48.21984" lon="-4.23494">
        <ele>331.79</ele>
        <time>2013-04-17T09:47:41Z</time>
      </trkpt>
      <trkpt lat="48.21988" lon="-4.23477">
        <ele>331.79</ele>
        <time>2013-04-17T09:47:52Z</time>
      </trkpt>
      <trkpt lat="48.21989" lon="-4.23474">
        <ele>332.27</ele>
        <time>2013-04-17T09:47:54Z</time>
      </trkpt>
      <trkpt lat="48.21989" lon="-4.23471">
        <ele>330.83</ele>
        <time>2013-04-17T09:47:56Z</time>
      </trkpt>
      <trkpt lat="48.21991" lon="-4.23454">
        <ele>332.75</ele>
        <time>2013-04-17T09:48:06Z</time>
      </trkpt>
      <trkpt lat="48.21993" lon="-4.23446">
        <ele>330.83</ele>
        <time>2013-04-17T09:48:11Z</time>
      </trkpt>
      <trkpt lat="48.21996" lon="-4.23431">
        <ele>326.99</ele>
        <time>2013-04-17T09:48:21Z</time>
      </trkpt>
      <trkpt lat="48.21997" lon="-4.2343">
        <ele>330.83</ele>
        <time>2013-04-17T09:48:22Z</time>
      </trkpt>
      <trkpt lat="48.21997" lon="-4.23428">
        <ele>327.95</ele>
        <time>2013-04-17T09:48:23Z</time>
      </trkpt>
      <trkpt lat="48.21997" lon="-4.23428">
        <ele>332.27</ele>
        <time>2013-04-17T09:48:24Z</time>
      </trkpt>
      <trkpt lat="48.21997" lon="-4.23424">
        <ele>334.2</ele>
        <time>2013-04-17T09:48:27Z</time>
      </trkpt>
      <trkpt lat="48.21998" lon="-4.23421">
        <ele>332.27</ele>
        <time>2013-04-17T09:48:29Z</time>
      </trkpt>
      <trkpt lat="48.22" lon="-4.2341">
        <ele>333.71</ele>
        <time>2013-04-17T09:48:38Z</time>
      </trkpt>
      <trkpt lat="48.22002" lon="-4.234">
        <ele>333.23</ele>
        <time>2013-04-17T09:48:55Z</time>
      </trkpt>
      <trkpt lat="48.22002" lon="-4.23399">
        <ele>337.08</ele>
        <time>2013-04-17T09:49:02Z</time>
      </trkpt>
      <trkpt lat="48.22002" lon="-4.23399">
        <ele>336.12</ele>
        <time>2013-04-17T09:49:03Z</time>
      </trkpt>
      <trkpt lat="48.22002" lon="-4.23399">
        <ele>333.23</ele>
        <time>2013-04-17T09:49:31Z</time>
      </trkpt>
      <trkpt lat="48.22005" lon="-4.23393">
        <ele>333.71</ele>
        <time>2013-04-17T09:49:38Z</time>
      </trkpt>
      <trkpt lat="48.22006" lon="-4.23378">
        <ele>335.16</ele>
        <time>2013-04-17T09:49:47Z</time>
      </trkpt>
      <trkpt lat="48.22006" lon="-4.23362">
        <ele>334.68</ele>
        <time>2013-04-17T09:49:56Z</time>
      </trkpt>
      <trkpt lat="48.22007" lon="-4.23347">
        <ele>335.16</ele>
        <time>2013-04-17T09:50:06Z</time>
      </trkpt>
      <trkpt lat="48.22007" lon="-4.23344">
        <ele>335.16</ele>
        <time>2013-04-17T09:50:08Z</time>
      </trkpt>
      <trkpt lat="48.22006" lon="-4.2334">
        <ele>333.71</ele>
        <time>2013-04-17T09:50:11Z</time>
      </trkpt>
      <trkpt lat="48.22006" lon="-4.23338">
        <ele>333.71</ele>
        <time>2013-04-17T09:50:12Z</time>
      </trkpt>
      <trkpt lat="48.22004" lon="-4.23334">
        <ele>334.68</ele>
        <time>2013-04-17T09:50:15Z</time>
      </trkpt>
      <trkpt lat="48.22004" lon="-4.23331">
        <ele>333.23</ele>
        <time>2013-04-17T09:50:17Z</time>
      </trkpt>
      <trkpt lat="48.22001" lon="-4.23323">
        <ele>326.99</ele>
        <time>2013-04-17T09:50:22Z</time>
      </trkpt>
      <trkpt lat="48.21999" lon="-4.2332">
        <ele>330.83</ele>
        <time>2013-04-17T09:50:25Z</time>
      </trkpt>
      <trkpt lat="48.21995" lon="-4.23297">
        <ele>328.43</ele>
        <time>2013-04-17T09:50:40Z</time>
      </trkpt>
      <trkpt lat="48.21992" lon="-4.23277">
        <ele>328.91</ele>
        <time>2013-04-17T09:50:53Z</time>
      </trkpt>
      <trkpt lat="48.21992" lon="-4.23259">
        <ele>326.02</ele>
        <time>2013-04-17T09:51:04Z</time>
      </trkpt>
      <trkpt lat="48.21992" lon="-4.23257">
        <ele>325.54</ele>
        <time>2013-04-17T09:51:05Z</time>
      </trkpt>
      <trkpt lat="48.21997" lon="-4.23234">
        <ele>323.62</ele>
        <time>2013-04-17T09:51:21Z</time>
      </trkpt>
      <trkpt lat="48.22004" lon="-4.23215">
        <ele>321.7</ele>
        <time>2013-04-17T09:51:34Z</time>
      </trkpt>
      <trkpt lat="48.22005" lon="-4.23213">
        <ele>322.18</ele>
        <time>2013-04-17T09:51:36Z</time>
      </trkpt>
      <trkpt lat="48.2201" lon="-4.23195">
        <ele>321.22</ele>
        <time>2013-04-17T09:51:49Z</time>
      </trkpt>
      <trkpt lat="48.22011" lon="-4.23189">
        <ele>320.26</ele>
        <time>2013-04-17T09:51:54Z</time>
      </trkpt>
      <trkpt lat="48.22013" lon="-4.23185">
        <ele>322.66</ele>
        <time>2013-04-17T09:51:57Z</time>
      </trkpt>
      <trkpt lat="48.22014" lon="-4.23176">
        <ele>320.74</ele>
        <time>2013-04-17T09:52:02Z</time>
      </trkpt>
      <trkpt lat="48.22015" lon="-4.2317">
        <ele>320.74</ele>
        <time>2013-04-17T09:52:06Z</time>
      </trkpt>
      <trkpt lat="48.22019" lon="-4.23156">
        <ele>320.74</ele>
        <time>2013-04-17T09:52:15Z</time>
      </trkpt>
      <trkpt lat="48.22019" lon="-4.23153">
        <ele>321.7</ele>
        <time>2013-04-17T09:52:17Z</time>
      </trkpt>
      <trkpt lat="48.2202" lon="-4.23146">
        <ele>321.7</ele>
        <time>2013-04-17T09:52:21Z</time>
      </trkpt>
      <trkpt lat="48.22023" lon="-4.23132">
        <ele>320.26</ele>
        <time>2013-04-17T09:52:30Z</time>
      </trkpt>
      <trkpt lat="48.22027" lon="-4.23116">
        <ele>320.26</ele>
        <time>2013-04-17T09:52:40Z</time>
      </trkpt>
      <trkpt lat="48.22027" lon="-4.23113">
        <ele>318.33</ele>
        <time>2013-04-17T09:52:42Z</time>
      </trkpt>
      <trkpt lat="48.2203" lon="-4.23093">
        <ele>316.89</ele>
        <time>2013-04-17T09:52:54Z</time>
      </trkpt>
      <trkpt lat="48.22036" lon="-4.23063">
        <ele>315.93</ele>
        <time>2013-04-17T09:53:13Z</time>
      </trkpt>
      <trkpt lat="48.22038" lon="-4.2305">
        <ele>315.45</ele>
        <time>2013-04-17T09:53:21Z</time>
      </trkpt>
      <trkpt lat="48.22037" lon="-4.23014">
        <ele>315.93</ele>
        <time>2013-04-17T09:53:42Z</time>
      </trkpt>
      <trkpt lat="48.22037" lon="-4.23011">
        <ele>315.93</ele>
        <time>2013-04-17T09:53:44Z</time>
      </trkpt>
      <trkpt lat="48.22037" lon="-4.22999">
        <ele>315.45</ele>
        <time>2013-04-17T09:53:51Z</time>
      </trkpt>
      <trkpt lat="48.22037" lon="-4.2297">
        <ele>316.41</ele>
        <time>2013-04-17T09:54:08Z</time>
      </trkpt>
      <trkpt lat="48.22039" lon="-4.22959">
        <ele>313.53</ele>
        <time>2013-04-17T09:54:14Z</time>
      </trkpt>
      <trkpt lat="48.22039" lon="-4.22953">
        <ele>314.49</ele>
        <time>2013-04-17T09:54:18Z</time>
      </trkpt>
      <trkpt lat="48.2204" lon="-4.22935">
        <ele>313.05</ele>
        <time>2013-04-17T09:54:29Z</time>
      </trkpt>
      <trkpt lat="48.22042" lon="-4.22927">
        <ele>314.97</ele>
        <time>2013-04-17T09:54:34Z</time>
      </trkpt>
      <trkpt lat="48.22047" lon="-4.22906">
        <ele>313.53</ele>
        <time>2013-04-17T09:54:49Z</time>
      </trkpt>
      <trkpt lat="48.22049" lon="-4.22897">
        <ele>312.09</ele>
        <time>2013-04-17T09:54:57Z</time>
      </trkpt>
      <trkpt lat="48.22052" lon="-4.2289">
        <ele>310.16</ele>
        <time>2013-04-17T09:55:03Z</time>
      </trkpt>
      <trkpt lat="48.22056" lon="-4.22877">
        <ele>307.28</ele>
        <time>2013-04-17T09:55:12Z</time>
      </trkpt>
      <trkpt lat="48.22057" lon="-4.22873">
        <ele>307.28</ele>
        <time>2013-04-17T09:55:15Z</time>
      </trkpt>
      <trkpt lat="48.22058" lon="-4.22869">
        <ele>307.76</ele>
        <time>2013-04-17T09:55:18Z</time>
      </trkpt>
      <trkpt lat="48.2206" lon="-4.22862">
        <ele>305.84</ele>
        <time>2013-04-17T09:55:23Z</time>
      </trkpt>
      <trkpt lat="48.22063" lon="-4.22847">
        <ele>303.91</ele>
        <time>2013-04-17T09:55:35Z</time>
      </trkpt>
      <trkpt lat="48.22063" lon="-4.22846">
        <ele>303.91</ele>
        <time>2013-04-17T09:55:36Z</time>
      </trkpt>
      <trkpt lat="48.22063" lon="-4.22826">
        <ele>302.47</ele>
        <time>2013-04-17T09:55:51Z</time>
      </trkpt>
      <trkpt lat="48.22063" lon="-4.22819">
        <ele>300.55</ele>
        <time>2013-04-17T09:55:56Z</time>
      </trkpt>
      <trkpt lat="48.22059" lon="-4.22798">
        <ele>300.07</ele>
        <time>2013-04-17T09:56:11Z</time>
      </trkpt>
      <trkpt lat="48.22055" lon="-4.22777">
        <ele>298.63</ele>
        <time>2013-04-17T09:56:25Z</time>
      </trkpt>
      <trkpt lat="48.22053" lon="-4.22773">
        <ele>298.15</ele>
        <time>2013-04-17T09:56:28Z</time>
      </trkpt>
      <trkpt lat="48.22052" lon="-4.22753">
        <ele>295.26</ele>
        <time>2013-04-17T09:56:45Z</time>
      </trkpt>
      <trkpt lat="48.22062" lon="-4.22749">
        <ele>293.82</ele>
        <time>2013-04-17T09:57:00Z</time>
      </trkpt>
      <trkpt lat="48.22066" lon="-4.22749">
        <ele>292.86</ele>
        <time>2013-04-17T09:57:05Z</time>
      </trkpt>
      <trkpt lat="48.22071" lon="-4.2275">
        <ele>292.38</ele>
        <time>2013-04-17T09:57:11Z</time>
      </trkpt>
      <trkpt lat="48.22078" lon="-4.22753">
        <ele>289.97</ele>
        <time>2013-04-17T09:57:20Z</time>
      </trkpt>
      <trkpt lat="48.22079" lon="-4.22753">
        <ele>289.97</ele>
        <time>2013-04-17T09:57:21Z</time>
      </trkpt>
      <trkpt lat="48.22082" lon="-4.22753">
        <ele>288.53</ele>
        <time>2013-04-17T09:57:24Z</time>
      </trkpt>
      <trkpt lat="48.22084" lon="-4.22752">
        <ele>288.05</ele>
        <time>2013-04-17T09:57:27Z</time>
      </trkpt>
      <trkpt lat="48.22086" lon="-4.22743">
        <ele>286.13</ele>
        <time>2013-04-17T09:57:34Z</time>
      </trkpt>
      <trkpt lat="48.22085" lon="-4.22735">
        <ele>286.13</ele>
        <time>2013-04-17T09:57:39Z</time>
      </trkpt>
      <trkpt lat="48.22083" lon="-4.22712">
        <ele>286.13</ele>
        <time>2013-04-17T09:57:54Z</time>
      </trkpt>
      <trkpt lat="48.22082" lon="-4.22705">
        <ele>286.13</ele>
        <time>2013-04-17T09:57:59Z</time>
      </trkpt>
      <trkpt lat="48.22082" lon="-4.22702">
        <ele>286.61</ele>
        <time>2013-04-17T09:58:01Z</time>
      </trkpt>
      <trkpt lat="48.2208" lon="-4.22691">
        <ele>286.61</ele>
        <time>2013-04-17T09:58:08Z</time>
      </trkpt>
      <trkpt lat="48.2208" lon="-4.22679">
        <ele>286.61</ele>
        <time>2013-04-17T09:58:15Z</time>
      </trkpt>
      <trkpt lat="48.22081" lon="-4.22657">
        <ele>285.17</ele>
        <time>2013-04-17T09:58:30Z</time>
      </trkpt>
      <trkpt lat="48.22081" lon="-4.22645">
        <ele>285.65</ele>
        <time>2013-04-17T09:58:38Z</time>
      </trkpt>
      <trkpt lat="48.22089" lon="-4.22631">
        <ele>285.65</ele>
        <time>2013-04-17T09:58:50Z</time>
      </trkpt>
      <trkpt lat="48.22094" lon="-4.22621">
        <ele>284.21</ele>
        <time>2013-04-17T09:58:58Z</time>
      </trkpt>
      <trkpt lat="48.221" lon="-4.22602">
        <ele>280.84</ele>
        <time>2013-04-17T09:59:16Z</time>
      </trkpt>
      <trkpt lat="48.22104" lon="-4.22587">
        <ele>278.44</ele>
        <time>2013-04-17T09:59:27Z</time>
      </trkpt>
      <trkpt lat="48.22104" lon="-4.22584">
        <ele>278.44</ele>
        <time>2013-04-17T09:59:29Z</time>
      </trkpt>
      <trkpt lat="48.22111" lon="-4.22563">
        <ele>276.04</ele>
        <time>2013-04-17T09:59:46Z</time>
      </trkpt>
      <trkpt lat="48.22115" lon="-4.22556">
        <ele>275.07</ele>
        <time>2013-04-17T09:59:52Z</time>
      </trkpt>
      <trkpt lat="48.22124" lon="-4.22532">
        <ele>273.15</ele>
        <time>2013-04-17T10:00:10Z</time>
      </trkpt>
      <trkpt lat="48.22127" lon="-4.22526">
        <ele>272.19</ele>
        <time>2013-04-17T10:00:15Z</time>
      </trkpt>
      <trkpt lat="48.22129" lon="-4.22522">
        <ele>272.19</ele>
        <time>2013-04-17T10:00:19Z</time>
      </trkpt>
      <trkpt lat="48.22133" lon="-4.22506">
        <ele>270.75</ele>
        <time>2013-04-17T10:00:31Z</time>
      </trkpt>
      <trkpt lat="48.22134" lon="-4.22504">
        <ele>270.75</ele>
        <time>2013-04-17T10:00:32Z</time>
      </trkpt>
      <trkpt lat="48.22133" lon="-4.22498">
        <ele>269.79</ele>
        <time>2013-04-17T10:00:36Z</time>
      </trkpt>
      <trkpt lat="48.22134" lon="-4.22493">
        <ele>267.86</ele>
        <time>2013-04-17T10:00:43Z</time>
      </trkpt>
      <trkpt lat="48.22134" lon="-4.22493">
        <ele>271.23</ele>
        <time>2013-04-17T10:00:45Z</time>
      </trkpt>
      <trkpt lat="48.22134" lon="-4.22492">
        <ele>270.75</ele>
        <time>2013-04-17T10:00:46Z</time>
      </trkpt>
      <trkpt lat="48.22136" lon="-4.22487">
        <ele>268.83</ele>
        <time>2013-04-17T10:00:51Z</time>
      </trkpt>
      <trkpt lat="48.22142" lon="-4.22469">
        <ele>270.27</ele>
        <time>2013-04-17T10:01:04Z</time>
      </trkpt>
      <trkpt lat="48.22144" lon="-4.2246">
        <ele>268.83</ele>
        <time>2013-04-17T10:01:10Z</time>
      </trkpt>
      <trkpt lat="48.22149" lon="-4.22432">
        <ele>266.9</ele>
        <time>2013-04-17T10:01:28Z</time>
      </trkpt>
      <trkpt lat="48.22153" lon="-4.22418">
        <ele>267.38</ele>
        <time>2013-04-17T10:01:37Z</time>
      </trkpt>
      <trkpt lat="48.22153" lon="-4.22415">
        <ele>266.9</ele>
        <time>2013-04-17T10:01:39Z</time>
      </trkpt>
      <trkpt lat="48.22158" lon="-4.22403">
        <ele>265.46</ele>
        <time>2013-04-17T10:01:48Z</time>
      </trkpt>
      <trkpt lat="48.2216" lon="-4.22398">
        <ele>264.98</ele>
        <time>2013-04-17T10:01:52Z</time>
      </trkpt>
      <trkpt lat="48.22166" lon="-4.22382">
        <ele>265.46</ele>
        <time>2013-04-17T10:02:04Z</time>
      </trkpt>
      <trkpt lat="48.22176" lon="-4.22367">
        <ele>264.98</ele>
        <time>2013-04-17T10:02:18Z</time>
      </trkpt>
      <trkpt lat="48.22177" lon="-4.22364">
        <ele>264.02</ele>
        <time>2013-04-17T10:02:20Z</time>
      </trkpt>
      <trkpt lat="48.22187" lon="-4.22345">
        <ele>264.98</ele>
        <time>2013-04-17T10:02:35Z</time>
      </trkpt>
      <trkpt lat="48.22193" lon="-4.22331">
        <ele>264.98</ele>
        <time>2013-04-17T10:02:46Z</time>
      </trkpt>
      <trkpt lat="48.22195" lon="-4.22329">
        <ele>264.98</ele>
        <time>2013-04-17T10:02:48Z</time>
      </trkpt>
      <trkpt lat="48.22198" lon="-4.2232">
        <ele>264.98</ele>
        <time>2013-04-17T10:02:55Z</time>
      </trkpt>
      <trkpt lat="48.22206" lon="-4.22306">
        <ele>264.02</ele>
        <time>2013-04-17T10:03:07Z</time>
      </trkpt>
      <trkpt lat="48.22206" lon="-4.22303">
        <ele>264.02</ele>
        <time>2013-04-17T10:03:09Z</time>
      </trkpt>
      <trkpt lat="48.22208" lon="-4.22299">
        <ele>264.02</ele>
        <time>2013-04-17T10:03:12Z</time>
      </trkpt>
      <trkpt lat="48.22208" lon="-4.22297">
        <ele>264.02</ele>
        <time>2013-04-17T10:03:14Z</time>
      </trkpt>
      <trkpt lat="48.22209" lon="-4.2229">
        <ele>264.5</ele>
        <time>2013-04-17T10:03:19Z</time>
      </trkpt>
      <trkpt lat="48.22213" lon="-4.22272">
        <ele>265.46</ele>
        <time>2013-04-17T10:03:33Z</time>
      </trkpt>
      <trkpt lat="48.22215" lon="-4.22263">
        <ele>265.94</ele>
        <time>2013-04-17T10:03:41Z</time>
      </trkpt>
      <trkpt lat="48.22217" lon="-4.22258">
        <ele>264.02</ele>
        <time>2013-04-17T10:03:44Z</time>
      </trkpt>
      <trkpt lat="48.22218" lon="-4.22253">
        <ele>265.46</ele>
        <time>2013-04-17T10:03:48Z</time>
      </trkpt>
      <trkpt lat="48.22219" lon="-4.22249">
        <ele>266.9</ele>
        <time>2013-04-17T10:03:51Z</time>
      </trkpt>
      <trkpt lat="48.22221" lon="-4.22243">
        <ele>266.9</ele>
        <time>2013-04-17T10:03:55Z</time>
      </trkpt>
      <trkpt lat="48.22224" lon="-4.22235">
        <ele>266.42</ele>
        <time>2013-04-17T10:04:02Z</time>
      </trkpt>
      <trkpt lat="48.22225" lon="-4.2223">
        <ele>265.94</ele>
        <time>2013-04-17T10:04:05Z</time>
      </trkpt>
      <trkpt lat="48.2223" lon="-4.22209">
        <ele>265.94</ele>
        <time>2013-04-17T10:04:20Z</time>
      </trkpt>
      <trkpt lat="48.22236" lon="-4.22187">
        <ele>265.46</ele>
        <time>2013-04-17T10:04:35Z</time>
      </trkpt>
      <trkpt lat="48.22238" lon="-4.22183">
        <ele>264.98</ele>
        <time>2013-04-17T10:04:38Z</time>
      </trkpt>
      <trkpt lat="48.22245" lon="-4.22157">
        <ele>264.02</ele>
        <time>2013-04-17T10:04:55Z</time>
      </trkpt>
      <trkpt lat="48.22252" lon="-4.22139">
        <ele>264.98</ele>
        <time>2013-04-17T10:05:08Z</time>
      </trkpt>
      <trkpt lat="48.22258" lon="-4.2212">
        <ele>264.98</ele>
        <time>2013-04-17T10:05:22Z</time>
      </trkpt>
      <trkpt lat="48.22262" lon="-4.22108">
        <ele>264.98</ele>
        <time>2013-04-17T10:05:31Z</time>
      </trkpt>
      <trkpt lat="48.22263" lon="-4.22104">
        <ele>264.98</ele>
        <time>2013-04-17T10:05:34Z</time>
      </trkpt>
      <trkpt lat="48.22264" lon="-4.22102">
        <ele>265.46</ele>
        <time>2013-04-17T10:05:36Z</time>
      </trkpt>
      <trkpt lat="48.22266" lon="-4.22097">
        <ele>265.46</ele>
        <time>2013-04-17T10:05:40Z</time>
      </trkpt>
      <trkpt lat="48.2227" lon="-4.22083">
        <ele>264.02</ele>
        <time>2013-04-17T10:05:51Z</time>
      </trkpt>
      <trkpt lat="48.22272" lon="-4.22075">
        <ele>264.5</ele>
        <time>2013-04-17T10:05:57Z</time>
      </trkpt>
      <trkpt lat="48.22273" lon="-4.2207">
        <ele>265.46</ele>
        <time>2013-04-17T10:06:02Z</time>
      </trkpt>
      <trkpt lat="48.22279" lon="-4.22048">
        <ele>265.94</ele>
        <time>2013-04-17T10:06:17Z</time>
      </trkpt>
      <trkpt lat="48.22285" lon="-4.22036">
        <ele>265.46</ele>
        <time>2013-04-17T10:06:30Z</time>
      </trkpt>
      <trkpt lat="48.22292" lon="-4.22022">
        <ele>265.46</ele>
        <time>2013-04-17T10:06:42Z</time>
      </trkpt>
      <trkpt lat="48.22293" lon="-4.22018">
        <ele>265.46</ele>
        <time>2013-04-17T10:06:45Z</time>
      </trkpt>
      <trkpt lat="48.22295" lon="-4.22012">
        <ele>265.46</ele>
        <time>2013-04-17T10:06:49Z</time>
      </trkpt>
      <trkpt lat="48.22307" lon="-4.22004">
        <ele>264.98</ele>
        <time>2013-04-17T10:07:06Z</time>
      </trkpt>
      <trkpt lat="48.22312" lon="-4.21988">
        <ele>264.5</ele>
        <time>2013-04-17T10:07:21Z</time>
      </trkpt>
      <trkpt lat="48.22316" lon="-4.21981">
        <ele>263.54</ele>
        <time>2013-04-17T10:07:35Z</time>
      </trkpt>
      <trkpt lat="48.22323" lon="-4.21968">
        <ele>263.54</ele>
        <time>2013-04-17T10:07:51Z</time>
      </trkpt>
      <trkpt lat="48.22331" lon="-4.21955">
        <ele>260.65</ele>
        <time>2013-04-17T10:08:07Z</time>
      </trkpt>
      <trkpt lat="48.22339" lon="-4.21944">
        <ele>257.77</ele>
        <time>2013-04-17T10:08:22Z</time>
      </trkpt>
      <trkpt lat="48.22347" lon="-4.21932">
        <ele>255.85</ele>
        <time>2013-04-17T10:08:40Z</time>
      </trkpt>
      <trkpt lat="48.22352" lon="-4.21923">
        <ele>253.44</ele>
        <time>2013-04-17T10:08:54Z</time>
      </trkpt>
      <trkpt lat="48.22354" lon="-4.21923">
        <ele>252</ele>
        <time>2013-04-17T10:08:58Z</time>
      </trkpt>
      <trkpt lat="48.22362" lon="-4.2192">
        <ele>250.56</ele>
        <time>2013-04-17T10:09:13Z</time>
      </trkpt>
      <trkpt lat="48.22364" lon="-4.2192">
        <ele>250.08</ele>
        <time>2013-04-17T10:09:16Z</time>
      </trkpt>
      <trkpt lat="48.2237" lon="-4.21925">
        <ele>249.12</ele>
        <time>2013-04-17T10:09:31Z</time>
      </trkpt>
      <trkpt lat="48.22376" lon="-4.21925">
        <ele>247.68</ele>
        <time>2013-04-17T10:09:45Z</time>
      </trkpt>
      <trkpt lat="48.22378" lon="-4.21923">
        <ele>245.75</ele>
        <time>2013-04-17T10:09:57Z</time>
      </trkpt>
      <trkpt lat="48.22381" lon="-4.2192">
        <ele>244.79</ele>
        <time>2013-04-17T10:10:11Z</time>
      </trkpt>
      <trkpt lat="48.22385" lon="-4.21921">
        <ele>243.35</ele>
        <time>2013-04-17T10:10:25Z</time>
      </trkpt>
      <trkpt lat="48.22389" lon="-4.2192">
        <ele>241.43</ele>
        <time>2013-04-17T10:10:35Z</time>
      </trkpt>
      <trkpt lat="48.22394" lon="-4.21914">
        <ele>239.99</ele>
        <time>2013-04-17T10:10:53Z</time>
      </trkpt>
      <trkpt lat="48.22395" lon="-4.21912">
        <ele>239.51</ele>
        <time>2013-04-17T10:11:00Z</time>
      </trkpt>
      <trkpt lat="48.22395" lon="-4.21909">
        <ele>239.02</ele>
        <time>2013-04-17T10:11:02Z</time>
      </trkpt>
      <trkpt lat="48.22399" lon="-4.21902">
        <ele>238.54</ele>
        <time>2013-04-17T10:11:16Z</time>
      </trkpt>
      <trkpt lat="48.22401" lon="-4.21902">
        <ele>238.06</ele>
        <time>2013-04-17T10:11:36Z</time>
      </trkpt>
      <trkpt lat="48.22406" lon="-4.21897">
        <ele>235.66</ele>
        <time>2013-04-17T10:11:50Z</time>
      </trkpt>
      <trkpt lat="48.2241" lon="-4.21891">
        <ele>233.74</ele>
        <time>2013-04-17T10:12:03Z</time>
      </trkpt>
      <trkpt lat="48.22416" lon="-4.21892">
        <ele>232.78</ele>
        <time>2013-04-17T10:12:19Z</time>
      </trkpt>
      <trkpt lat="48.2242" lon="-4.2189">
        <ele>230.37</ele>
        <time>2013-04-17T10:12:37Z</time>
      </trkpt>
      <trkpt lat="48.22424" lon="-4.21885">
        <ele>228.93</ele>
        <time>2013-04-17T10:12:51Z</time>
      </trkpt>
      <trkpt lat="48.22425" lon="-4.21885">
        <ele>227.49</ele>
        <time>2013-04-17T10:13:21Z</time>
      </trkpt>
      <trkpt lat="48.22427" lon="-4.21886">
        <ele>227.49</ele>
        <time>2013-04-17T10:13:37Z</time>
      </trkpt>
      <trkpt lat="48.22432" lon="-4.21887">
        <ele>225.57</ele>
        <time>2013-04-17T10:13:54Z</time>
      </trkpt>
      <trkpt lat="48.22435" lon="-4.21881">
        <ele>223.64</ele>
        <time>2013-04-17T10:14:08Z</time>
      </trkpt>
      <trkpt lat="48.22441" lon="-4.21877">
        <ele>221.72</ele>
        <time>2013-04-17T10:14:23Z</time>
      </trkpt>
      <trkpt lat="48.22445" lon="-4.21878">
        <ele>219.8</ele>
        <time>2013-04-17T10:14:41Z</time>
      </trkpt>
      <trkpt lat="48.22446" lon="-4.21876">
        <ele>218.84</ele>
        <time>2013-04-17T10:15:00Z</time>
      </trkpt>
      <trkpt lat="48.22453" lon="-4.21876">
        <ele>217.4</ele>
        <time>2013-04-17T10:15:13Z</time>
      </trkpt>
      <trkpt lat="48.22457" lon="-4.21876">
        <ele>215.95</ele>
        <time>2013-04-17T10:15:26Z</time>
      </trkpt>
      <trkpt lat="48.22463" lon="-4.21876">
        <ele>213.55</ele>
        <time>2013-04-17T10:15:39Z</time>
      </trkpt>
      <trkpt lat="48.22471" lon="-4.21871">
        <ele>211.63</ele>
        <time>2013-04-17T10:15:55Z</time>
      </trkpt>
      <trkpt lat="48.22477" lon="-4.21866">
        <ele>210.19</ele>
        <time>2013-04-17T10:16:10Z</time>
      </trkpt>
      <trkpt lat="48.22479" lon="-4.21867">
        <ele>208.26</ele>
        <time>2013-04-17T10:16:23Z</time>
      </trkpt>
      <trkpt lat="48.22479" lon="-4.21867">
        <ele>207.3</ele>
        <time>2013-04-17T10:16:41Z</time>
      </trkpt>
      <trkpt lat="48.22485" lon="-4.21864">
        <ele>204.9</ele>
        <time>2013-04-17T10:16:56Z</time>
      </trkpt>
      <trkpt lat="48.22495" lon="-4.21856">
        <ele>203.46</ele>
        <time>2013-04-17T10:17:09Z</time>
      </trkpt>
      <trkpt lat="48.22511" lon="-4.21851">
        <ele>202.98</ele>
        <time>2013-04-17T10:17:24Z</time>
      </trkpt>
      <trkpt lat="48.22516" lon="-4.21853">
        <ele>202.49</ele>
        <time>2013-04-17T10:17:29Z</time>
      </trkpt>
      <trkpt lat="48.22526" lon="-4.21859">
        <ele>202.01</ele>
        <time>2013-04-17T10:17:42Z</time>
      </trkpt>
      <trkpt lat="48.22535" lon="-4.21857">
        <ele>200.09</ele>
        <time>2013-04-17T10:17:57Z</time>
      </trkpt>
      <trkpt lat="48.22537" lon="-4.21861">
        <ele>199.61</ele>
        <time>2013-04-17T10:18:13Z</time>
      </trkpt>
      <trkpt lat="48.22537" lon="-4.21861">
        <ele>200.09</ele>
        <time>2013-04-17T10:18:29Z</time>
      </trkpt>
      <trkpt lat="48.22537" lon="-4.21862">
        <ele>200.09</ele>
        <time>2013-04-17T10:19:35Z</time>
      </trkpt>
      <trkpt lat="48.22537" lon="-4.21862">
        <ele>199.13</ele>
        <time>2013-04-17T10:20:11Z</time>
      </trkpt>
      <trkpt lat="48.22539" lon="-4.21866">
        <ele>202.01</ele>
        <time>2013-04-17T10:29:59Z</time>
      </trkpt>
      <trkpt lat="48.22539" lon="-4.21866">
        <ele>201.53</ele>
        <time>2013-04-17T11:01:05Z</time>
      </trkpt>
      <trkpt lat="48.22538" lon="-4.21867">
        <ele>200.57</ele>
        <time>2013-04-17T11:01:26Z</time>
      </trkpt>
      <trkpt lat="48.22539" lon="-4.21863">
        <ele>201.53</ele>
        <time>2013-04-17T11:02:05Z</time>
      </trkpt>
      <trkpt lat="48.22538" lon="-4.21866">
        <ele>201.53</ele>
        <time>2013-04-17T11:02:20Z</time>
      </trkpt>
      <trkpt lat="48.22538" lon="-4.21866">
        <ele>201.53</ele>
        <time>2013-04-17T11:02:37Z</time>
      </trkpt>
      <trkpt lat="48.22538" lon="-4.21864">
        <ele>200.57</ele>
        <time>2013-04-17T11:02:55Z</time>
      </trkpt>
      <trkpt lat="48.22538" lon="-4.21856">
        <ele>201.05</ele>
        <time>2013-04-17T11:03:09Z</time>
      </trkpt>
      <trkpt lat="48.22537" lon="-4.21853">
        <ele>201.53</ele>
        <time>2013-04-17T11:03:25Z</time>
      </trkpt>
      <trkpt lat="48.22537" lon="-4.21852">
        <ele>201.53</ele>
        <time>2013-04-17T11:04:01Z</time>
      </trkpt>
      <trkpt lat="48.22537" lon="-4.21852">
        <ele>200.57</ele>
        <time>2013-04-17T11:04:16Z</time>
      </trkpt>
      <trkpt lat="48.22537" lon="-4.21852">
        <ele>202.49</ele>
        <time>2013-04-17T11:04:31Z</time>
      </trkpt>
      <trkpt lat="48.22536" lon="-4.21852">
        <ele>201.53</ele>
        <time>2013-04-17T11:05:29Z</time>
      </trkpt>
      <trkpt lat="48.22536" lon="-4.21852">
        <ele>200.09</ele>
        <time>2013-04-17T11:07:05Z</time>
      </trkpt>
      <trkpt lat="48.22536" lon="-4.21853">
        <ele>200.57</ele>
        <time>2013-04-17T11:09:12Z</time>
      </trkpt>
      <trkpt lat="48.22537" lon="-4.21853">
        <ele>202.01</ele>
        <time>2013-04-17T11:09:28Z</time>
      </trkpt>
      <trkpt lat="48.22535" lon="-4.21842">
        <ele>200.57</ele>
        <time>2013-04-17T11:09:43Z</time>
      </trkpt>
      <trkpt lat="48.22534" lon="-4.21836">
        <ele>202.49</ele>
        <time>2013-04-17T11:09:48Z</time>
      </trkpt>
      <trkpt lat="48.22533" lon="-4.21827">
        <ele>201.05</ele>
        <time>2013-04-17T11:09:54Z</time>
      </trkpt>
      <trkpt lat="48.2253" lon="-4.21812">
        <ele>200.09</ele>
        <time>2013-04-17T11:10:04Z</time>
      </trkpt>
      <trkpt lat="48.2253" lon="-4.21803">
        <ele>199.61</ele>
        <time>2013-04-17T11:10:09Z</time>
      </trkpt>
      <trkpt lat="48.22527" lon="-4.21781">
        <ele>198.17</ele>
        <time>2013-04-17T11:10:23Z</time>
      </trkpt>
      <trkpt lat="48.22526" lon="-4.21777">
        <ele>200.09</ele>
        <time>2013-04-17T11:10:26Z</time>
      </trkpt>
      <trkpt lat="48.22524" lon="-4.21758">
        <ele>198.17</ele>
        <time>2013-04-17T11:10:41Z</time>
      </trkpt>
      <trkpt lat="48.22524" lon="-4.21753">
        <ele>198.17</ele>
        <time>2013-04-17T11:10:44Z</time>
      </trkpt>
      <trkpt lat="48.22522" lon="-4.21727">
        <ele>196.25</ele>
        <time>2013-04-17T11:11:01Z</time>
      </trkpt>
      <trkpt lat="48.22522" lon="-4.21723">
        <ele>195.77</ele>
        <time>2013-04-17T11:11:04Z</time>
      </trkpt>
      <trkpt lat="48.22519" lon="-4.21696">
        <ele>192.88</ele>
        <time>2013-04-17T11:11:22Z</time>
      </trkpt>
      <trkpt lat="48.22516" lon="-4.2167">
        <ele>190.96</ele>
        <time>2013-04-17T11:11:39Z</time>
      </trkpt>
      <trkpt lat="48.22514" lon="-4.21661">
        <ele>189.04</ele>
        <time>2013-04-17T11:11:47Z</time>
      </trkpt>
      <trkpt lat="48.22514" lon="-4.21657">
        <ele>189.04</ele>
        <time>2013-04-17T11:11:50Z</time>
      </trkpt>
      <trkpt lat="48.22512" lon="-4.21646">
        <ele>188.56</ele>
        <time>2013-04-17T11:11:59Z</time>
      </trkpt>
      <trkpt lat="48.22511" lon="-4.21634">
        <ele>188.56</ele>
        <time>2013-04-17T11:12:09Z</time>
      </trkpt>
      <trkpt lat="48.22511" lon="-4.21619">
        <ele>187.11</ele>
        <time>2013-04-17T11:12:20Z</time>
      </trkpt>
      <trkpt lat="48.2251" lon="-4.21604">
        <ele>183.75</ele>
        <time>2013-04-17T11:12:29Z</time>
      </trkpt>
      <trkpt lat="48.2251" lon="-4.21603">
        <ele>183.75</ele>
        <time>2013-04-17T11:12:30Z</time>
      </trkpt>
      <trkpt lat="48.22505" lon="-4.2159">
        <ele>183.75</ele>
        <time>2013-04-17T11:12:39Z</time>
      </trkpt>
      <trkpt lat="48.22504" lon="-4.21586">
        <ele>183.75</ele>
        <time>2013-04-17T11:12:42Z</time>
      </trkpt>
      <trkpt lat="48.22503" lon="-4.21579">
        <ele>182.31</ele>
        <time>2013-04-17T11:12:48Z</time>
      </trkpt>
      <trkpt lat="48.22501" lon="-4.21564">
        <ele>180.38</ele>
        <time>2013-04-17T11:13:03Z</time>
      </trkpt>
      <trkpt lat="48.225" lon="-4.21546">
        <ele>180.38</ele>
        <time>2013-04-17T11:13:17Z</time>
      </trkpt>
      <trkpt lat="48.22499" lon="-4.21518">
        <ele>179.9</ele>
        <time>2013-04-17T11:13:34Z</time>
      </trkpt>
      <trkpt lat="48.22499" lon="-4.21516">
        <ele>180.38</ele>
        <time>2013-04-17T11:13:35Z</time>
      </trkpt>
      <trkpt lat="48.22498" lon="-4.21501">
        <ele>178.46</ele>
        <time>2013-04-17T11:13:46Z</time>
      </trkpt>
      <trkpt lat="48.22498" lon="-4.21498">
        <ele>177.98</ele>
        <time>2013-04-17T11:13:48Z</time>
      </trkpt>
      <trkpt lat="48.22497" lon="-4.21495">
        <ele>177.98</ele>
        <time>2013-04-17T11:13:50Z</time>
      </trkpt>
      <trkpt lat="48.22495" lon="-4.21484">
        <ele>177.02</ele>
        <time>2013-04-17T11:13:57Z</time>
      </trkpt>
      <trkpt lat="48.22493" lon="-4.21463">
        <ele>175.1</ele>
        <time>2013-04-17T11:14:13Z</time>
      </trkpt>
      <trkpt lat="48.22491" lon="-4.21453">
        <ele>174.14</ele>
        <time>2013-04-17T11:14:20Z</time>
      </trkpt>
      <trkpt lat="48.2249" lon="-4.21435">
        <ele>173.17</ele>
        <time>2013-04-17T11:14:33Z</time>
      </trkpt>
      <trkpt lat="48.22487" lon="-4.2141">
        <ele>169.81</ele>
        <time>2013-04-17T11:14:48Z</time>
      </trkpt>
      <trkpt lat="48.22487" lon="-4.21408">
        <ele>169.33</ele>
        <time>2013-04-17T11:14:49Z</time>
      </trkpt>
      <trkpt lat="48.22486" lon="-4.21403">
        <ele>169.81</ele>
        <time>2013-04-17T11:14:53Z</time>
      </trkpt>
      <trkpt lat="48.22484" lon="-4.21371">
        <ele>168.37</ele>
        <time>2013-04-17T11:15:12Z</time>
      </trkpt>
      <trkpt lat="48.22484" lon="-4.2137">
        <ele>167.89</ele>
        <time>2013-04-17T11:15:13Z</time>
      </trkpt>
      <trkpt lat="48.22482" lon="-4.21353">
        <ele>167.89</ele>
        <time>2013-04-17T11:15:24Z</time>
      </trkpt>
      <trkpt lat="48.22479" lon="-4.21332">
        <ele>165.48</ele>
        <time>2013-04-17T11:15:38Z</time>
      </trkpt>
      <trkpt lat="48.22482" lon="-4.21324">
        <ele>165.96</ele>
        <time>2013-04-17T11:15:49Z</time>
      </trkpt>
      <trkpt lat="48.22499" lon="-4.21319">
        <ele>164.52</ele>
        <time>2013-04-17T11:16:06Z</time>
      </trkpt>
      <trkpt lat="48.22514" lon="-4.21317">
        <ele>164.04</ele>
        <time>2013-04-17T11:16:21Z</time>
      </trkpt>
      <trkpt lat="48.22528" lon="-4.21316">
        <ele>163.56</ele>
        <time>2013-04-17T11:16:36Z</time>
      </trkpt>
      <trkpt lat="48.22543" lon="-4.21314">
        <ele>162.6</ele>
        <time>2013-04-17T11:16:51Z</time>
      </trkpt>
      <trkpt lat="48.22546" lon="-4.21315">
        <ele>162.6</ele>
        <time>2013-04-17T11:16:54Z</time>
      </trkpt>
      <trkpt lat="48.22553" lon="-4.21314">
        <ele>162.12</ele>
        <time>2013-04-17T11:17:01Z</time>
      </trkpt>
      <trkpt lat="48.2257" lon="-4.21317">
        <ele>161.16</ele>
        <time>2013-04-17T11:17:16Z</time>
      </trkpt>
      <trkpt lat="48.22581" lon="-4.21311">
        <ele>160.68</ele>
        <time>2013-04-17T11:17:27Z</time>
      </trkpt>
      <trkpt lat="48.22594" lon="-4.21304">
        <ele>159.24</ele>
        <time>2013-04-17T11:17:41Z</time>
      </trkpt>
      <trkpt lat="48.22604" lon="-4.21297">
        <ele>158.27</ele>
        <time>2013-04-17T11:17:57Z</time>
      </trkpt>
      <trkpt lat="48.22618" lon="-4.21293">
        <ele>156.35</ele>
        <time>2013-04-17T11:18:12Z</time>
      </trkpt>
      <trkpt lat="48.22634" lon="-4.21285">
        <ele>155.39</ele>
        <time>2013-04-17T11:18:27Z</time>
      </trkpt>
      <trkpt lat="48.22637" lon="-4.21283">
        <ele>155.39</ele>
        <time>2013-04-17T11:18:29Z</time>
      </trkpt>
      <trkpt lat="48.22653" lon="-4.21273">
        <ele>154.43</ele>
        <time>2013-04-17T11:18:45Z</time>
      </trkpt>
      <trkpt lat="48.22654" lon="-4.21269">
        <ele>154.91</ele>
        <time>2013-04-17T11:18:49Z</time>
      </trkpt>
      <trkpt lat="48.22658" lon="-4.21251">
        <ele>152.51</ele>
        <time>2013-04-17T11:19:04Z</time>
      </trkpt>
      <trkpt lat="48.22659" lon="-4.21233">
        <ele>150.1</ele>
        <time>2013-04-17T11:19:19Z</time>
      </trkpt>
      <trkpt lat="48.22656" lon="-4.21212">
        <ele>149.14</ele>
        <time>2013-04-17T11:19:36Z</time>
      </trkpt>
      <trkpt lat="48.22653" lon="-4.21196">
        <ele>148.18</ele>
        <time>2013-04-17T11:19:48Z</time>
      </trkpt>
      <trkpt lat="48.22648" lon="-4.21176">
        <ele>146.26</ele>
        <time>2013-04-17T11:20:05Z</time>
      </trkpt>
      <trkpt lat="48.22647" lon="-4.21169">
        <ele>146.26</ele>
        <time>2013-04-17T11:20:11Z</time>
      </trkpt>
      <trkpt lat="48.22645" lon="-4.2115">
        <ele>144.34</ele>
        <time>2013-04-17T11:20:28Z</time>
      </trkpt>
      <trkpt lat="48.22642" lon="-4.21137">
        <ele>143.85</ele>
        <time>2013-04-17T11:20:43Z</time>
      </trkpt>
      <trkpt lat="48.22642" lon="-4.21137">
        <ele>143.37</ele>
        <time>2013-04-17T11:21:34Z</time>
      </trkpt>
      <trkpt lat="48.22642" lon="-4.21139">
        <ele>143.37</ele>
        <time>2013-04-17T11:22:05Z</time>
      </trkpt>
      <trkpt lat="48.22642" lon="-4.21139">
        <ele>143.37</ele>
        <time>2013-04-17T11:22:06Z</time>
      </trkpt>
      <trkpt lat="48.22646" lon="-4.21135">
        <ele>142.41</ele>
        <time>2013-04-17T11:22:14Z</time>
      </trkpt>
      <trkpt lat="48.22662" lon="-4.21128">
        <ele>140.49</ele>
        <time>2013-04-17T11:22:30Z</time>
      </trkpt>
      <trkpt lat="48.22663" lon="-4.21127">
        <ele>140.49</ele>
        <time>2013-04-17T11:22:31Z</time>
      </trkpt>
      <trkpt lat="48.22664" lon="-4.21125">
        <ele>140.01</ele>
        <time>2013-04-17T11:22:49Z</time>
      </trkpt>
      <trkpt lat="48.22672" lon="-4.2112">
        <ele>138.57</ele>
        <time>2013-04-17T11:23:07Z</time>
      </trkpt>
      <trkpt lat="48.22673" lon="-4.21119">
        <ele>138.09</ele>
        <time>2013-04-17T11:23:09Z</time>
      </trkpt>
      <trkpt lat="48.2268" lon="-4.21116">
        <ele>137.61</ele>
        <time>2013-04-17T11:23:15Z</time>
      </trkpt>
      <trkpt lat="48.22694" lon="-4.21118">
        <ele>136.64</ele>
        <time>2013-04-17T11:23:32Z</time>
      </trkpt>
      <trkpt lat="48.22706" lon="-4.21118">
        <ele>134.24</ele>
        <time>2013-04-17T11:23:45Z</time>
      </trkpt>
      <trkpt lat="48.22708" lon="-4.21117">
        <ele>134.24</ele>
        <time>2013-04-17T11:23:46Z</time>
      </trkpt>
      <trkpt lat="48.22722" lon="-4.21114">
        <ele>132.8</ele>
        <time>2013-04-17T11:23:58Z</time>
      </trkpt>
      <trkpt lat="48.22738" lon="-4.21111">
        <ele>132.32</ele>
        <time>2013-04-17T11:24:13Z</time>
      </trkpt>
      <trkpt lat="48.22757" lon="-4.21108">
        <ele>129.92</ele>
        <time>2013-04-17T11:24:28Z</time>
      </trkpt>
      <trkpt lat="48.22766" lon="-4.21103">
        <ele>129.43</ele>
        <time>2013-04-17T11:24:33Z</time>
      </trkpt>
      <trkpt lat="48.2278" lon="-4.21097">
        <ele>128.95</ele>
        <time>2013-04-17T11:24:43Z</time>
      </trkpt>
      <trkpt lat="48.22791" lon="-4.21095">
        <ele>128.47</ele>
        <time>2013-04-17T11:24:51Z</time>
      </trkpt>
      <trkpt lat="48.228" lon="-4.21092">
        <ele>127.03</ele>
        <time>2013-04-17T11:24:59Z</time>
      </trkpt>
      <trkpt lat="48.22819" lon="-4.21089">
        <ele>127.51</ele>
        <time>2013-04-17T11:25:14Z</time>
      </trkpt>
      <trkpt lat="48.22833" lon="-4.21089">
        <ele>124.63</ele>
        <time>2013-04-17T11:25:25Z</time>
      </trkpt>
      <trkpt lat="48.22848" lon="-4.21088">
        <ele>122.22</ele>
        <time>2013-04-17T11:25:40Z</time>
      </trkpt>
      <trkpt lat="48.22855" lon="-4.21088">
        <ele>120.78</ele>
        <time>2013-04-17T11:25:46Z</time>
      </trkpt>
      <trkpt lat="48.22862" lon="-4.21088">
        <ele>119.82</ele>
        <time>2013-04-17T11:25:55Z</time>
      </trkpt>
      <trkpt lat="48.22866" lon="-4.2109">
        <ele>118.86</ele>
        <time>2013-04-17T11:25:59Z</time>
      </trkpt>
      <trkpt lat="48.22881" lon="-4.21089">
        <ele>115.5</ele>
        <time>2013-04-17T11:26:14Z</time>
      </trkpt>
      <trkpt lat="48.22881" lon="-4.21089">
        <ele>115.5</ele>
        <time>2013-04-17T11:26:15Z</time>
      </trkpt>
      <trkpt lat="48.22885" lon="-4.21089">
        <ele>114.53</ele>
        <time>2013-04-17T11:26:21Z</time>
      </trkpt>
      <trkpt lat="48.22887" lon="-4.21088">
        <ele>114.53</ele>
        <time>2013-04-17T11:26:23Z</time>
      </trkpt>
      <trkpt lat="48.22906" lon="-4.21086">
        <ele>111.65</ele>
        <time>2013-04-17T11:26:38Z</time>
      </trkpt>
      <trkpt lat="48.22922" lon="-4.21086">
        <ele>108.29</ele>
        <time>2013-04-17T11:26:55Z</time>
      </trkpt>
      <trkpt lat="48.22925" lon="-4.21082">
        <ele>108.29</ele>
        <time>2013-04-17T11:26:58Z</time>
      </trkpt>
      <trkpt lat="48.22937" lon="-4.21074">
        <ele>107.32</ele>
        <time>2013-04-17T11:27:06Z</time>
      </trkpt>
      <trkpt lat="48.22946" lon="-4.21071">
        <ele>105.88</ele>
        <time>2013-04-17T11:27:13Z</time>
      </trkpt>
      <trkpt lat="48.22951" lon="-4.2107">
        <ele>105.4</ele>
        <time>2013-04-17T11:27:17Z</time>
      </trkpt>
      <trkpt lat="48.22957" lon="-4.2107">
        <ele>104.44</ele>
        <time>2013-04-17T11:27:21Z</time>
      </trkpt>
      <trkpt lat="48.2296" lon="-4.2107">
        <ele>103.48</ele>
        <time>2013-04-17T11:27:24Z</time>
      </trkpt>
      <trkpt lat="48.2297" lon="-4.21066">
        <ele>102.04</ele>
        <time>2013-04-17T11:27:33Z</time>
      </trkpt>
      <trkpt lat="48.22974" lon="-4.21063">
        <ele>101.08</ele>
        <time>2013-04-17T11:27:37Z</time>
      </trkpt>
      <trkpt lat="48.22979" lon="-4.21061">
        <ele>99.15</ele>
        <time>2013-04-17T11:27:41Z</time>
      </trkpt>
      <trkpt lat="48.22981" lon="-4.21058">
        <ele>98.67</ele>
        <time>2013-04-17T11:27:44Z</time>
      </trkpt>
      <trkpt lat="48.22987" lon="-4.21056">
        <ele>97.71</ele>
        <time>2013-04-17T11:27:49Z</time>
      </trkpt>
      <trkpt lat="48.22998" lon="-4.21054">
        <ele>97.23</ele>
        <time>2013-04-17T11:27:59Z</time>
      </trkpt>
      <trkpt lat="48.23001" lon="-4.21054">
        <ele>96.75</ele>
        <time>2013-04-17T11:28:03Z</time>
      </trkpt>
      <trkpt lat="48.23006" lon="-4.21052">
        <ele>96.27</ele>
        <time>2013-04-17T11:28:07Z</time>
      </trkpt>
      <trkpt lat="48.23012" lon="-4.21053">
        <ele>95.79</ele>
        <time>2013-04-17T11:28:11Z</time>
      </trkpt>
      <trkpt lat="48.23017" lon="-4.21053">
        <ele>95.31</ele>
        <time>2013-04-17T11:28:16Z</time>
      </trkpt>
      <trkpt lat="48.23033" lon="-4.21051">
        <ele>92.9</ele>
        <time>2013-04-17T11:28:29Z</time>
      </trkpt>
      <trkpt lat="48.23042" lon="-4.21046">
        <ele>91.94</ele>
        <time>2013-04-17T11:28:37Z</time>
      </trkpt>
      <trkpt lat="48.23043" lon="-4.21045">
        <ele>91.46</ele>
        <time>2013-04-17T11:28:39Z</time>
      </trkpt>
      <trkpt lat="48.23054" lon="-4.21042">
        <ele>90.5</ele>
        <time>2013-04-17T11:28:49Z</time>
      </trkpt>
      <trkpt lat="48.23072" lon="-4.21041">
        <ele>88.58</ele>
        <time>2013-04-17T11:29:07Z</time>
      </trkpt>
      <trkpt lat="48.23079" lon="-4.2104">
        <ele>86.66</ele>
        <time>2013-04-17T11:29:13Z</time>
      </trkpt>
      <trkpt lat="48.23086" lon="-4.21044">
        <ele>86.18</ele>
        <time>2013-04-17T11:29:19Z</time>
      </trkpt>
      <trkpt lat="48.23093" lon="-4.21045">
        <ele>85.21</ele>
        <time>2013-04-17T11:29:25Z</time>
      </trkpt>
      <trkpt lat="48.23098" lon="-4.21047">
        <ele>84.25</ele>
        <time>2013-04-17T11:29:30Z</time>
      </trkpt>
      <trkpt lat="48.23114" lon="-4.21049">
        <ele>81.85</ele>
        <time>2013-04-17T11:29:45Z</time>
      </trkpt>
      <trkpt lat="48.23119" lon="-4.21049">
        <ele>80.89</ele>
        <time>2013-04-17T11:29:50Z</time>
      </trkpt>
      <trkpt lat="48.23133" lon="-4.21045">
        <ele>79.45</ele>
        <time>2013-04-17T11:30:04Z</time>
      </trkpt>
      <trkpt lat="48.23134" lon="-4.21045">
        <ele>79.45</ele>
        <time>2013-04-17T11:30:05Z</time>
      </trkpt>
      <trkpt lat="48.23138" lon="-4.21048">
        <ele>78.97</ele>
        <time>2013-04-17T11:30:10Z</time>
      </trkpt>
      <trkpt lat="48.23143" lon="-4.21054">
        <ele>78.48</ele>
        <time>2013-04-17T11:30:18Z</time>
      </trkpt>
      <trkpt lat="48.23144" lon="-4.21058">
        <ele>78.48</ele>
        <time>2013-04-17T11:30:21Z</time>
      </trkpt>
      <trkpt lat="48.23149" lon="-4.21064">
        <ele>78.97</ele>
        <time>2013-04-17T11:30:27Z</time>
      </trkpt>
      <trkpt lat="48.23162" lon="-4.21079">
        <ele>78.48</ele>
        <time>2013-04-17T11:30:41Z</time>
      </trkpt>
      <trkpt lat="48.23172" lon="-4.2109">
        <ele>78</ele>
        <time>2013-04-17T11:30:52Z</time>
      </trkpt>
      <trkpt lat="48.23185" lon="-4.21109">
        <ele>77.52</ele>
        <time>2013-04-17T11:31:08Z</time>
      </trkpt>
      <trkpt lat="48.23186" lon="-4.2111">
        <ele>77.04</ele>
        <time>2013-04-17T11:31:10Z</time>
      </trkpt>
      <trkpt lat="48.23196" lon="-4.21119">
        <ele>77.04</ele>
        <time>2013-04-17T11:31:19Z</time>
      </trkpt>
      <trkpt lat="48.23206" lon="-4.21132">
        <ele>76.56</ele>
        <time>2013-04-17T11:31:31Z</time>
      </trkpt>
      <trkpt lat="48.23219" lon="-4.21138">
        <ele>76.08</ele>
        <time>2013-04-17T11:31:46Z</time>
      </trkpt>
      <trkpt lat="48.23226" lon="-4.21141">
        <ele>75.6</ele>
        <time>2013-04-17T11:31:50Z</time>
      </trkpt>
      <trkpt lat="48.23248" lon="-4.21142">
        <ele>75.12</ele>
        <time>2013-04-17T11:32:05Z</time>
      </trkpt>
      <trkpt lat="48.23264" lon="-4.2114">
        <ele>75.6</ele>
        <time>2013-04-17T11:32:18Z</time>
      </trkpt>
      <trkpt lat="48.23286" lon="-4.21135">
        <ele>75.6</ele>
        <time>2013-04-17T11:32:37Z</time>
      </trkpt>
      <trkpt lat="48.23303" lon="-4.21133">
        <ele>76.08</ele>
        <time>2013-04-17T11:32:51Z</time>
      </trkpt>
      <trkpt lat="48.2332" lon="-4.21132">
        <ele>76.08</ele>
        <time>2013-04-17T11:33:05Z</time>
      </trkpt>
      <trkpt lat="48.23333" lon="-4.21133">
        <ele>77.52</ele>
        <time>2013-04-17T11:33:16Z</time>
      </trkpt>
      <trkpt lat="48.23338" lon="-4.21135">
        <ele>78</ele>
        <time>2013-04-17T11:33:20Z</time>
      </trkpt>
      <trkpt lat="48.23347" lon="-4.21136">
        <ele>78</ele>
        <time>2013-04-17T11:33:28Z</time>
      </trkpt>
      <trkpt lat="48.23349" lon="-4.21137">
        <ele>78.48</ele>
        <time>2013-04-17T11:33:30Z</time>
      </trkpt>
      <trkpt lat="48.2337" lon="-4.21145">
        <ele>78.48</ele>
        <time>2013-04-17T11:33:47Z</time>
      </trkpt>
      <trkpt lat="48.23388" lon="-4.21154">
        <ele>78.97</ele>
        <time>2013-04-17T11:34:02Z</time>
      </trkpt>
      <trkpt lat="48.23398" lon="-4.2116">
        <ele>78.48</ele>
        <time>2013-04-17T11:34:11Z</time>
      </trkpt>
      <trkpt lat="48.23403" lon="-4.21162">
        <ele>78.48</ele>
        <time>2013-04-17T11:34:15Z</time>
      </trkpt>
      <trkpt lat="48.2342" lon="-4.21175">
        <ele>78.48</ele>
        <time>2013-04-17T11:34:33Z</time>
      </trkpt>
      <trkpt lat="48.23425" lon="-4.21193">
        <ele>78</ele>
        <time>2013-04-17T11:34:48Z</time>
      </trkpt>
      <trkpt lat="48.23426" lon="-4.21205">
        <ele>78.97</ele>
        <time>2013-04-17T11:34:56Z</time>
      </trkpt>
      <trkpt lat="48.23427" lon="-4.21208">
        <ele>78.97</ele>
        <time>2013-04-17T11:34:58Z</time>
      </trkpt>
      <trkpt lat="48.23431" lon="-4.21234">
        <ele>80.41</ele>
        <time>2013-04-17T11:35:14Z</time>
      </trkpt>
      <trkpt lat="48.23432" lon="-4.21251">
        <ele>81.85</ele>
        <time>2013-04-17T11:35:24Z</time>
      </trkpt>
      <trkpt lat="48.23431" lon="-4.21262">
        <ele>80.89</ele>
        <time>2013-04-17T11:35:32Z</time>
      </trkpt>
      <trkpt lat="48.23431" lon="-4.21267">
        <ele>81.37</ele>
        <time>2013-04-17T11:35:35Z</time>
      </trkpt>
      <trkpt lat="48.23431" lon="-4.21274">
        <ele>81.37</ele>
        <time>2013-04-17T11:35:39Z</time>
      </trkpt>
      <trkpt lat="48.23431" lon="-4.21277">
        <ele>81.85</ele>
        <time>2013-04-17T11:35:41Z</time>
      </trkpt>
      <trkpt lat="48.2343" lon="-4.21284">
        <ele>82.33</ele>
        <time>2013-04-17T11:35:46Z</time>
      </trkpt>
      <trkpt lat="48.23429" lon="-4.21294">
        <ele>82.33</ele>
        <time>2013-04-17T11:35:52Z</time>
      </trkpt>
      <trkpt lat="48.23428" lon="-4.213">
        <ele>81.85</ele>
        <time>2013-04-17T11:35:56Z</time>
      </trkpt>
      <trkpt lat="48.2342" lon="-4.21329">
        <ele>83.29</ele>
        <time>2013-04-17T11:36:14Z</time>
      </trkpt>
      <trkpt lat="48.2342" lon="-4.21331">
        <ele>82.33</ele>
        <time>2013-04-17T11:36:16Z</time>
      </trkpt>
      <trkpt lat="48.23415" lon="-4.21352">
        <ele>84.73</ele>
        <time>2013-04-17T11:36:30Z</time>
      </trkpt>
      <trkpt lat="48.23409" lon="-4.21373">
        <ele>82.81</ele>
        <time>2013-04-17T11:36:45Z</time>
      </trkpt>
      <trkpt lat="48.23407" lon="-4.21376">
        <ele>82.33</ele>
        <time>2013-04-17T11:36:47Z</time>
      </trkpt>
      <trkpt lat="48.23406" lon="-4.21381">
        <ele>83.77</ele>
        <time>2013-04-17T11:36:50Z</time>
      </trkpt>
      <trkpt lat="48.23405" lon="-4.21382">
        <ele>83.77</ele>
        <time>2013-04-17T11:36:51Z</time>
      </trkpt>
      <trkpt lat="48.23402" lon="-4.2139">
        <ele>85.21</ele>
        <time>2013-04-17T11:36:57Z</time>
      </trkpt>
      <trkpt lat="48.23402" lon="-4.21393">
        <ele>85.69</ele>
        <time>2013-04-17T11:36:59Z</time>
      </trkpt>
      <trkpt lat="48.23398" lon="-4.21404">
        <ele>85.69</ele>
        <time>2013-04-17T11:37:07Z</time>
      </trkpt>
      <trkpt lat="48.23395" lon="-4.2141">
        <ele>86.18</ele>
        <time>2013-04-17T11:37:12Z</time>
      </trkpt>
      <trkpt lat="48.23394" lon="-4.21412">
        <ele>85.69</ele>
        <time>2013-04-17T11:37:14Z</time>
      </trkpt>
      <trkpt lat="48.23389" lon="-4.21423">
        <ele>85.21</ele>
        <time>2013-04-17T11:37:23Z</time>
      </trkpt>
      <trkpt lat="48.23388" lon="-4.21426">
        <ele>85.69</ele>
        <time>2013-04-17T11:37:25Z</time>
      </trkpt>
      <trkpt lat="48.23381" lon="-4.21437">
        <ele>86.18</ele>
        <time>2013-04-17T11:37:35Z</time>
      </trkpt>
      <trkpt lat="48.23372" lon="-4.21457">
        <ele>86.66</ele>
        <time>2013-04-17T11:37:49Z</time>
      </trkpt>
      <trkpt lat="48.23367" lon="-4.21474">
        <ele>86.18</ele>
        <time>2013-04-17T11:37:59Z</time>
      </trkpt>
      <trkpt lat="48.23367" lon="-4.21478">
        <ele>86.66</ele>
        <time>2013-04-17T11:38:01Z</time>
      </trkpt>
      <trkpt lat="48.23367" lon="-4.21486">
        <ele>84.73</ele>
        <time>2013-04-17T11:38:06Z</time>
      </trkpt>
      <trkpt lat="48.23362" lon="-4.21515">
        <ele>87.14</ele>
        <time>2013-04-17T11:38:24Z</time>
      </trkpt>
      <trkpt lat="48.23361" lon="-4.21521">
        <ele>86.66</ele>
        <time>2013-04-17T11:38:28Z</time>
      </trkpt>
      <trkpt lat="48.23359" lon="-4.2155">
        <ele>86.66</ele>
        <time>2013-04-17T11:38:45Z</time>
      </trkpt>
      <trkpt lat="48.23358" lon="-4.21562">
        <ele>86.18</ele>
        <time>2013-04-17T11:38:52Z</time>
      </trkpt>
      <trkpt lat="48.23358" lon="-4.21588">
        <ele>86.18</ele>
        <time>2013-04-17T11:39:08Z</time>
      </trkpt>
      <trkpt lat="48.23362" lon="-4.21594">
        <ele>85.69</ele>
        <time>2013-04-17T11:39:13Z</time>
      </trkpt>
      <trkpt lat="48.23373" lon="-4.21596">
        <ele>85.21</ele>
        <time>2013-04-17T11:39:23Z</time>
      </trkpt>
      <trkpt lat="48.23376" lon="-4.21596">
        <ele>85.21</ele>
        <time>2013-04-17T11:39:27Z</time>
      </trkpt>
      <trkpt lat="48.23385" lon="-4.216">
        <ele>84.25</ele>
        <time>2013-04-17T11:39:38Z</time>
      </trkpt>
      <trkpt lat="48.23389" lon="-4.216">
        <ele>84.25</ele>
        <time>2013-04-17T11:39:42Z</time>
      </trkpt>
      <trkpt lat="48.23411" lon="-4.21604">
        <ele>82.81</ele>
        <time>2013-04-17T11:40:02Z</time>
      </trkpt>
      <trkpt lat="48.23431" lon="-4.21609">
        <ele>80.89</ele>
        <time>2013-04-17T11:40:19Z</time>
      </trkpt>
      <trkpt lat="48.23452" lon="-4.21604">
        <ele>79.45</ele>
        <time>2013-04-17T11:40:37Z</time>
      </trkpt>
      <trkpt lat="48.23454" lon="-4.21602">
        <ele>79.45</ele>
        <time>2013-04-17T11:40:39Z</time>
      </trkpt>
      <trkpt lat="48.23462" lon="-4.21586">
        <ele>78.97</ele>
        <time>2013-04-17T11:40:50Z</time>
      </trkpt>
      <trkpt lat="48.23473" lon="-4.21559">
        <ele>79.45</ele>
        <time>2013-04-17T11:41:08Z</time>
      </trkpt>
      <trkpt lat="48.23482" lon="-4.21528">
        <ele>78.97</ele>
        <time>2013-04-17T11:41:27Z</time>
      </trkpt>
      <trkpt lat="48.23484" lon="-4.21521">
        <ele>78.97</ele>
        <time>2013-04-17T11:41:31Z</time>
      </trkpt>
      <trkpt lat="48.23494" lon="-4.21489">
        <ele>78.97</ele>
        <time>2013-04-17T11:41:51Z</time>
      </trkpt>
      <trkpt lat="48.23498" lon="-4.21481">
        <ele>77.52</ele>
        <time>2013-04-17T11:41:57Z</time>
      </trkpt>
      <trkpt lat="48.23501" lon="-4.21481">
        <ele>77.04</ele>
        <time>2013-04-17T11:42:00Z</time>
      </trkpt>
      <trkpt lat="48.23509" lon="-4.21493">
        <ele>76.56</ele>
        <time>2013-04-17T11:42:11Z</time>
      </trkpt>
      <trkpt lat="48.2351" lon="-4.21496">
        <ele>74.64</ele>
        <time>2013-04-17T11:42:13Z</time>
      </trkpt>
      <trkpt lat="48.23511" lon="-4.21498">
        <ele>78</ele>
        <time>2013-04-17T11:42:15Z</time>
      </trkpt>
      <trkpt lat="48.23511" lon="-4.215">
        <ele>78</ele>
        <time>2013-04-17T11:42:16Z</time>
      </trkpt>
      <trkpt lat="48.23516" lon="-4.21509">
        <ele>75.6</ele>
        <time>2013-04-17T11:42:23Z</time>
      </trkpt>
      <trkpt lat="48.23519" lon="-4.21514">
        <ele>74.64</ele>
        <time>2013-04-17T11:42:27Z</time>
      </trkpt>
      <trkpt lat="48.2352" lon="-4.21517">
        <ele>74.64</ele>
        <time>2013-04-17T11:42:29Z</time>
      </trkpt>
      <trkpt lat="48.23524" lon="-4.21525">
        <ele>70.79</ele>
        <time>2013-04-17T11:42:35Z</time>
      </trkpt>
      <trkpt lat="48.23524" lon="-4.21527">
        <ele>74.16</ele>
        <time>2013-04-17T11:42:36Z</time>
      </trkpt>
      <trkpt lat="48.23535" lon="-4.21552">
        <ele>72.72</ele>
        <time>2013-04-17T11:42:52Z</time>
      </trkpt>
      <trkpt lat="48.23537" lon="-4.21557">
        <ele>71.76</ele>
        <time>2013-04-17T11:42:55Z</time>
      </trkpt>
      <trkpt lat="48.23542" lon="-4.21571">
        <ele>72.24</ele>
        <time>2013-04-17T11:43:04Z</time>
      </trkpt>
      <trkpt lat="48.23543" lon="-4.21576">
        <ele>70.79</ele>
        <time>2013-04-17T11:43:07Z</time>
      </trkpt>
      <trkpt lat="48.23547" lon="-4.21586">
        <ele>70.31</ele>
        <time>2013-04-17T11:43:14Z</time>
      </trkpt>
      <trkpt lat="48.23549" lon="-4.21592">
        <ele>70.79</ele>
        <time>2013-04-17T11:43:18Z</time>
      </trkpt>
      <trkpt lat="48.23549" lon="-4.21615">
        <ele>68.39</ele>
        <time>2013-04-17T11:43:31Z</time>
      </trkpt>
      <trkpt lat="48.2355" lon="-4.21622">
        <ele>67.91</ele>
        <time>2013-04-17T11:43:35Z</time>
      </trkpt>
      <trkpt lat="48.23547" lon="-4.21641">
        <ele>66.95</ele>
        <time>2013-04-17T11:43:47Z</time>
      </trkpt>
      <trkpt lat="48.23545" lon="-4.21668">
        <ele>65.03</ele>
        <time>2013-04-17T11:44:03Z</time>
      </trkpt>
      <trkpt lat="48.23544" lon="-4.21689">
        <ele>64.55</ele>
        <time>2013-04-17T11:44:15Z</time>
      </trkpt>
      <trkpt lat="48.23544" lon="-4.21694">
        <ele>65.03</ele>
        <time>2013-04-17T11:44:18Z</time>
      </trkpt>
      <trkpt lat="48.23544" lon="-4.21706">
        <ele>65.03</ele>
        <time>2013-04-17T11:44:25Z</time>
      </trkpt>
      <trkpt lat="48.23543" lon="-4.21711">
        <ele>65.03</ele>
        <time>2013-04-17T11:44:28Z</time>
      </trkpt>
      <trkpt lat="48.23545" lon="-4.21741">
        <ele>64.55</ele>
        <time>2013-04-17T11:44:46Z</time>
      </trkpt>
      <trkpt lat="48.23545" lon="-4.21743">
        <ele>65.03</ele>
        <time>2013-04-17T11:44:47Z</time>
      </trkpt>
      <trkpt lat="48.23544" lon="-4.21757">
        <ele>65.03</ele>
        <time>2013-04-17T11:44:55Z</time>
      </trkpt>
      <trkpt lat="48.23555" lon="-4.21778">
        <ele>64.07</ele>
        <time>2013-04-17T11:45:11Z</time>
      </trkpt>
      <trkpt lat="48.23574" lon="-4.21777">
        <ele>62.14</ele>
        <time>2013-04-17T11:45:27Z</time>
      </trkpt>
      <trkpt lat="48.23579" lon="-4.21776">
        <ele>61.18</ele>
        <time>2013-04-17T11:45:32Z</time>
      </trkpt>
      <trkpt lat="48.23592" lon="-4.21774">
        <ele>59.74</ele>
        <time>2013-04-17T11:45:43Z</time>
      </trkpt>
      <trkpt lat="48.23609" lon="-4.2177">
        <ele>57.34</ele>
        <time>2013-04-17T11:45:58Z</time>
      </trkpt>
      <trkpt lat="48.23625" lon="-4.21769">
        <ele>55.41</ele>
        <time>2013-04-17T11:46:14Z</time>
      </trkpt>
      <trkpt lat="48.23629" lon="-4.21769">
        <ele>54.93</ele>
        <time>2013-04-17T11:46:17Z</time>
      </trkpt>
      <trkpt lat="48.23636" lon="-4.21766">
        <ele>53.97</ele>
        <time>2013-04-17T11:46:24Z</time>
      </trkpt>
      <trkpt lat="48.23639" lon="-4.21768">
        <ele>53.49</ele>
        <time>2013-04-17T11:46:30Z</time>
      </trkpt>
      <trkpt lat="48.23646" lon="-4.21769">
        <ele>52.53</ele>
        <time>2013-04-17T11:46:36Z</time>
      </trkpt>
      <trkpt lat="48.23654" lon="-4.21769">
        <ele>51.57</ele>
        <time>2013-04-17T11:46:42Z</time>
      </trkpt>
      <trkpt lat="48.23669" lon="-4.21766">
        <ele>49.65</ele>
        <time>2013-04-17T11:46:55Z</time>
      </trkpt>
      <trkpt lat="48.23684" lon="-4.21763">
        <ele>47.24</ele>
        <time>2013-04-17T11:47:10Z</time>
      </trkpt>
      <trkpt lat="48.23701" lon="-4.21759">
        <ele>43.88</ele>
        <time>2013-04-17T11:47:27Z</time>
      </trkpt>
      <trkpt lat="48.23719" lon="-4.21756">
        <ele>42.44</ele>
        <time>2013-04-17T11:47:43Z</time>
      </trkpt>
      <trkpt lat="48.23734" lon="-4.21748">
        <ele>40.51</ele>
        <time>2013-04-17T11:47:58Z</time>
      </trkpt>
      <trkpt lat="48.23751" lon="-4.21748">
        <ele>38.59</ele>
        <time>2013-04-17T11:48:12Z</time>
      </trkpt>
      <trkpt lat="48.23767" lon="-4.2175">
        <ele>37.15</ele>
        <time>2013-04-17T11:48:27Z</time>
      </trkpt>
      <trkpt lat="48.23767" lon="-4.21751">
        <ele>37.15</ele>
        <time>2013-04-17T11:48:28Z</time>
      </trkpt>
      <trkpt lat="48.23784" lon="-4.2175">
        <ele>35.23</ele>
        <time>2013-04-17T11:48:42Z</time>
      </trkpt>
      <trkpt lat="48.23793" lon="-4.21747">
        <ele>35.23</ele>
        <time>2013-04-17T11:48:53Z</time>
      </trkpt>
      <trkpt lat="48.23805" lon="-4.21741">
        <ele>34.74</ele>
        <time>2013-04-17T11:49:02Z</time>
      </trkpt>
      <trkpt lat="48.23809" lon="-4.21738">
        <ele>34.74</ele>
        <time>2013-04-17T11:49:06Z</time>
      </trkpt>
      <trkpt lat="48.23819" lon="-4.2173">
        <ele>33.3</ele>
        <time>2013-04-17T11:49:19Z</time>
      </trkpt>
      <trkpt lat="48.2382" lon="-4.21729">
        <ele>33.3</ele>
        <time>2013-04-17T11:49:21Z</time>
      </trkpt>
      <trkpt lat="48.23825" lon="-4.21726">
        <ele>33.3</ele>
        <time>2013-04-17T11:49:25Z</time>
      </trkpt>
      <trkpt lat="48.23836" lon="-4.21725">
        <ele>31.86</ele>
        <time>2013-04-17T11:49:38Z</time>
      </trkpt>
      <trkpt lat="48.23838" lon="-4.21725">
        <ele>31.38</ele>
        <time>2013-04-17T11:49:40Z</time>
      </trkpt>
      <trkpt lat="48.23851" lon="-4.2172">
        <ele>30.9</ele>
        <time>2013-04-17T11:49:54Z</time>
      </trkpt>
      <trkpt lat="48.23851" lon="-4.21718">
        <ele>30.42</ele>
        <time>2013-04-17T11:50:07Z</time>
      </trkpt>
      <trkpt lat="48.23852" lon="-4.21719">
        <ele>30.42</ele>
        <time>2013-04-17T11:50:23Z</time>
      </trkpt>
      <trkpt lat="48.2385" lon="-4.21718">
        <ele>30.42</ele>
        <time>2013-04-17T11:51:06Z</time>
      </trkpt>
      <trkpt lat="48.23846" lon="-4.21719">
        <ele>31.38</ele>
        <time>2013-04-17T11:51:24Z</time>
      </trkpt>
      <trkpt lat="48.23846" lon="-4.21719">
        <ele>30.9</ele>
        <time>2013-04-17T11:52:53Z</time>
      </trkpt>
      <trkpt lat="48.2385" lon="-4.21718">
        <ele>30.42</ele>
        <time>2013-04-17T11:53:18Z</time>
      </trkpt>
      <trkpt lat="48.23851" lon="-4.21719">
        <ele>30.42</ele>
        <time>2013-04-17T11:54:32Z</time>
      </trkpt>
      <trkpt lat="48.23852" lon="-4.2172">
        <ele>30.42</ele>
        <time>2013-04-17T11:55:05Z</time>
      </trkpt>
      <trkpt lat="48.23864" lon="-4.21714">
        <ele>28.98</ele>
        <time>2013-04-17T11:55:19Z</time>
      </trkpt>
      <trkpt lat="48.2388" lon="-4.21711">
        <ele>28.02</ele>
        <time>2013-04-17T11:55:34Z</time>
      </trkpt>
      <trkpt lat="48.23899" lon="-4.21708">
        <ele>26.57</ele>
        <time>2013-04-17T11:55:51Z</time>
      </trkpt>
      <trkpt lat="48.23915" lon="-4.21708">
        <ele>23.21</ele>
        <time>2013-04-17T11:56:04Z</time>
      </trkpt>
      <trkpt lat="48.23927" lon="-4.21704">
        <ele>22.25</ele>
        <time>2013-04-17T11:56:20Z</time>
      </trkpt>
      <trkpt lat="48.23946" lon="-4.21699">
        <ele>20.81</ele>
        <time>2013-04-17T11:56:34Z</time>
      </trkpt>
      <trkpt lat="48.23974" lon="-4.21692">
        <ele>18.88</ele>
        <time>2013-04-17T11:56:52Z</time>
      </trkpt>
      <trkpt lat="48.23986" lon="-4.21694">
        <ele>17.92</ele>
        <time>2013-04-17T11:57:01Z</time>
      </trkpt>
      <trkpt lat="48.23997" lon="-4.21694">
        <ele>17.92</ele>
        <time>2013-04-17T11:57:12Z</time>
      </trkpt>
      <trkpt lat="48.24008" lon="-4.21685">
        <ele>16.96</ele>
        <time>2013-04-17T11:57:21Z</time>
      </trkpt>
      <trkpt lat="48.24016" lon="-4.21679">
        <ele>16</ele>
        <time>2013-04-17T11:57:29Z</time>
      </trkpt>
      <trkpt lat="48.24024" lon="-4.21676">
        <ele>15.04</ele>
        <time>2013-04-17T11:57:40Z</time>
      </trkpt>
      <trkpt lat="48.2404" lon="-4.21669">
        <ele>14.56</ele>
        <time>2013-04-17T11:57:56Z</time>
      </trkpt>
      <trkpt lat="48.24056" lon="-4.21658">
        <ele>15.52</ele>
        <time>2013-04-17T11:58:09Z</time>
      </trkpt>
      <trkpt lat="48.24065" lon="-4.21645">
        <ele>13.6</ele>
        <time>2013-04-17T11:58:19Z</time>
      </trkpt>
      <trkpt lat="48.24068" lon="-4.21641">
        <ele>14.08</ele>
        <time>2013-04-17T11:58:22Z</time>
      </trkpt>
      <trkpt lat="48.24075" lon="-4.21631">
        <ele>13.12</ele>
        <time>2013-04-17T11:58:30Z</time>
      </trkpt>
      <trkpt lat="48.24087" lon="-4.21612">
        <ele>13.6</ele>
        <time>2013-04-17T11:58:46Z</time>
      </trkpt>
      <trkpt lat="48.24088" lon="-4.2161">
        <ele>13.12</ele>
        <time>2013-04-17T11:58:47Z</time>
      </trkpt>
      <trkpt lat="48.24104" lon="-4.21593">
        <ele>12.63</ele>
        <time>2013-04-17T11:59:04Z</time>
      </trkpt>
      <trkpt lat="48.2411" lon="-4.21587">
        <ele>9.27</ele>
        <time>2013-04-17T11:59:11Z</time>
      </trkpt>
      <trkpt lat="48.24111" lon="-4.21587">
        <ele>12.63</ele>
        <time>2013-04-17T11:59:12Z</time>
      </trkpt>
      <trkpt lat="48.24124" lon="-4.21576">
        <ele>11.19</ele>
        <time>2013-04-17T11:59:26Z</time>
      </trkpt>
      <trkpt lat="48.24144" lon="-4.21561">
        <ele>11.67</ele>
        <time>2013-04-17T11:59:42Z</time>
      </trkpt>
      <trkpt lat="48.24156" lon="-4.21552">
        <ele>11.19</ele>
        <time>2013-04-17T11:59:54Z</time>
      </trkpt>
      <trkpt lat="48.24158" lon="-4.21554">
        <ele>12.63</ele>
        <time>2013-04-17T12:00:08Z</time>
      </trkpt>
      <trkpt lat="48.24159" lon="-4.21554">
        <ele>12.15</ele>
        <time>2013-04-17T12:00:30Z</time>
      </trkpt>
      <trkpt lat="48.24161" lon="-4.2156">
        <ele>12.15</ele>
        <time>2013-04-17T12:00:34Z</time>
      </trkpt>
      <trkpt lat="48.24161" lon="-4.21575">
        <ele>12.15</ele>
        <time>2013-04-17T12:00:43Z</time>
      </trkpt>
      <trkpt lat="48.24164" lon="-4.21591">
        <ele>12.15</ele>
        <time>2013-04-17T12:00:53Z</time>
      </trkpt>
      <trkpt lat="48.24165" lon="-4.21596">
        <ele>12.15</ele>
        <time>2013-04-17T12:00:56Z</time>
      </trkpt>
      <trkpt lat="48.24167" lon="-4.21603">
        <ele>12.15</ele>
        <time>2013-04-17T12:01:00Z</time>
      </trkpt>
      <trkpt lat="48.24169" lon="-4.21605">
        <ele>13.12</ele>
        <time>2013-04-17T12:01:02Z</time>
      </trkpt>
      <trkpt lat="48.24172" lon="-4.21612">
        <ele>13.6</ele>
        <time>2013-04-17T12:01:07Z</time>
      </trkpt>
      <trkpt lat="48.24175" lon="-4.21616">
        <ele>14.08</ele>
        <time>2013-04-17T12:01:10Z</time>
      </trkpt>
      <trkpt lat="48.2418" lon="-4.21621">
        <ele>14.08</ele>
        <time>2013-04-17T12:01:15Z</time>
      </trkpt>
      <trkpt lat="48.24183" lon="-4.21624">
        <ele>14.56</ele>
        <time>2013-04-17T12:01:18Z</time>
      </trkpt>
      <trkpt lat="48.24187" lon="-4.21627">
        <ele>14.56</ele>
        <time>2013-04-17T12:01:22Z</time>
      </trkpt>
      <trkpt lat="48.24189" lon="-4.21632">
        <ele>15.04</ele>
        <time>2013-04-17T12:01:26Z</time>
      </trkpt>
      <trkpt lat="48.2419" lon="-4.21637">
        <ele>15.04</ele>
        <time>2013-04-17T12:01:29Z</time>
      </trkpt>
      <trkpt lat="48.24197" lon="-4.2165">
        <ele>15.52</ele>
        <time>2013-04-17T12:01:38Z</time>
      </trkpt>
      <trkpt lat="48.24198" lon="-4.21654">
        <ele>16</ele>
        <time>2013-04-17T12:01:40Z</time>
      </trkpt>
      <trkpt lat="48.24202" lon="-4.21668">
        <ele>16.96</ele>
        <time>2013-04-17T12:01:50Z</time>
      </trkpt>
      <trkpt lat="48.24204" lon="-4.21674">
        <ele>16.96</ele>
        <time>2013-04-17T12:01:54Z</time>
      </trkpt>
      <trkpt lat="48.24205" lon="-4.2168">
        <ele>16.96</ele>
        <time>2013-04-17T12:01:58Z</time>
      </trkpt>
      <trkpt lat="48.24205" lon="-4.21687">
        <ele>17.44</ele>
        <time>2013-04-17T12:02:02Z</time>
      </trkpt>
      <trkpt lat="48.24205" lon="-4.21699">
        <ele>18.4</ele>
        <time>2013-04-17T12:02:10Z</time>
      </trkpt>
      <trkpt lat="48.24202" lon="-4.21716">
        <ele>18.4</ele>
        <time>2013-04-17T12:02:20Z</time>
      </trkpt>
      <trkpt lat="48.24202" lon="-4.2172">
        <ele>18.88</ele>
        <time>2013-04-17T12:02:22Z</time>
      </trkpt>
      <trkpt lat="48.24201" lon="-4.21729">
        <ele>19.84</ele>
        <time>2013-04-17T12:02:28Z</time>
      </trkpt>
      <trkpt lat="48.24197" lon="-4.21762">
        <ele>20.81</ele>
        <time>2013-04-17T12:02:44Z</time>
      </trkpt>
      <trkpt lat="48.24197" lon="-4.21774">
        <ele>21.29</ele>
        <time>2013-04-17T12:02:51Z</time>
      </trkpt>
      <trkpt lat="48.24196" lon="-4.21798">
        <ele>22.25</ele>
        <time>2013-04-17T12:03:07Z</time>
      </trkpt>
      <trkpt lat="48.24198" lon="-4.218">
        <ele>21.77</ele>
        <time>2013-04-17T12:03:09Z</time>
      </trkpt>
      <trkpt lat="48.24211" lon="-4.21807">
        <ele>22.25</ele>
        <time>2013-04-17T12:03:21Z</time>
      </trkpt>
      <trkpt lat="48.24227" lon="-4.21802">
        <ele>22.73</ele>
        <time>2013-04-17T12:03:34Z</time>
      </trkpt>
      <trkpt lat="48.24229" lon="-4.21799">
        <ele>22.73</ele>
        <time>2013-04-17T12:03:37Z</time>
      </trkpt>
      <trkpt lat="48.24235" lon="-4.21795">
        <ele>23.21</ele>
        <time>2013-04-17T12:03:43Z</time>
      </trkpt>
      <trkpt lat="48.2425" lon="-4.21773">
        <ele>25.13</ele>
        <time>2013-04-17T12:04:01Z</time>
      </trkpt>
      <trkpt lat="48.24262" lon="-4.21748">
        <ele>26.57</ele>
        <time>2013-04-17T12:04:19Z</time>
      </trkpt>
      <trkpt lat="48.24263" lon="-4.21747">
        <ele>26.57</ele>
        <time>2013-04-17T12:04:20Z</time>
      </trkpt>
      <trkpt lat="48.24273" lon="-4.21723">
        <ele>28.02</ele>
        <time>2013-04-17T12:04:36Z</time>
      </trkpt>
      <trkpt lat="48.2428" lon="-4.21709">
        <ele>28.98</ele>
        <time>2013-04-17T12:04:46Z</time>
      </trkpt>
      <trkpt lat="48.24288" lon="-4.2169">
        <ele>30.42</ele>
        <time>2013-04-17T12:05:01Z</time>
      </trkpt>
      <trkpt lat="48.24295" lon="-4.2168">
        <ele>31.38</ele>
        <time>2013-04-17T12:05:10Z</time>
      </trkpt>
      <trkpt lat="48.24299" lon="-4.21679">
        <ele>30.9</ele>
        <time>2013-04-17T12:05:13Z</time>
      </trkpt>
      <trkpt lat="48.24313" lon="-4.21675">
        <ele>33.78</ele>
        <time>2013-04-17T12:05:29Z</time>
      </trkpt>
      <trkpt lat="48.24316" lon="-4.21674">
        <ele>34.74</ele>
        <time>2013-04-17T12:05:32Z</time>
      </trkpt>
      <trkpt lat="48.24324" lon="-4.21675">
        <ele>36.19</ele>
        <time>2013-04-17T12:05:41Z</time>
      </trkpt>
      <trkpt lat="48.24338" lon="-4.21687">
        <ele>37.15</ele>
        <time>2013-04-17T12:05:56Z</time>
      </trkpt>
      <trkpt lat="48.24354" lon="-4.21691">
        <ele>39.55</ele>
        <time>2013-04-17T12:06:12Z</time>
      </trkpt>
      <trkpt lat="48.24358" lon="-4.21692">
        <ele>39.55</ele>
        <time>2013-04-17T12:06:15Z</time>
      </trkpt>
      <trkpt lat="48.24376" lon="-4.21698">
        <ele>41.47</ele>
        <time>2013-04-17T12:06:31Z</time>
      </trkpt>
      <trkpt lat="48.24389" lon="-4.21701">
        <ele>42.92</ele>
        <time>2013-04-17T12:06:44Z</time>
      </trkpt>
      <trkpt lat="48.24399" lon="-4.21713">
        <ele>43.88</ele>
        <time>2013-04-17T12:06:57Z</time>
      </trkpt>
      <trkpt lat="48.24403" lon="-4.21716">
        <ele>45.32</ele>
        <time>2013-04-17T12:07:02Z</time>
      </trkpt>
      <trkpt lat="48.24406" lon="-4.21719">
        <ele>44.84</ele>
        <time>2013-04-17T12:07:05Z</time>
      </trkpt>
      <trkpt lat="48.24421" lon="-4.21735">
        <ele>47.72</ele>
        <time>2013-04-17T12:07:21Z</time>
      </trkpt>
      <trkpt lat="48.24432" lon="-4.21751">
        <ele>50.61</ele>
        <time>2013-04-17T12:07:36Z</time>
      </trkpt>
      <trkpt lat="48.24436" lon="-4.21757">
        <ele>50.13</ele>
        <time>2013-04-17T12:07:41Z</time>
      </trkpt>
      <trkpt lat="48.24439" lon="-4.21762">
        <ele>51.57</ele>
        <time>2013-04-17T12:07:45Z</time>
      </trkpt>
      <trkpt lat="48.24442" lon="-4.21764">
        <ele>51.57</ele>
        <time>2013-04-17T12:07:48Z</time>
      </trkpt>
      <trkpt lat="48.24445" lon="-4.21767">
        <ele>52.05</ele>
        <time>2013-04-17T12:07:51Z</time>
      </trkpt>
      <trkpt lat="48.2445" lon="-4.21772">
        <ele>52.05</ele>
        <time>2013-04-17T12:07:57Z</time>
      </trkpt>
      <trkpt lat="48.24466" lon="-4.21788">
        <ele>54.45</ele>
        <time>2013-04-17T12:08:14Z</time>
      </trkpt>
      <trkpt lat="48.24475" lon="-4.21794">
        <ele>54.45</ele>
        <time>2013-04-17T12:08:23Z</time>
      </trkpt>
      <trkpt lat="48.24479" lon="-4.21798">
        <ele>54.93</ele>
        <time>2013-04-17T12:08:27Z</time>
      </trkpt>
      <trkpt lat="48.24485" lon="-4.21803">
        <ele>54.93</ele>
        <time>2013-04-17T12:08:33Z</time>
      </trkpt>
      <trkpt lat="48.24496" lon="-4.2181">
        <ele>56.86</ele>
        <time>2013-04-17T12:08:43Z</time>
      </trkpt>
      <trkpt lat="48.24497" lon="-4.21811">
        <ele>57.34</ele>
        <time>2013-04-17T12:08:44Z</time>
      </trkpt>
      <trkpt lat="48.24507" lon="-4.21818">
        <ele>57.82</ele>
        <time>2013-04-17T12:08:57Z</time>
      </trkpt>
      <trkpt lat="48.24516" lon="-4.21824">
        <ele>57.34</ele>
        <time>2013-04-17T12:09:04Z</time>
      </trkpt>
      <trkpt lat="48.2452" lon="-4.21826">
        <ele>58.3</ele>
        <time>2013-04-17T12:09:08Z</time>
      </trkpt>
      <trkpt lat="48.24536" lon="-4.21838">
        <ele>57.34</ele>
        <time>2013-04-17T12:09:23Z</time>
      </trkpt>
      <trkpt lat="48.24539" lon="-4.2184">
        <ele>58.3</ele>
        <time>2013-04-17T12:09:25Z</time>
      </trkpt>
      <trkpt lat="48.24547" lon="-4.21845">
        <ele>56.86</ele>
        <time>2013-04-17T12:09:32Z</time>
      </trkpt>
      <trkpt lat="48.24553" lon="-4.2185">
        <ele>56.86</ele>
        <time>2013-04-17T12:09:40Z</time>
      </trkpt>
      <trkpt lat="48.24557" lon="-4.21852">
        <ele>56.86</ele>
        <time>2013-04-17T12:09:44Z</time>
      </trkpt>
      <trkpt lat="48.24577" lon="-4.21866">
        <ele>58.78</ele>
        <time>2013-04-17T12:10:01Z</time>
      </trkpt>
      <trkpt lat="48.24595" lon="-4.21879">
        <ele>57.34</ele>
        <time>2013-04-17T12:10:17Z</time>
      </trkpt>
      <trkpt lat="48.24596" lon="-4.2188">
        <ele>57.34</ele>
        <time>2013-04-17T12:10:18Z</time>
      </trkpt>
      <trkpt lat="48.24599" lon="-4.21883">
        <ele>57.34</ele>
        <time>2013-04-17T12:10:21Z</time>
      </trkpt>
      <trkpt lat="48.24614" lon="-4.21893">
        <ele>57.34</ele>
        <time>2013-04-17T12:10:35Z</time>
      </trkpt>
      <trkpt lat="48.24632" lon="-4.21902">
        <ele>57.34</ele>
        <time>2013-04-17T12:10:51Z</time>
      </trkpt>
      <trkpt lat="48.24633" lon="-4.21903">
        <ele>56.86</ele>
        <time>2013-04-17T12:10:52Z</time>
      </trkpt>
      <trkpt lat="48.24645" lon="-4.21908">
        <ele>57.82</ele>
        <time>2013-04-17T12:11:02Z</time>
      </trkpt>
      <trkpt lat="48.24662" lon="-4.21916">
        <ele>57.34</ele>
        <time>2013-04-17T12:11:17Z</time>
      </trkpt>
      <trkpt lat="48.24681" lon="-4.21923">
        <ele>58.3</ele>
        <time>2013-04-17T12:11:33Z</time>
      </trkpt>
      <trkpt lat="48.24695" lon="-4.21929">
        <ele>58.3</ele>
        <time>2013-04-17T12:11:45Z</time>
      </trkpt>
      <trkpt lat="48.24705" lon="-4.21932">
        <ele>57.82</ele>
        <time>2013-04-17T12:11:53Z</time>
      </trkpt>
      <trkpt lat="48.24724" lon="-4.21936">
        <ele>57.82</ele>
        <time>2013-04-17T12:12:08Z</time>
      </trkpt>
      <trkpt lat="48.24737" lon="-4.2194">
        <ele>57.34</ele>
        <time>2013-04-17T12:12:18Z</time>
      </trkpt>
      <trkpt lat="48.24754" lon="-4.2195">
        <ele>57.82</ele>
        <time>2013-04-17T12:12:34Z</time>
      </trkpt>
      <trkpt lat="48.24758" lon="-4.21952">
        <ele>55.89</ele>
        <time>2013-04-17T12:12:37Z</time>
      </trkpt>
      <trkpt lat="48.24777" lon="-4.21972">
        <ele>56.86</ele>
        <time>2013-04-17T12:12:53Z</time>
      </trkpt>
      <trkpt lat="48.24781" lon="-4.21978">
        <ele>55.89</ele>
        <time>2013-04-17T12:12:58Z</time>
      </trkpt>
      <trkpt lat="48.24788" lon="-4.2199">
        <ele>55.89</ele>
        <time>2013-04-17T12:13:06Z</time>
      </trkpt>
      <trkpt lat="48.24792" lon="-4.21995">
        <ele>56.37</ele>
        <time>2013-04-17T12:13:10Z</time>
      </trkpt>
      <trkpt lat="48.24808" lon="-4.22018">
        <ele>56.86</ele>
        <time>2013-04-17T12:13:29Z</time>
      </trkpt>
      <trkpt lat="48.24811" lon="-4.22023">
        <ele>55.89</ele>
        <time>2013-04-17T12:13:35Z</time>
      </trkpt>
      <trkpt lat="48.24813" lon="-4.22027">
        <ele>56.86</ele>
        <time>2013-04-17T12:13:39Z</time>
      </trkpt>
      <trkpt lat="48.24816" lon="-4.22031">
        <ele>55.89</ele>
        <time>2013-04-17T12:13:44Z</time>
      </trkpt>
      <trkpt lat="48.24822" lon="-4.22037">
        <ele>55.89</ele>
        <time>2013-04-17T12:13:50Z</time>
      </trkpt>
      <trkpt lat="48.24824" lon="-4.22042">
        <ele>56.37</ele>
        <time>2013-04-17T12:13:53Z</time>
      </trkpt>
      <trkpt lat="48.24828" lon="-4.22049">
        <ele>56.37</ele>
        <time>2013-04-17T12:13:58Z</time>
      </trkpt>
      <trkpt lat="48.24835" lon="-4.22061">
        <ele>56.37</ele>
        <time>2013-04-17T12:14:06Z</time>
      </trkpt>
      <trkpt lat="48.24848" lon="-4.2208">
        <ele>55.41</ele>
        <time>2013-04-17T12:14:21Z</time>
      </trkpt>
      <trkpt lat="48.2485" lon="-4.22082">
        <ele>55.41</ele>
        <time>2013-04-17T12:14:23Z</time>
      </trkpt>
      <trkpt lat="48.24855" lon="-4.22086">
        <ele>56.37</ele>
        <time>2013-04-17T12:14:27Z</time>
      </trkpt>
      <trkpt lat="48.24868" lon="-4.22083">
        <ele>50.61</ele>
        <time>2013-04-17T12:14:39Z</time>
      </trkpt>
      <trkpt lat="48.2487" lon="-4.22081">
        <ele>53.97</ele>
        <time>2013-04-17T12:14:41Z</time>
      </trkpt>
      <trkpt lat="48.24871" lon="-4.2208">
        <ele>53.97</ele>
        <time>2013-04-17T12:14:42Z</time>
      </trkpt>
      <trkpt lat="48.24888" lon="-4.22057">
        <ele>51.09</ele>
        <time>2013-04-17T12:15:01Z</time>
      </trkpt>
      <trkpt lat="48.24894" lon="-4.22051">
        <ele>50.61</ele>
        <time>2013-04-17T12:15:10Z</time>
      </trkpt>
      <trkpt lat="48.24904" lon="-4.2204">
        <ele>49.65</ele>
        <time>2013-04-17T12:15:20Z</time>
      </trkpt>
      <trkpt lat="48.24923" lon="-4.22024">
        <ele>46.28</ele>
        <time>2013-04-17T12:15:38Z</time>
      </trkpt>
      <trkpt lat="48.2493" lon="-4.2202">
        <ele>45.32</ele>
        <time>2013-04-17T12:15:45Z</time>
      </trkpt>
      <trkpt lat="48.24932" lon="-4.22018">
        <ele>45.32</ele>
        <time>2013-04-17T12:15:47Z</time>
      </trkpt>
      <trkpt lat="48.2494" lon="-4.22013">
        <ele>40.99</ele>
        <time>2013-04-17T12:15:54Z</time>
      </trkpt>
      <trkpt lat="48.24945" lon="-4.22011">
        <ele>44.84</ele>
        <time>2013-04-17T12:15:58Z</time>
      </trkpt>
      <trkpt lat="48.2496" lon="-4.22005">
        <ele>41.95</ele>
        <time>2013-04-17T12:16:11Z</time>
      </trkpt>
      <trkpt lat="48.24976" lon="-4.22001">
        <ele>43.4</ele>
        <time>2013-04-17T12:16:24Z</time>
      </trkpt>
      <trkpt lat="48.24981" lon="-4.22001">
        <ele>40.51</ele>
        <time>2013-04-17T12:16:29Z</time>
      </trkpt>
      <trkpt lat="48.24985" lon="-4.22">
        <ele>40.99</ele>
        <time>2013-04-17T12:16:32Z</time>
      </trkpt>
      <trkpt lat="48.25005" lon="-4.22">
        <ele>39.07</ele>
        <time>2013-04-17T12:16:48Z</time>
      </trkpt>
      <trkpt lat="48.25015" lon="-4.22002">
        <ele>38.11</ele>
        <time>2013-04-17T12:16:57Z</time>
      </trkpt>
      <trkpt lat="48.25029" lon="-4.22004">
        <ele>37.63</ele>
        <time>2013-04-17T12:17:08Z</time>
      </trkpt>
      <trkpt lat="48.2504" lon="-4.22005">
        <ele>36.67</ele>
        <time>2013-04-17T12:17:16Z</time>
      </trkpt>
      <trkpt lat="48.2505" lon="-4.22007">
        <ele>36.19</ele>
        <time>2013-04-17T12:17:25Z</time>
      </trkpt>
      <trkpt lat="48.25063" lon="-4.22009">
        <ele>35.23</ele>
        <time>2013-04-17T12:17:35Z</time>
      </trkpt>
      <trkpt lat="48.25085" lon="-4.22015">
        <ele>33.78</ele>
        <time>2013-04-17T12:17:53Z</time>
      </trkpt>
      <trkpt lat="48.25094" lon="-4.22017">
        <ele>33.3</ele>
        <time>2013-04-17T12:18:01Z</time>
      </trkpt>
      <trkpt lat="48.25099" lon="-4.22017">
        <ele>32.82</ele>
        <time>2013-04-17T12:18:05Z</time>
      </trkpt>
      <trkpt lat="48.25123" lon="-4.22021">
        <ele>31.38</ele>
        <time>2013-04-17T12:18:23Z</time>
      </trkpt>
      <trkpt lat="48.25142" lon="-4.22033">
        <ele>30.9</ele>
        <time>2013-04-17T12:18:41Z</time>
      </trkpt>
      <trkpt lat="48.25143" lon="-4.22034">
        <ele>30.42</ele>
        <time>2013-04-17T12:18:42Z</time>
      </trkpt>
      <trkpt lat="48.25148" lon="-4.22038">
        <ele>29.94</ele>
        <time>2013-04-17T12:18:46Z</time>
      </trkpt>
      <trkpt lat="48.25165" lon="-4.22057">
        <ele>28.5</ele>
        <time>2013-04-17T12:19:02Z</time>
      </trkpt>
      <trkpt lat="48.25165" lon="-4.22058">
        <ele>28.02</ele>
        <time>2013-04-17T12:19:03Z</time>
      </trkpt>
      <trkpt lat="48.2517" lon="-4.22069">
        <ele>28.5</ele>
        <time>2013-04-17T12:19:10Z</time>
      </trkpt>
      <trkpt lat="48.25176" lon="-4.22085">
        <ele>27.05</ele>
        <time>2013-04-17T12:19:20Z</time>
      </trkpt>
      <trkpt lat="48.25179" lon="-4.22096">
        <ele>30.42</ele>
        <time>2013-04-17T12:19:27Z</time>
      </trkpt>
      <trkpt lat="48.25179" lon="-4.22098">
        <ele>29.94</ele>
        <time>2013-04-17T12:19:28Z</time>
      </trkpt>
      <trkpt lat="48.2518" lon="-4.22107">
        <ele>28.5</ele>
        <time>2013-04-17T12:19:33Z</time>
      </trkpt>
      <trkpt lat="48.2518" lon="-4.22115">
        <ele>28.02</ele>
        <time>2013-04-17T12:19:37Z</time>
      </trkpt>
      <trkpt lat="48.25175" lon="-4.22151">
        <ele>28.02</ele>
        <time>2013-04-17T12:19:56Z</time>
      </trkpt>
      <trkpt lat="48.25165" lon="-4.2218">
        <ele>26.57</ele>
        <time>2013-04-17T12:20:13Z</time>
      </trkpt>
      <trkpt lat="48.25161" lon="-4.22198">
        <ele>25.61</ele>
        <time>2013-04-17T12:20:23Z</time>
      </trkpt>
      <trkpt lat="48.25151" lon="-4.22226">
        <ele>23.21</ele>
        <time>2013-04-17T12:20:40Z</time>
      </trkpt>
      <trkpt lat="48.2515" lon="-4.22237">
        <ele>22.73</ele>
        <time>2013-04-17T12:20:57Z</time>
      </trkpt>
      <trkpt lat="48.2514" lon="-4.22262">
        <ele>22.25</ele>
        <time>2013-04-17T12:21:11Z</time>
      </trkpt>
      <trkpt lat="48.25138" lon="-4.2227">
        <ele>21.77</ele>
        <time>2013-04-17T12:21:15Z</time>
      </trkpt>
      <trkpt lat="48.25135" lon="-4.22284">
        <ele>21.29</ele>
        <time>2013-04-17T12:21:23Z</time>
      </trkpt>
      <trkpt lat="48.25133" lon="-4.22301">
        <ele>20.81</ele>
        <time>2013-04-17T12:21:32Z</time>
      </trkpt>
      <trkpt lat="48.25131" lon="-4.22332">
        <ele>20.81</ele>
        <time>2013-04-17T12:21:48Z</time>
      </trkpt>
      <trkpt lat="48.2513" lon="-4.22364">
        <ele>19.36</ele>
        <time>2013-04-17T12:22:06Z</time>
      </trkpt>
      <trkpt lat="48.25131" lon="-4.22399">
        <ele>18.4</ele>
        <time>2013-04-17T12:22:23Z</time>
      </trkpt>
      <trkpt lat="48.25131" lon="-4.22414">
        <ele>19.84</ele>
        <time>2013-04-17T12:22:30Z</time>
      </trkpt>
      <trkpt lat="48.25133" lon="-4.22437">
        <ele>18.88</ele>
        <time>2013-04-17T12:22:42Z</time>
      </trkpt>
      <trkpt lat="48.25133" lon="-4.22466">
        <ele>18.4</ele>
        <time>2013-04-17T12:22:58Z</time>
      </trkpt>
      <trkpt lat="48.25131" lon="-4.22495">
        <ele>16.96</ele>
        <time>2013-04-17T12:23:13Z</time>
      </trkpt>
      <trkpt lat="48.25131" lon="-4.22504">
        <ele>15.52</ele>
        <time>2013-04-17T12:23:17Z</time>
      </trkpt>
      <trkpt lat="48.25129" lon="-4.22519">
        <ele>15.04</ele>
        <time>2013-04-17T12:23:25Z</time>
      </trkpt>
      <trkpt lat="48.25131" lon="-4.22534">
        <ele>15.04</ele>
        <time>2013-04-17T12:23:37Z</time>
      </trkpt>
      <trkpt lat="48.25129" lon="-4.22555">
        <ele>11.67</ele>
        <time>2013-04-17T12:23:52Z</time>
      </trkpt>
      <trkpt lat="48.25132" lon="-4.22576">
        <ele>13.12</ele>
        <time>2013-04-17T12:24:03Z</time>
      </trkpt>
      <trkpt lat="48.2513" lon="-4.22588">
        <ele>11.19</ele>
        <time>2013-04-17T12:24:08Z</time>
      </trkpt>
      <trkpt lat="48.25132" lon="-4.22607">
        <ele>10.23</ele>
        <time>2013-04-17T12:24:20Z</time>
      </trkpt>
      <trkpt lat="48.25131" lon="-4.2261">
        <ele>10.71</ele>
        <time>2013-04-17T12:24:22Z</time>
      </trkpt>
      <trkpt lat="48.2513" lon="-4.22618">
        <ele>5.91</ele>
        <time>2013-04-17T12:24:27Z</time>
      </trkpt>
      <trkpt lat="48.25129" lon="-4.22619">
        <ele>9.27</ele>
        <time>2013-04-17T12:24:28Z</time>
      </trkpt>
      <trkpt lat="48.25129" lon="-4.2262">
        <ele>9.27</ele>
        <time>2013-04-17T12:24:29Z</time>
      </trkpt>
    </trkseg>
  </trk>
</gpx>